<?xml version="1.0" encoding="UTF-8" standalone="no" ?>
<gpx xmlns="http://www.topografix.com/GPX/1/1" xmlns:xsi="http://www.w3.org/2001/XMLSchema-instance" xsi:schemaLocation="http://www.topografix.com/GPX/1/1 http://www.topografix.com/GPX/1/1/gpx.xsd" version="1.1" creator="VisuGPX - https://www.visugpx.com">
  <metadata>
    <name>VTTHN Ramirez</name>
    <desc><![CDATA[Sortie du 26 01 2014]]></desc>
  </metadata>
  <trk>
    <name><![CDATA[2014-01-26 08:57]]></name>
    <trkseg>
      <trkpt lat="49.53038" lon="0.93537">
        <ele>36</ele>
        <time>2014-01-26T08:01:21Z</time>
      </trkpt>
      <trkpt lat="49.53053" lon="0.93558">
        <ele>35</ele>
        <time>2014-01-26T08:01:32Z</time>
      </trkpt>
      <trkpt lat="49.53073" lon="0.93562">
        <ele>35</ele>
        <time>2014-01-26T08:01:38Z</time>
      </trkpt>
      <trkpt lat="49.53091" lon="0.93568">
        <ele>36</ele>
        <time>2014-01-26T08:01:44Z</time>
      </trkpt>
      <trkpt lat="49.53111" lon="0.93576">
        <ele>37</ele>
        <time>2014-01-26T08:01:51Z</time>
      </trkpt>
      <trkpt lat="49.5313" lon="0.93584">
        <ele>33</ele>
        <time>2014-01-26T08:01:57Z</time>
      </trkpt>
      <trkpt lat="49.5315" lon="0.9359">
        <ele>34</ele>
        <time>2014-01-26T08:02:03Z</time>
      </trkpt>
      <trkpt lat="49.5317" lon="0.93596">
        <ele>36</ele>
        <time>2014-01-26T08:02:09Z</time>
      </trkpt>
      <trkpt lat="49.53189" lon="0.93604">
        <ele>37</ele>
        <time>2014-01-26T08:02:15Z</time>
      </trkpt>
      <trkpt lat="49.53208" lon="0.93609">
        <ele>38</ele>
        <time>2014-01-26T08:05:20Z</time>
      </trkpt>
      <trkpt lat="49.53229" lon="0.93614">
        <ele>39</ele>
        <time>2014-01-26T08:05:27Z</time>
      </trkpt>
      <trkpt lat="49.53247" lon="0.9362">
        <ele>39</ele>
        <time>2014-01-26T08:05:33Z</time>
      </trkpt>
      <trkpt lat="49.53267" lon="0.93625">
        <ele>45</ele>
        <time>2014-01-26T08:05:39Z</time>
      </trkpt>
      <trkpt lat="49.53285" lon="0.93632">
        <ele>46</ele>
        <time>2014-01-26T08:05:44Z</time>
      </trkpt>
      <trkpt lat="49.53302" lon="0.93645">
        <ele>46</ele>
        <time>2014-01-26T08:05:49Z</time>
      </trkpt>
      <trkpt lat="49.53318" lon="0.93663">
        <ele>45</ele>
        <time>2014-01-26T08:05:55Z</time>
      </trkpt>
      <trkpt lat="49.53333" lon="0.93681">
        <ele>39</ele>
        <time>2014-01-26T08:06:00Z</time>
      </trkpt>
      <trkpt lat="49.53348" lon="0.93698">
        <ele>45</ele>
        <time>2014-01-26T08:06:05Z</time>
      </trkpt>
      <trkpt lat="49.53359" lon="0.9372">
        <ele>44</ele>
        <time>2014-01-26T08:06:10Z</time>
      </trkpt>
      <trkpt lat="49.53349" lon="0.9375">
        <ele>35</ele>
        <time>2014-01-26T08:06:15Z</time>
      </trkpt>
      <trkpt lat="49.53339" lon="0.93774">
        <ele>34</ele>
        <time>2014-01-26T08:06:19Z</time>
      </trkpt>
      <trkpt lat="49.53327" lon="0.93802">
        <ele>31</ele>
        <time>2014-01-26T08:06:24Z</time>
      </trkpt>
      <trkpt lat="49.53314" lon="0.93828">
        <ele>30</ele>
        <time>2014-01-26T08:06:29Z</time>
      </trkpt>
      <trkpt lat="49.53303" lon="0.93853">
        <ele>30</ele>
        <time>2014-01-26T08:06:34Z</time>
      </trkpt>
      <trkpt lat="49.53292" lon="0.9388">
        <ele>30</ele>
        <time>2014-01-26T08:06:39Z</time>
      </trkpt>
      <trkpt lat="49.53283" lon="0.93905">
        <ele>30</ele>
        <time>2014-01-26T08:06:44Z</time>
      </trkpt>
      <trkpt lat="49.53272" lon="0.93934">
        <ele>30</ele>
        <time>2014-01-26T08:06:50Z</time>
      </trkpt>
      <trkpt lat="49.5327" lon="0.93965">
        <ele>31</ele>
        <time>2014-01-26T08:06:57Z</time>
      </trkpt>
      <trkpt lat="49.53282" lon="0.93992">
        <ele>31</ele>
        <time>2014-01-26T08:07:04Z</time>
      </trkpt>
      <trkpt lat="49.53293" lon="0.94018">
        <ele>34</ele>
        <time>2014-01-26T08:07:10Z</time>
      </trkpt>
      <trkpt lat="49.53303" lon="0.94043">
        <ele>34</ele>
        <time>2014-01-26T08:07:15Z</time>
      </trkpt>
      <trkpt lat="49.53314" lon="0.94067">
        <ele>34</ele>
        <time>2014-01-26T08:07:20Z</time>
      </trkpt>
      <trkpt lat="49.53324" lon="0.94091">
        <ele>37</ele>
        <time>2014-01-26T08:07:25Z</time>
      </trkpt>
      <trkpt lat="49.53335" lon="0.94115">
        <ele>36</ele>
        <time>2014-01-26T08:07:30Z</time>
      </trkpt>
      <trkpt lat="49.53347" lon="0.94141">
        <ele>37</ele>
        <time>2014-01-26T08:07:36Z</time>
      </trkpt>
      <trkpt lat="49.5336" lon="0.94165">
        <ele>38</ele>
        <time>2014-01-26T08:07:42Z</time>
      </trkpt>
      <trkpt lat="49.53373" lon="0.94191">
        <ele>40</ele>
        <time>2014-01-26T08:07:49Z</time>
      </trkpt>
      <trkpt lat="49.53386" lon="0.94215">
        <ele>39</ele>
        <time>2014-01-26T08:07:55Z</time>
      </trkpt>
      <trkpt lat="49.53398" lon="0.94235">
        <ele>38</ele>
        <time>2014-01-26T08:08:00Z</time>
      </trkpt>
      <trkpt lat="49.53413" lon="0.94256">
        <ele>38</ele>
        <time>2014-01-26T08:08:05Z</time>
      </trkpt>
      <trkpt lat="49.5343" lon="0.94276">
        <ele>39</ele>
        <time>2014-01-26T08:08:10Z</time>
      </trkpt>
      <trkpt lat="49.53445" lon="0.94292">
        <ele>40</ele>
        <time>2014-01-26T08:08:15Z</time>
      </trkpt>
      <trkpt lat="49.53464" lon="0.94309">
        <ele>40</ele>
        <time>2014-01-26T08:08:21Z</time>
      </trkpt>
      <trkpt lat="49.53481" lon="0.94322">
        <ele>39</ele>
        <time>2014-01-26T08:08:26Z</time>
      </trkpt>
      <trkpt lat="49.53502" lon="0.94333">
        <ele>39</ele>
        <time>2014-01-26T08:08:32Z</time>
      </trkpt>
      <trkpt lat="49.5352" lon="0.94346">
        <ele>42</ele>
        <time>2014-01-26T08:08:38Z</time>
      </trkpt>
      <trkpt lat="49.53537" lon="0.94361">
        <ele>42</ele>
        <time>2014-01-26T08:08:44Z</time>
      </trkpt>
      <trkpt lat="49.53555" lon="0.94376">
        <ele>43</ele>
        <time>2014-01-26T08:08:50Z</time>
      </trkpt>
      <trkpt lat="49.53572" lon="0.94392">
        <ele>43</ele>
        <time>2014-01-26T08:08:56Z</time>
      </trkpt>
      <trkpt lat="49.53588" lon="0.94406">
        <ele>42</ele>
        <time>2014-01-26T08:09:02Z</time>
      </trkpt>
      <trkpt lat="49.53606" lon="0.94422">
        <ele>44</ele>
        <time>2014-01-26T08:09:09Z</time>
      </trkpt>
      <trkpt lat="49.53621" lon="0.94439">
        <ele>44</ele>
        <time>2014-01-26T08:09:15Z</time>
      </trkpt>
      <trkpt lat="49.53638" lon="0.9443">
        <ele>44</ele>
        <time>2014-01-26T08:09:27Z</time>
      </trkpt>
      <trkpt lat="49.53645" lon="0.94404">
        <ele>41</ele>
        <time>2014-01-26T08:09:37Z</time>
      </trkpt>
      <trkpt lat="49.53654" lon="0.94378">
        <ele>40</ele>
        <time>2014-01-26T08:09:45Z</time>
      </trkpt>
      <trkpt lat="49.53668" lon="0.9436">
        <ele>39</ele>
        <time>2014-01-26T08:09:58Z</time>
      </trkpt>
      <trkpt lat="49.53681" lon="0.9434">
        <ele>38</ele>
        <time>2014-01-26T08:10:10Z</time>
      </trkpt>
      <trkpt lat="49.53696" lon="0.94324">
        <ele>38</ele>
        <time>2014-01-26T08:10:17Z</time>
      </trkpt>
      <trkpt lat="49.53705" lon="0.94299">
        <ele>37</ele>
        <time>2014-01-26T08:10:24Z</time>
      </trkpt>
      <trkpt lat="49.53724" lon="0.94309">
        <ele>37</ele>
        <time>2014-01-26T08:10:41Z</time>
      </trkpt>
      <trkpt lat="49.53739" lon="0.94327">
        <ele>37</ele>
        <time>2014-01-26T08:10:49Z</time>
      </trkpt>
      <trkpt lat="49.53753" lon="0.94349">
        <ele>37</ele>
        <time>2014-01-26T08:10:57Z</time>
      </trkpt>
      <trkpt lat="49.53767" lon="0.94367">
        <ele>38</ele>
        <time>2014-01-26T08:11:04Z</time>
      </trkpt>
      <trkpt lat="49.53782" lon="0.94384">
        <ele>38</ele>
        <time>2014-01-26T08:11:12Z</time>
      </trkpt>
      <trkpt lat="49.53796" lon="0.94403">
        <ele>39</ele>
        <time>2014-01-26T08:11:29Z</time>
      </trkpt>
      <trkpt lat="49.53784" lon="0.94427">
        <ele>40</ele>
        <time>2014-01-26T08:11:52Z</time>
      </trkpt>
      <trkpt lat="49.53782" lon="0.94455">
        <ele>39</ele>
        <time>2014-01-26T08:12:07Z</time>
      </trkpt>
      <trkpt lat="49.53788" lon="0.94483">
        <ele>39</ele>
        <time>2014-01-26T08:12:18Z</time>
      </trkpt>
      <trkpt lat="49.53806" lon="0.94483">
        <ele>39</ele>
        <time>2014-01-26T08:12:56Z</time>
      </trkpt>
      <trkpt lat="49.53816" lon="0.94506">
        <ele>38</ele>
        <time>2014-01-26T08:13:05Z</time>
      </trkpt>
      <trkpt lat="49.53825" lon="0.94533">
        <ele>39</ele>
        <time>2014-01-26T08:13:11Z</time>
      </trkpt>
      <trkpt lat="49.53837" lon="0.94555">
        <ele>37</ele>
        <time>2014-01-26T08:13:16Z</time>
      </trkpt>
      <trkpt lat="49.53842" lon="0.94584">
        <ele>37</ele>
        <time>2014-01-26T08:13:23Z</time>
      </trkpt>
      <trkpt lat="49.53846" lon="0.94613">
        <ele>38</ele>
        <time>2014-01-26T08:13:29Z</time>
      </trkpt>
      <trkpt lat="49.53856" lon="0.94641">
        <ele>38</ele>
        <time>2014-01-26T08:13:35Z</time>
      </trkpt>
      <trkpt lat="49.53866" lon="0.94667">
        <ele>41</ele>
        <time>2014-01-26T08:13:41Z</time>
      </trkpt>
      <trkpt lat="49.53875" lon="0.94694">
        <ele>42</ele>
        <time>2014-01-26T08:13:48Z</time>
      </trkpt>
      <trkpt lat="49.53891" lon="0.94708">
        <ele>42</ele>
        <time>2014-01-26T08:13:59Z</time>
      </trkpt>
      <trkpt lat="49.53908" lon="0.94719">
        <ele>41</ele>
        <time>2014-01-26T08:14:06Z</time>
      </trkpt>
      <trkpt lat="49.53923" lon="0.94739">
        <ele>39</ele>
        <time>2014-01-26T08:14:15Z</time>
      </trkpt>
      <trkpt lat="49.53907" lon="0.94722">
        <ele>41</ele>
        <time>2014-01-26T08:14:31Z</time>
      </trkpt>
      <trkpt lat="49.53922" lon="0.94741">
        <ele>39</ele>
        <time>2014-01-26T08:14:46Z</time>
      </trkpt>
      <trkpt lat="49.53937" lon="0.94755">
        <ele>41</ele>
        <time>2014-01-26T08:15:32Z</time>
      </trkpt>
      <trkpt lat="49.53954" lon="0.94771">
        <ele>41</ele>
        <time>2014-01-26T08:15:40Z</time>
      </trkpt>
      <trkpt lat="49.53956" lon="0.94802">
        <ele>42</ele>
        <time>2014-01-26T08:15:49Z</time>
      </trkpt>
      <trkpt lat="49.53971" lon="0.9482">
        <ele>41</ele>
        <time>2014-01-26T08:15:59Z</time>
      </trkpt>
      <trkpt lat="49.53987" lon="0.94833">
        <ele>40</ele>
        <time>2014-01-26T08:16:12Z</time>
      </trkpt>
      <trkpt lat="49.54001" lon="0.94852">
        <ele>39</ele>
        <time>2014-01-26T08:16:45Z</time>
      </trkpt>
      <trkpt lat="49.54017" lon="0.94867">
        <ele>39</ele>
        <time>2014-01-26T08:16:54Z</time>
      </trkpt>
      <trkpt lat="49.54033" lon="0.94885">
        <ele>39</ele>
        <time>2014-01-26T08:17:01Z</time>
      </trkpt>
      <trkpt lat="49.5405" lon="0.94903">
        <ele>39</ele>
        <time>2014-01-26T08:17:08Z</time>
      </trkpt>
      <trkpt lat="49.54067" lon="0.94922">
        <ele>41</ele>
        <time>2014-01-26T08:17:14Z</time>
      </trkpt>
      <trkpt lat="49.54082" lon="0.9494">
        <ele>41</ele>
        <time>2014-01-26T08:17:20Z</time>
      </trkpt>
      <trkpt lat="49.54098" lon="0.94958">
        <ele>39</ele>
        <time>2014-01-26T08:17:26Z</time>
      </trkpt>
      <trkpt lat="49.54114" lon="0.94975">
        <ele>39</ele>
        <time>2014-01-26T08:17:32Z</time>
      </trkpt>
      <trkpt lat="49.5413" lon="0.94992">
        <ele>40</ele>
        <time>2014-01-26T08:17:38Z</time>
      </trkpt>
      <trkpt lat="49.54147" lon="0.95009">
        <ele>42</ele>
        <time>2014-01-26T08:17:44Z</time>
      </trkpt>
      <trkpt lat="49.54164" lon="0.95026">
        <ele>43</ele>
        <time>2014-01-26T08:17:50Z</time>
      </trkpt>
      <trkpt lat="49.54181" lon="0.95044">
        <ele>41</ele>
        <time>2014-01-26T08:17:56Z</time>
      </trkpt>
      <trkpt lat="49.54196" lon="0.95059">
        <ele>41</ele>
        <time>2014-01-26T08:18:02Z</time>
      </trkpt>
      <trkpt lat="49.54213" lon="0.95079">
        <ele>41</ele>
        <time>2014-01-26T08:18:08Z</time>
      </trkpt>
      <trkpt lat="49.5423" lon="0.95099">
        <ele>43</ele>
        <time>2014-01-26T08:18:14Z</time>
      </trkpt>
      <trkpt lat="49.54246" lon="0.9512">
        <ele>44</ele>
        <time>2014-01-26T08:18:20Z</time>
      </trkpt>
      <trkpt lat="49.5426" lon="0.95142">
        <ele>43</ele>
        <time>2014-01-26T08:18:26Z</time>
      </trkpt>
      <trkpt lat="49.54272" lon="0.95163">
        <ele>43</ele>
        <time>2014-01-26T08:18:31Z</time>
      </trkpt>
      <trkpt lat="49.54283" lon="0.95186">
        <ele>45</ele>
        <time>2014-01-26T08:18:36Z</time>
      </trkpt>
      <trkpt lat="49.54294" lon="0.95211">
        <ele>45</ele>
        <time>2014-01-26T08:18:42Z</time>
      </trkpt>
      <trkpt lat="49.54306" lon="0.95237">
        <ele>45</ele>
        <time>2014-01-26T08:18:48Z</time>
      </trkpt>
      <trkpt lat="49.54316" lon="0.95265">
        <ele>47</ele>
        <time>2014-01-26T08:18:54Z</time>
      </trkpt>
      <trkpt lat="49.54325" lon="0.9529">
        <ele>48</ele>
        <time>2014-01-26T08:18:59Z</time>
      </trkpt>
      <trkpt lat="49.54332" lon="0.95316">
        <ele>48</ele>
        <time>2014-01-26T08:19:04Z</time>
      </trkpt>
      <trkpt lat="49.5434" lon="0.95344">
        <ele>47</ele>
        <time>2014-01-26T08:19:09Z</time>
      </trkpt>
      <trkpt lat="49.54348" lon="0.95371">
        <ele>48</ele>
        <time>2014-01-26T08:19:14Z</time>
      </trkpt>
      <trkpt lat="49.54354" lon="0.95397">
        <ele>48</ele>
        <time>2014-01-26T08:19:19Z</time>
      </trkpt>
      <trkpt lat="49.54362" lon="0.95425">
        <ele>49</ele>
        <time>2014-01-26T08:19:24Z</time>
      </trkpt>
      <trkpt lat="49.5437" lon="0.95452">
        <ele>49</ele>
        <time>2014-01-26T08:19:29Z</time>
      </trkpt>
      <trkpt lat="49.54378" lon="0.95481">
        <ele>49</ele>
        <time>2014-01-26T08:19:34Z</time>
      </trkpt>
      <trkpt lat="49.54386" lon="0.95506">
        <ele>50</ele>
        <time>2014-01-26T08:19:39Z</time>
      </trkpt>
      <trkpt lat="49.54395" lon="0.95536">
        <ele>50</ele>
        <time>2014-01-26T08:19:44Z</time>
      </trkpt>
      <trkpt lat="49.54407" lon="0.9556">
        <ele>51</ele>
        <time>2014-01-26T08:19:49Z</time>
      </trkpt>
      <trkpt lat="49.5442" lon="0.95585">
        <ele>50</ele>
        <time>2014-01-26T08:19:54Z</time>
      </trkpt>
      <trkpt lat="49.54433" lon="0.95609">
        <ele>49</ele>
        <time>2014-01-26T08:19:59Z</time>
      </trkpt>
      <trkpt lat="49.54447" lon="0.95635">
        <ele>50</ele>
        <time>2014-01-26T08:20:04Z</time>
      </trkpt>
      <trkpt lat="49.54461" lon="0.95661">
        <ele>49</ele>
        <time>2014-01-26T08:20:09Z</time>
      </trkpt>
      <trkpt lat="49.54473" lon="0.95685">
        <ele>50</ele>
        <time>2014-01-26T08:20:14Z</time>
      </trkpt>
      <trkpt lat="49.54487" lon="0.95711">
        <ele>49</ele>
        <time>2014-01-26T08:20:19Z</time>
      </trkpt>
      <trkpt lat="49.54507" lon="0.95709">
        <ele>46</ele>
        <time>2014-01-26T08:20:26Z</time>
      </trkpt>
      <trkpt lat="49.54523" lon="0.95696">
        <ele>46</ele>
        <time>2014-01-26T08:20:30Z</time>
      </trkpt>
      <trkpt lat="49.54543" lon="0.95693">
        <ele>46</ele>
        <time>2014-01-26T08:20:50Z</time>
      </trkpt>
      <trkpt lat="49.5456" lon="0.95679">
        <ele>46</ele>
        <time>2014-01-26T08:21:00Z</time>
      </trkpt>
      <trkpt lat="49.54573" lon="0.95659">
        <ele>46</ele>
        <time>2014-01-26T08:21:06Z</time>
      </trkpt>
      <trkpt lat="49.54594" lon="0.9565">
        <ele>46</ele>
        <time>2014-01-26T08:21:11Z</time>
      </trkpt>
      <trkpt lat="49.54612" lon="0.95637">
        <ele>47</ele>
        <time>2014-01-26T08:21:15Z</time>
      </trkpt>
      <trkpt lat="49.54633" lon="0.95635">
        <ele>47</ele>
        <time>2014-01-26T08:21:20Z</time>
      </trkpt>
      <trkpt lat="49.54652" lon="0.95629">
        <ele>47</ele>
        <time>2014-01-26T08:21:25Z</time>
      </trkpt>
      <trkpt lat="49.54667" lon="0.95606">
        <ele>49</ele>
        <time>2014-01-26T08:21:30Z</time>
      </trkpt>
      <trkpt lat="49.5468" lon="0.95585">
        <ele>48</ele>
        <time>2014-01-26T08:21:35Z</time>
      </trkpt>
      <trkpt lat="49.54698" lon="0.95575">
        <ele>51</ele>
        <time>2014-01-26T08:22:11Z</time>
      </trkpt>
      <trkpt lat="49.54718" lon="0.95588">
        <ele>51</ele>
        <time>2014-01-26T08:22:17Z</time>
      </trkpt>
      <trkpt lat="49.54737" lon="0.95601">
        <ele>52</ele>
        <time>2014-01-26T08:22:22Z</time>
      </trkpt>
      <trkpt lat="49.54752" lon="0.9562">
        <ele>50</ele>
        <time>2014-01-26T08:22:26Z</time>
      </trkpt>
      <trkpt lat="49.54769" lon="0.95631">
        <ele>49</ele>
        <time>2014-01-26T08:22:31Z</time>
      </trkpt>
      <trkpt lat="49.54789" lon="0.95621">
        <ele>49</ele>
        <time>2014-01-26T08:22:37Z</time>
      </trkpt>
      <trkpt lat="49.54794" lon="0.95594">
        <ele>49</ele>
        <time>2014-01-26T08:22:42Z</time>
      </trkpt>
      <trkpt lat="49.54789" lon="0.95567">
        <ele>54</ele>
        <time>2014-01-26T08:23:14Z</time>
      </trkpt>
      <trkpt lat="49.54794" lon="0.95536">
        <ele>55</ele>
        <time>2014-01-26T08:23:23Z</time>
      </trkpt>
      <trkpt lat="49.54806" lon="0.95516">
        <ele>55</ele>
        <time>2014-01-26T08:23:30Z</time>
      </trkpt>
      <trkpt lat="49.5482" lon="0.95496">
        <ele>58</ele>
        <time>2014-01-26T08:23:36Z</time>
      </trkpt>
      <trkpt lat="49.54835" lon="0.95478">
        <ele>59</ele>
        <time>2014-01-26T08:23:43Z</time>
      </trkpt>
      <trkpt lat="49.54848" lon="0.95458">
        <ele>61</ele>
        <time>2014-01-26T08:23:51Z</time>
      </trkpt>
      <trkpt lat="49.54862" lon="0.95441">
        <ele>62</ele>
        <time>2014-01-26T08:24:02Z</time>
      </trkpt>
      <trkpt lat="49.54874" lon="0.9542">
        <ele>63</ele>
        <time>2014-01-26T08:24:17Z</time>
      </trkpt>
      <trkpt lat="49.54878" lon="0.95448">
        <ele>61</ele>
        <time>2014-01-26T08:24:55Z</time>
      </trkpt>
      <trkpt lat="49.54885" lon="0.95479">
        <ele>58</ele>
        <time>2014-01-26T08:24:59Z</time>
      </trkpt>
      <trkpt lat="49.549" lon="0.95503">
        <ele>51</ele>
        <time>2014-01-26T08:25:04Z</time>
      </trkpt>
      <trkpt lat="49.5489" lon="0.95526">
        <ele>51</ele>
        <time>2014-01-26T08:25:17Z</time>
      </trkpt>
      <trkpt lat="49.54871" lon="0.95536">
        <ele>51</ele>
        <time>2014-01-26T08:25:26Z</time>
      </trkpt>
      <trkpt lat="49.54891" lon="0.9553">
        <ele>51</ele>
        <time>2014-01-26T08:25:49Z</time>
      </trkpt>
      <trkpt lat="49.5487" lon="0.95537">
        <ele>51</ele>
        <time>2014-01-26T08:25:59Z</time>
      </trkpt>
      <trkpt lat="49.54853" lon="0.95553">
        <ele>50</ele>
        <time>2014-01-26T08:26:05Z</time>
      </trkpt>
      <trkpt lat="49.54839" lon="0.95572">
        <ele>49</ele>
        <time>2014-01-26T08:26:10Z</time>
      </trkpt>
      <trkpt lat="49.54823" lon="0.95588">
        <ele>48</ele>
        <time>2014-01-26T08:26:16Z</time>
      </trkpt>
      <trkpt lat="49.54807" lon="0.95608">
        <ele>49</ele>
        <time>2014-01-26T08:26:22Z</time>
      </trkpt>
      <trkpt lat="49.54804" lon="0.95637">
        <ele>48</ele>
        <time>2014-01-26T08:26:29Z</time>
      </trkpt>
      <trkpt lat="49.54814" lon="0.95661">
        <ele>47</ele>
        <time>2014-01-26T08:26:34Z</time>
      </trkpt>
      <trkpt lat="49.54826" lon="0.95688">
        <ele>45</ele>
        <time>2014-01-26T08:26:39Z</time>
      </trkpt>
      <trkpt lat="49.54838" lon="0.9571">
        <ele>45</ele>
        <time>2014-01-26T08:26:44Z</time>
      </trkpt>
      <trkpt lat="49.54855" lon="0.95725">
        <ele>46</ele>
        <time>2014-01-26T08:26:50Z</time>
      </trkpt>
      <trkpt lat="49.54874" lon="0.95738">
        <ele>46</ele>
        <time>2014-01-26T08:26:56Z</time>
      </trkpt>
      <trkpt lat="49.5489" lon="0.95754">
        <ele>48</ele>
        <time>2014-01-26T08:27:02Z</time>
      </trkpt>
      <trkpt lat="49.5491" lon="0.95764">
        <ele>48</ele>
        <time>2014-01-26T08:27:08Z</time>
      </trkpt>
      <trkpt lat="49.54929" lon="0.95766">
        <ele>49</ele>
        <time>2014-01-26T08:27:13Z</time>
      </trkpt>
      <trkpt lat="49.54949" lon="0.95758">
        <ele>50</ele>
        <time>2014-01-26T08:27:19Z</time>
      </trkpt>
      <trkpt lat="49.54963" lon="0.95736">
        <ele>47</ele>
        <time>2014-01-26T08:27:24Z</time>
      </trkpt>
      <trkpt lat="49.54975" lon="0.95714">
        <ele>47</ele>
        <time>2014-01-26T08:27:29Z</time>
      </trkpt>
      <trkpt lat="49.54986" lon="0.95692">
        <ele>47</ele>
        <time>2014-01-26T08:27:34Z</time>
      </trkpt>
      <trkpt lat="49.55003" lon="0.95679">
        <ele>47</ele>
        <time>2014-01-26T08:27:40Z</time>
      </trkpt>
      <trkpt lat="49.55022" lon="0.95674">
        <ele>47</ele>
        <time>2014-01-26T08:28:00Z</time>
      </trkpt>
      <trkpt lat="49.55039" lon="0.95684">
        <ele>48</ele>
        <time>2014-01-26T08:28:19Z</time>
      </trkpt>
      <trkpt lat="49.55056" lon="0.95668">
        <ele>47</ele>
        <time>2014-01-26T08:28:24Z</time>
      </trkpt>
      <trkpt lat="49.55072" lon="0.95655">
        <ele>47</ele>
        <time>2014-01-26T08:28:29Z</time>
      </trkpt>
      <trkpt lat="49.5509" lon="0.95643">
        <ele>47</ele>
        <time>2014-01-26T08:28:36Z</time>
      </trkpt>
      <trkpt lat="49.5511" lon="0.9564">
        <ele>47</ele>
        <time>2014-01-26T08:28:43Z</time>
      </trkpt>
      <trkpt lat="49.55128" lon="0.95629">
        <ele>48</ele>
        <time>2014-01-26T08:28:49Z</time>
      </trkpt>
      <trkpt lat="49.55146" lon="0.95612">
        <ele>48</ele>
        <time>2014-01-26T08:28:55Z</time>
      </trkpt>
      <trkpt lat="49.55136" lon="0.95589">
        <ele>47</ele>
        <time>2014-01-26T08:29:01Z</time>
      </trkpt>
      <trkpt lat="49.55125" lon="0.95566">
        <ele>48</ele>
        <time>2014-01-26T08:29:06Z</time>
      </trkpt>
      <trkpt lat="49.55122" lon="0.95538">
        <ele>48</ele>
        <time>2014-01-26T08:29:12Z</time>
      </trkpt>
      <trkpt lat="49.55137" lon="0.95517">
        <ele>48</ele>
        <time>2014-01-26T08:29:18Z</time>
      </trkpt>
      <trkpt lat="49.55152" lon="0.95502">
        <ele>48</ele>
        <time>2014-01-26T08:29:23Z</time>
      </trkpt>
      <trkpt lat="49.5517" lon="0.95487">
        <ele>48</ele>
        <time>2014-01-26T08:29:29Z</time>
      </trkpt>
      <trkpt lat="49.55185" lon="0.9547">
        <ele>48</ele>
        <time>2014-01-26T08:29:34Z</time>
      </trkpt>
      <trkpt lat="49.55202" lon="0.95458">
        <ele>48</ele>
        <time>2014-01-26T08:29:39Z</time>
      </trkpt>
      <trkpt lat="49.55209" lon="0.95432">
        <ele>48</ele>
        <time>2014-01-26T08:29:46Z</time>
      </trkpt>
      <trkpt lat="49.55228" lon="0.95419">
        <ele>49</ele>
        <time>2014-01-26T08:29:52Z</time>
      </trkpt>
      <trkpt lat="49.55247" lon="0.9541">
        <ele>50</ele>
        <time>2014-01-26T08:29:58Z</time>
      </trkpt>
      <trkpt lat="49.55265" lon="0.95403">
        <ele>51</ele>
        <time>2014-01-26T08:30:03Z</time>
      </trkpt>
      <trkpt lat="49.55284" lon="0.95394">
        <ele>51</ele>
        <time>2014-01-26T08:30:08Z</time>
      </trkpt>
      <trkpt lat="49.55302" lon="0.95401">
        <ele>51</ele>
        <time>2014-01-26T08:30:16Z</time>
      </trkpt>
      <trkpt lat="49.55309" lon="0.95431">
        <ele>49</ele>
        <time>2014-01-26T08:30:22Z</time>
      </trkpt>
      <trkpt lat="49.55315" lon="0.95462">
        <ele>49</ele>
        <time>2014-01-26T08:30:28Z</time>
      </trkpt>
      <trkpt lat="49.55321" lon="0.95492">
        <ele>48</ele>
        <time>2014-01-26T08:30:34Z</time>
      </trkpt>
      <trkpt lat="49.55328" lon="0.9552">
        <ele>48</ele>
        <time>2014-01-26T08:30:39Z</time>
      </trkpt>
      <trkpt lat="49.55334" lon="0.95548">
        <ele>49</ele>
        <time>2014-01-26T08:30:45Z</time>
      </trkpt>
      <trkpt lat="49.55353" lon="0.9555">
        <ele>50</ele>
        <time>2014-01-26T08:30:51Z</time>
      </trkpt>
      <trkpt lat="49.55371" lon="0.95532">
        <ele>49</ele>
        <time>2014-01-26T08:30:57Z</time>
      </trkpt>
      <trkpt lat="49.55388" lon="0.95519">
        <ele>49</ele>
        <time>2014-01-26T08:31:02Z</time>
      </trkpt>
      <trkpt lat="49.55407" lon="0.95513">
        <ele>48</ele>
        <time>2014-01-26T08:31:06Z</time>
      </trkpt>
      <trkpt lat="49.55423" lon="0.955">
        <ele>48</ele>
        <time>2014-01-26T08:31:10Z</time>
      </trkpt>
      <trkpt lat="49.55441" lon="0.95484">
        <ele>48</ele>
        <time>2014-01-26T08:31:15Z</time>
      </trkpt>
      <trkpt lat="49.55459" lon="0.95469">
        <ele>48</ele>
        <time>2014-01-26T08:31:20Z</time>
      </trkpt>
      <trkpt lat="49.55478" lon="0.95456">
        <ele>48</ele>
        <time>2014-01-26T08:31:25Z</time>
      </trkpt>
      <trkpt lat="49.55497" lon="0.95446">
        <ele>48</ele>
        <time>2014-01-26T08:31:30Z</time>
      </trkpt>
      <trkpt lat="49.55517" lon="0.95447">
        <ele>48</ele>
        <time>2014-01-26T08:31:35Z</time>
      </trkpt>
      <trkpt lat="49.55539" lon="0.95448">
        <ele>48</ele>
        <time>2014-01-26T08:31:40Z</time>
      </trkpt>
      <trkpt lat="49.55559" lon="0.9545">
        <ele>48</ele>
        <time>2014-01-26T08:31:45Z</time>
      </trkpt>
      <trkpt lat="49.55579" lon="0.95451">
        <ele>48</ele>
        <time>2014-01-26T08:31:50Z</time>
      </trkpt>
      <trkpt lat="49.55598" lon="0.95451">
        <ele>49</ele>
        <time>2014-01-26T08:31:55Z</time>
      </trkpt>
      <trkpt lat="49.55612" lon="0.95471">
        <ele>49</ele>
        <time>2014-01-26T08:32:10Z</time>
      </trkpt>
      <trkpt lat="49.55602" lon="0.95498">
        <ele>49</ele>
        <time>2014-01-26T08:32:16Z</time>
      </trkpt>
      <trkpt lat="49.556" lon="0.95526">
        <ele>52</ele>
        <time>2014-01-26T08:32:25Z</time>
      </trkpt>
      <trkpt lat="49.55618" lon="0.95532">
        <ele>52</ele>
        <time>2014-01-26T08:32:32Z</time>
      </trkpt>
      <trkpt lat="49.55638" lon="0.95529">
        <ele>52</ele>
        <time>2014-01-26T08:32:38Z</time>
      </trkpt>
      <trkpt lat="49.55659" lon="0.95528">
        <ele>52</ele>
        <time>2014-01-26T08:32:44Z</time>
      </trkpt>
      <trkpt lat="49.55677" lon="0.9553">
        <ele>54</ele>
        <time>2014-01-26T08:32:50Z</time>
      </trkpt>
      <trkpt lat="49.55668" lon="0.95559">
        <ele>55</ele>
        <time>2014-01-26T08:32:57Z</time>
      </trkpt>
      <trkpt lat="49.55652" lon="0.95576">
        <ele>55</ele>
        <time>2014-01-26T08:33:06Z</time>
      </trkpt>
      <trkpt lat="49.55634" lon="0.95589">
        <ele>60</ele>
        <time>2014-01-26T08:33:16Z</time>
      </trkpt>
      <trkpt lat="49.55618" lon="0.95602">
        <ele>60</ele>
        <time>2014-01-26T08:33:26Z</time>
      </trkpt>
      <trkpt lat="49.55601" lon="0.95613">
        <ele>61</ele>
        <time>2014-01-26T08:33:36Z</time>
      </trkpt>
      <trkpt lat="49.55585" lon="0.95629">
        <ele>63</ele>
        <time>2014-01-26T08:33:47Z</time>
      </trkpt>
      <trkpt lat="49.55568" lon="0.95642">
        <ele>64</ele>
        <time>2014-01-26T08:33:57Z</time>
      </trkpt>
      <trkpt lat="49.55551" lon="0.95655">
        <ele>65</ele>
        <time>2014-01-26T08:34:07Z</time>
      </trkpt>
      <trkpt lat="49.55534" lon="0.95665">
        <ele>65</ele>
        <time>2014-01-26T08:34:17Z</time>
      </trkpt>
      <trkpt lat="49.55516" lon="0.9567">
        <ele>72</ele>
        <time>2014-01-26T08:34:25Z</time>
      </trkpt>
      <trkpt lat="49.55497" lon="0.95672">
        <ele>69</ele>
        <time>2014-01-26T08:34:39Z</time>
      </trkpt>
      <trkpt lat="49.55479" lon="0.95676">
        <ele>69</ele>
        <time>2014-01-26T08:34:56Z</time>
      </trkpt>
      <trkpt lat="49.55493" lon="0.95697">
        <ele>70</ele>
        <time>2014-01-26T08:35:58Z</time>
      </trkpt>
      <trkpt lat="49.5551" lon="0.95706">
        <ele>74</ele>
        <time>2014-01-26T08:36:10Z</time>
      </trkpt>
      <trkpt lat="49.55519" lon="0.95732">
        <ele>76</ele>
        <time>2014-01-26T08:36:23Z</time>
      </trkpt>
      <trkpt lat="49.55528" lon="0.95757">
        <ele>82</ele>
        <time>2014-01-26T08:36:39Z</time>
      </trkpt>
      <trkpt lat="49.55535" lon="0.95782">
        <ele>83</ele>
        <time>2014-01-26T08:37:02Z</time>
      </trkpt>
      <trkpt lat="49.55545" lon="0.95808">
        <ele>85</ele>
        <time>2014-01-26T08:37:32Z</time>
      </trkpt>
      <trkpt lat="49.55562" lon="0.95815">
        <ele>87</ele>
        <time>2014-01-26T08:37:45Z</time>
      </trkpt>
      <trkpt lat="49.55581" lon="0.95821">
        <ele>89</ele>
        <time>2014-01-26T08:37:57Z</time>
      </trkpt>
      <trkpt lat="49.55599" lon="0.95828">
        <ele>92</ele>
        <time>2014-01-26T08:38:15Z</time>
      </trkpt>
      <trkpt lat="49.55617" lon="0.95833">
        <ele>92</ele>
        <time>2014-01-26T08:38:29Z</time>
      </trkpt>
      <trkpt lat="49.55635" lon="0.95837">
        <ele>98</ele>
        <time>2014-01-26T08:38:38Z</time>
      </trkpt>
      <trkpt lat="49.55654" lon="0.95842">
        <ele>99</ele>
        <time>2014-01-26T08:38:48Z</time>
      </trkpt>
      <trkpt lat="49.55674" lon="0.95847">
        <ele>101</ele>
        <time>2014-01-26T08:38:58Z</time>
      </trkpt>
      <trkpt lat="49.55692" lon="0.95853">
        <ele>102</ele>
        <time>2014-01-26T08:39:08Z</time>
      </trkpt>
      <trkpt lat="49.5571" lon="0.95856">
        <ele>102</ele>
        <time>2014-01-26T08:39:16Z</time>
      </trkpt>
      <trkpt lat="49.55729" lon="0.95862">
        <ele>102</ele>
        <time>2014-01-26T08:39:25Z</time>
      </trkpt>
      <trkpt lat="49.55749" lon="0.95868">
        <ele>102</ele>
        <time>2014-01-26T08:39:33Z</time>
      </trkpt>
      <trkpt lat="49.55768" lon="0.95872">
        <ele>103</ele>
        <time>2014-01-26T08:39:41Z</time>
      </trkpt>
      <trkpt lat="49.55787" lon="0.95876">
        <ele>104</ele>
        <time>2014-01-26T08:39:48Z</time>
      </trkpt>
      <trkpt lat="49.55805" lon="0.95882">
        <ele>104</ele>
        <time>2014-01-26T08:39:54Z</time>
      </trkpt>
      <trkpt lat="49.55827" lon="0.95877">
        <ele>104</ele>
        <time>2014-01-26T08:40:01Z</time>
      </trkpt>
      <trkpt lat="49.55844" lon="0.95864">
        <ele>104</ele>
        <time>2014-01-26T08:40:05Z</time>
      </trkpt>
      <trkpt lat="49.55861" lon="0.95851">
        <ele>104</ele>
        <time>2014-01-26T08:40:09Z</time>
      </trkpt>
      <trkpt lat="49.55879" lon="0.95843">
        <ele>103</ele>
        <time>2014-01-26T08:40:14Z</time>
      </trkpt>
      <trkpt lat="49.55897" lon="0.95847">
        <ele>103</ele>
        <time>2014-01-26T08:40:21Z</time>
      </trkpt>
      <trkpt lat="49.559" lon="0.95875">
        <ele>104</ele>
        <time>2014-01-26T08:40:44Z</time>
      </trkpt>
      <trkpt lat="49.55908" lon="0.9585">
        <ele>103</ele>
        <time>2014-01-26T08:41:03Z</time>
      </trkpt>
      <trkpt lat="49.55917" lon="0.95874">
        <ele>104</ele>
        <time>2014-01-26T08:42:29Z</time>
      </trkpt>
      <trkpt lat="49.55936" lon="0.95878">
        <ele>105</ele>
        <time>2014-01-26T08:42:41Z</time>
      </trkpt>
      <trkpt lat="49.55954" lon="0.95877">
        <ele>105</ele>
        <time>2014-01-26T08:42:49Z</time>
      </trkpt>
      <trkpt lat="49.55973" lon="0.95875">
        <ele>105</ele>
        <time>2014-01-26T08:42:57Z</time>
      </trkpt>
      <trkpt lat="49.55993" lon="0.95875">
        <ele>105</ele>
        <time>2014-01-26T08:43:04Z</time>
      </trkpt>
      <trkpt lat="49.56012" lon="0.9588">
        <ele>104</ele>
        <time>2014-01-26T08:43:13Z</time>
      </trkpt>
      <trkpt lat="49.56029" lon="0.95894">
        <ele>104</ele>
        <time>2014-01-26T08:43:22Z</time>
      </trkpt>
      <trkpt lat="49.56046" lon="0.95907">
        <ele>105</ele>
        <time>2014-01-26T08:43:31Z</time>
      </trkpt>
      <trkpt lat="49.56061" lon="0.95922">
        <ele>108</ele>
        <time>2014-01-26T08:43:42Z</time>
      </trkpt>
      <trkpt lat="49.56075" lon="0.9594">
        <ele>108</ele>
        <time>2014-01-26T08:43:50Z</time>
      </trkpt>
      <trkpt lat="49.56085" lon="0.95964">
        <ele>107</ele>
        <time>2014-01-26T08:43:58Z</time>
      </trkpt>
      <trkpt lat="49.56088" lon="0.95991">
        <ele>107</ele>
        <time>2014-01-26T08:44:05Z</time>
      </trkpt>
      <trkpt lat="49.56102" lon="0.95972">
        <ele>107</ele>
        <time>2014-01-26T08:44:23Z</time>
      </trkpt>
      <trkpt lat="49.56112" lon="0.95941">
        <ele>106</ele>
        <time>2014-01-26T08:44:27Z</time>
      </trkpt>
      <trkpt lat="49.56131" lon="0.95937">
        <ele>106</ele>
        <time>2014-01-26T08:44:32Z</time>
      </trkpt>
      <trkpt lat="49.56152" lon="0.95944">
        <ele>105</ele>
        <time>2014-01-26T08:44:38Z</time>
      </trkpt>
      <trkpt lat="49.56173" lon="0.95947">
        <ele>105</ele>
        <time>2014-01-26T08:44:44Z</time>
      </trkpt>
      <trkpt lat="49.56193" lon="0.9595">
        <ele>106</ele>
        <time>2014-01-26T08:44:50Z</time>
      </trkpt>
      <trkpt lat="49.56212" lon="0.9595">
        <ele>106</ele>
        <time>2014-01-26T08:44:55Z</time>
      </trkpt>
      <trkpt lat="49.56231" lon="0.9595">
        <ele>106</ele>
        <time>2014-01-26T08:45:01Z</time>
      </trkpt>
      <trkpt lat="49.56249" lon="0.95953">
        <ele>106</ele>
        <time>2014-01-26T08:45:07Z</time>
      </trkpt>
      <trkpt lat="49.56268" lon="0.95957">
        <ele>107</ele>
        <time>2014-01-26T08:45:14Z</time>
      </trkpt>
      <trkpt lat="49.56288" lon="0.95955">
        <ele>107</ele>
        <time>2014-01-26T08:45:21Z</time>
      </trkpt>
      <trkpt lat="49.56306" lon="0.95954">
        <ele>107</ele>
        <time>2014-01-26T08:45:28Z</time>
      </trkpt>
      <trkpt lat="49.56328" lon="0.95953">
        <ele>107</ele>
        <time>2014-01-26T08:45:34Z</time>
      </trkpt>
      <trkpt lat="49.56348" lon="0.95952">
        <ele>106</ele>
        <time>2014-01-26T08:45:40Z</time>
      </trkpt>
      <trkpt lat="49.56369" lon="0.9595">
        <ele>106</ele>
        <time>2014-01-26T08:45:46Z</time>
      </trkpt>
      <trkpt lat="49.56389" lon="0.95948">
        <ele>105</ele>
        <time>2014-01-26T08:45:51Z</time>
      </trkpt>
      <trkpt lat="49.56409" lon="0.95946">
        <ele>105</ele>
        <time>2014-01-26T08:45:56Z</time>
      </trkpt>
      <trkpt lat="49.5643" lon="0.95945">
        <ele>104</ele>
        <time>2014-01-26T08:46:01Z</time>
      </trkpt>
      <trkpt lat="49.56452" lon="0.95942">
        <ele>104</ele>
        <time>2014-01-26T08:46:06Z</time>
      </trkpt>
      <trkpt lat="49.56471" lon="0.95944">
        <ele>104</ele>
        <time>2014-01-26T08:46:11Z</time>
      </trkpt>
      <trkpt lat="49.56475" lon="0.95975">
        <ele>106</ele>
        <time>2014-01-26T08:46:42Z</time>
      </trkpt>
      <trkpt lat="49.56478" lon="0.96002">
        <ele>110</ele>
        <time>2014-01-26T08:46:49Z</time>
      </trkpt>
      <trkpt lat="49.56482" lon="0.96033">
        <ele>111</ele>
        <time>2014-01-26T08:46:56Z</time>
      </trkpt>
      <trkpt lat="49.56496" lon="0.96052">
        <ele>112</ele>
        <time>2014-01-26T08:47:00Z</time>
      </trkpt>
      <trkpt lat="49.56512" lon="0.96078">
        <ele>114</ele>
        <time>2014-01-26T08:47:04Z</time>
      </trkpt>
      <trkpt lat="49.5652" lon="0.96104">
        <ele>117</ele>
        <time>2014-01-26T08:47:07Z</time>
      </trkpt>
      <trkpt lat="49.56526" lon="0.96131">
        <ele>118</ele>
        <time>2014-01-26T08:47:10Z</time>
      </trkpt>
      <trkpt lat="49.5653" lon="0.96159">
        <ele>118</ele>
        <time>2014-01-26T08:47:13Z</time>
      </trkpt>
      <trkpt lat="49.56531" lon="0.96192">
        <ele>121</ele>
        <time>2014-01-26T08:47:17Z</time>
      </trkpt>
      <trkpt lat="49.5653" lon="0.96222">
        <ele>121</ele>
        <time>2014-01-26T08:47:22Z</time>
      </trkpt>
      <trkpt lat="49.56534" lon="0.96254">
        <ele>122</ele>
        <time>2014-01-26T08:47:29Z</time>
      </trkpt>
      <trkpt lat="49.56534" lon="0.96283">
        <ele>122</ele>
        <time>2014-01-26T08:47:37Z</time>
      </trkpt>
      <trkpt lat="49.5653" lon="0.96251">
        <ele>122</ele>
        <time>2014-01-26T08:48:02Z</time>
      </trkpt>
      <trkpt lat="49.56528" lon="0.96221">
        <ele>121</ele>
        <time>2014-01-26T08:48:07Z</time>
      </trkpt>
      <trkpt lat="49.56529" lon="0.96252">
        <ele>122</ele>
        <time>2014-01-26T08:48:16Z</time>
      </trkpt>
      <trkpt lat="49.56533" lon="0.96283">
        <ele>122</ele>
        <time>2014-01-26T08:48:24Z</time>
      </trkpt>
      <trkpt lat="49.56551" lon="0.96291">
        <ele>123</ele>
        <time>2014-01-26T08:48:30Z</time>
      </trkpt>
      <trkpt lat="49.56572" lon="0.9629">
        <ele>123</ele>
        <time>2014-01-26T08:48:36Z</time>
      </trkpt>
      <trkpt lat="49.56591" lon="0.9629">
        <ele>124</ele>
        <time>2014-01-26T08:48:41Z</time>
      </trkpt>
      <trkpt lat="49.56609" lon="0.9629">
        <ele>124</ele>
        <time>2014-01-26T08:48:46Z</time>
      </trkpt>
      <trkpt lat="49.5663" lon="0.96291">
        <ele>124</ele>
        <time>2014-01-26T08:48:51Z</time>
      </trkpt>
      <trkpt lat="49.5665" lon="0.96292">
        <ele>124</ele>
        <time>2014-01-26T08:48:56Z</time>
      </trkpt>
      <trkpt lat="49.56669" lon="0.96291">
        <ele>124</ele>
        <time>2014-01-26T08:49:01Z</time>
      </trkpt>
      <trkpt lat="49.56688" lon="0.96288">
        <ele>124</ele>
        <time>2014-01-26T08:49:06Z</time>
      </trkpt>
      <trkpt lat="49.56708" lon="0.96286">
        <ele>124</ele>
        <time>2014-01-26T08:49:11Z</time>
      </trkpt>
      <trkpt lat="49.5673" lon="0.96284">
        <ele>124</ele>
        <time>2014-01-26T08:49:16Z</time>
      </trkpt>
      <trkpt lat="49.56747" lon="0.96271">
        <ele>124</ele>
        <time>2014-01-26T08:49:21Z</time>
      </trkpt>
      <trkpt lat="49.56751" lon="0.96241">
        <ele>122</ele>
        <time>2014-01-26T08:49:25Z</time>
      </trkpt>
      <trkpt lat="49.56749" lon="0.96209">
        <ele>121</ele>
        <time>2014-01-26T08:49:29Z</time>
      </trkpt>
      <trkpt lat="49.56768" lon="0.962">
        <ele>120</ele>
        <time>2014-01-26T08:49:37Z</time>
      </trkpt>
      <trkpt lat="49.56785" lon="0.96188">
        <ele>120</ele>
        <time>2014-01-26T08:49:45Z</time>
      </trkpt>
      <trkpt lat="49.56785" lon="0.96156">
        <ele>118</ele>
        <time>2014-01-26T08:49:52Z</time>
      </trkpt>
      <trkpt lat="49.56787" lon="0.96128">
        <ele>117</ele>
        <time>2014-01-26T08:49:58Z</time>
      </trkpt>
      <trkpt lat="49.56789" lon="0.96097">
        <ele>117</ele>
        <time>2014-01-26T08:50:04Z</time>
      </trkpt>
      <trkpt lat="49.56791" lon="0.96067">
        <ele>115</ele>
        <time>2014-01-26T08:50:09Z</time>
      </trkpt>
      <trkpt lat="49.56793" lon="0.96037">
        <ele>115</ele>
        <time>2014-01-26T08:50:14Z</time>
      </trkpt>
      <trkpt lat="49.56795" lon="0.96006">
        <ele>114</ele>
        <time>2014-01-26T08:50:19Z</time>
      </trkpt>
      <trkpt lat="49.56798" lon="0.95975">
        <ele>112</ele>
        <time>2014-01-26T08:50:24Z</time>
      </trkpt>
      <trkpt lat="49.56803" lon="0.95945">
        <ele>111</ele>
        <time>2014-01-26T08:50:29Z</time>
      </trkpt>
      <trkpt lat="49.56816" lon="0.95925">
        <ele>111</ele>
        <time>2014-01-26T08:50:36Z</time>
      </trkpt>
      <trkpt lat="49.56834" lon="0.95915">
        <ele>111</ele>
        <time>2014-01-26T08:51:23Z</time>
      </trkpt>
      <trkpt lat="49.56832" lon="0.95885">
        <ele>107</ele>
        <time>2014-01-26T08:51:31Z</time>
      </trkpt>
      <trkpt lat="49.5684" lon="0.95858">
        <ele>108</ele>
        <time>2014-01-26T08:51:44Z</time>
      </trkpt>
      <trkpt lat="49.56845" lon="0.95826">
        <ele>103</ele>
        <time>2014-01-26T08:51:48Z</time>
      </trkpt>
      <trkpt lat="49.56851" lon="0.95794">
        <ele>101</ele>
        <time>2014-01-26T08:51:52Z</time>
      </trkpt>
      <trkpt lat="49.56857" lon="0.95767">
        <ele>99</ele>
        <time>2014-01-26T08:51:56Z</time>
      </trkpt>
      <trkpt lat="49.56867" lon="0.9574">
        <ele>90</ele>
        <time>2014-01-26T08:52:02Z</time>
      </trkpt>
      <trkpt lat="49.56885" lon="0.95745">
        <ele>90</ele>
        <time>2014-01-26T08:53:10Z</time>
      </trkpt>
      <trkpt lat="49.56901" lon="0.95759">
        <ele>99</ele>
        <time>2014-01-26T08:54:21Z</time>
      </trkpt>
      <trkpt lat="49.56919" lon="0.95762">
        <ele>98</ele>
        <time>2014-01-26T08:54:28Z</time>
      </trkpt>
      <trkpt lat="49.5694" lon="0.95766">
        <ele>98</ele>
        <time>2014-01-26T08:54:35Z</time>
      </trkpt>
      <trkpt lat="49.56958" lon="0.95779">
        <ele>98</ele>
        <time>2014-01-26T08:54:42Z</time>
      </trkpt>
      <trkpt lat="49.56975" lon="0.95795">
        <ele>98</ele>
        <time>2014-01-26T08:54:49Z</time>
      </trkpt>
      <trkpt lat="49.56992" lon="0.9581">
        <ele>100</ele>
        <time>2014-01-26T08:54:55Z</time>
      </trkpt>
      <trkpt lat="49.57009" lon="0.95826">
        <ele>97</ele>
        <time>2014-01-26T08:55:01Z</time>
      </trkpt>
      <trkpt lat="49.57026" lon="0.95841">
        <ele>103</ele>
        <time>2014-01-26T08:55:07Z</time>
      </trkpt>
      <trkpt lat="49.57043" lon="0.95854">
        <ele>102</ele>
        <time>2014-01-26T08:55:14Z</time>
      </trkpt>
      <trkpt lat="49.57061" lon="0.95861">
        <ele>101</ele>
        <time>2014-01-26T08:55:22Z</time>
      </trkpt>
      <trkpt lat="49.57078" lon="0.95871">
        <ele>102</ele>
        <time>2014-01-26T08:55:32Z</time>
      </trkpt>
      <trkpt lat="49.57095" lon="0.95886">
        <ele>100</ele>
        <time>2014-01-26T08:55:44Z</time>
      </trkpt>
      <trkpt lat="49.57109" lon="0.95904">
        <ele>101</ele>
        <time>2014-01-26T08:55:53Z</time>
      </trkpt>
      <trkpt lat="49.57125" lon="0.95923">
        <ele>111</ele>
        <time>2014-01-26T08:56:05Z</time>
      </trkpt>
      <trkpt lat="49.57139" lon="0.95941">
        <ele>111</ele>
        <time>2014-01-26T08:56:16Z</time>
      </trkpt>
      <trkpt lat="49.57155" lon="0.95955">
        <ele>112</ele>
        <time>2014-01-26T08:56:24Z</time>
      </trkpt>
      <trkpt lat="49.57165" lon="0.9598">
        <ele>114</ele>
        <time>2014-01-26T08:56:37Z</time>
      </trkpt>
      <trkpt lat="49.57181" lon="0.95997">
        <ele>111</ele>
        <time>2014-01-26T08:56:53Z</time>
      </trkpt>
      <trkpt lat="49.57189" lon="0.96023">
        <ele>115</ele>
        <time>2014-01-26T08:57:04Z</time>
      </trkpt>
      <trkpt lat="49.57199" lon="0.96049">
        <ele>115</ele>
        <time>2014-01-26T08:57:22Z</time>
      </trkpt>
      <trkpt lat="49.57214" lon="0.96069">
        <ele>115</ele>
        <time>2014-01-26T08:57:28Z</time>
      </trkpt>
      <trkpt lat="49.57228" lon="0.96087">
        <ele>117</ele>
        <time>2014-01-26T08:57:36Z</time>
      </trkpt>
      <trkpt lat="49.57244" lon="0.96106">
        <ele>117</ele>
        <time>2014-01-26T08:57:42Z</time>
      </trkpt>
      <trkpt lat="49.57261" lon="0.96124">
        <ele>116</ele>
        <time>2014-01-26T08:57:48Z</time>
      </trkpt>
      <trkpt lat="49.57275" lon="0.96144">
        <ele>118</ele>
        <time>2014-01-26T08:57:55Z</time>
      </trkpt>
      <trkpt lat="49.5729" lon="0.96162">
        <ele>118</ele>
        <time>2014-01-26T08:58:08Z</time>
      </trkpt>
      <trkpt lat="49.57305" lon="0.96145">
        <ele>118</ele>
        <time>2014-01-26T08:58:16Z</time>
      </trkpt>
      <trkpt lat="49.57318" lon="0.96123">
        <ele>116</ele>
        <time>2014-01-26T08:58:23Z</time>
      </trkpt>
      <trkpt lat="49.57336" lon="0.96109">
        <ele>117</ele>
        <time>2014-01-26T08:58:30Z</time>
      </trkpt>
      <trkpt lat="49.57355" lon="0.961">
        <ele>117</ele>
        <time>2014-01-26T08:58:36Z</time>
      </trkpt>
      <trkpt lat="49.57375" lon="0.96099">
        <ele>119</ele>
        <time>2014-01-26T08:58:44Z</time>
      </trkpt>
      <trkpt lat="49.57394" lon="0.96103">
        <ele>120</ele>
        <time>2014-01-26T08:58:51Z</time>
      </trkpt>
      <trkpt lat="49.57414" lon="0.9611">
        <ele>121</ele>
        <time>2014-01-26T08:58:58Z</time>
      </trkpt>
      <trkpt lat="49.57433" lon="0.9612">
        <ele>124</ele>
        <time>2014-01-26T08:59:05Z</time>
      </trkpt>
      <trkpt lat="49.57451" lon="0.96126">
        <ele>124</ele>
        <time>2014-01-26T08:59:12Z</time>
      </trkpt>
      <trkpt lat="49.57469" lon="0.96134">
        <ele>125</ele>
        <time>2014-01-26T08:59:21Z</time>
      </trkpt>
      <trkpt lat="49.57488" lon="0.9613">
        <ele>124</ele>
        <time>2014-01-26T09:00:00Z</time>
      </trkpt>
      <trkpt lat="49.57505" lon="0.96122">
        <ele>123</ele>
        <time>2014-01-26T09:00:06Z</time>
      </trkpt>
      <trkpt lat="49.57527" lon="0.96115">
        <ele>122</ele>
        <time>2014-01-26T09:00:12Z</time>
      </trkpt>
      <trkpt lat="49.57548" lon="0.96111">
        <ele>122</ele>
        <time>2014-01-26T09:00:17Z</time>
      </trkpt>
      <trkpt lat="49.57566" lon="0.96103">
        <ele>121</ele>
        <time>2014-01-26T09:00:21Z</time>
      </trkpt>
      <trkpt lat="49.57583" lon="0.96098">
        <ele>119</ele>
        <time>2014-01-26T09:00:36Z</time>
      </trkpt>
      <trkpt lat="49.57602" lon="0.96086">
        <ele>119</ele>
        <time>2014-01-26T09:00:55Z</time>
      </trkpt>
      <trkpt lat="49.57621" lon="0.96085">
        <ele>119</ele>
        <time>2014-01-26T09:01:05Z</time>
      </trkpt>
      <trkpt lat="49.57639" lon="0.96081">
        <ele>107</ele>
        <time>2014-01-26T09:01:34Z</time>
      </trkpt>
      <trkpt lat="49.57662" lon="0.96085">
        <ele>114</ele>
        <time>2014-01-26T09:01:39Z</time>
      </trkpt>
      <trkpt lat="49.57682" lon="0.96078">
        <ele>105</ele>
        <time>2014-01-26T09:01:44Z</time>
      </trkpt>
      <trkpt lat="49.57698" lon="0.96067">
        <ele>102</ele>
        <time>2014-01-26T09:01:49Z</time>
      </trkpt>
      <trkpt lat="49.57717" lon="0.96071">
        <ele>101</ele>
        <time>2014-01-26T09:01:57Z</time>
      </trkpt>
      <trkpt lat="49.57737" lon="0.96074">
        <ele>102</ele>
        <time>2014-01-26T09:02:06Z</time>
      </trkpt>
      <trkpt lat="49.57756" lon="0.96077">
        <ele>102</ele>
        <time>2014-01-26T09:02:15Z</time>
      </trkpt>
      <trkpt lat="49.57774" lon="0.96083">
        <ele>99</ele>
        <time>2014-01-26T09:02:27Z</time>
      </trkpt>
      <trkpt lat="49.57786" lon="0.96104">
        <ele>113</ele>
        <time>2014-01-26T09:02:59Z</time>
      </trkpt>
      <trkpt lat="49.57804" lon="0.96099">
        <ele>112</ele>
        <time>2014-01-26T09:03:12Z</time>
      </trkpt>
      <trkpt lat="49.57822" lon="0.96104">
        <ele>111</ele>
        <time>2014-01-26T09:03:21Z</time>
      </trkpt>
      <trkpt lat="49.57841" lon="0.96112">
        <ele>110</ele>
        <time>2014-01-26T09:03:30Z</time>
      </trkpt>
      <trkpt lat="49.57859" lon="0.96123">
        <ele>111</ele>
        <time>2014-01-26T09:03:41Z</time>
      </trkpt>
      <trkpt lat="49.57877" lon="0.96135">
        <ele>112</ele>
        <time>2014-01-26T09:03:51Z</time>
      </trkpt>
      <trkpt lat="49.57894" lon="0.96144">
        <ele>112</ele>
        <time>2014-01-26T09:03:58Z</time>
      </trkpt>
      <trkpt lat="49.57912" lon="0.96155">
        <ele>115</ele>
        <time>2014-01-26T09:04:06Z</time>
      </trkpt>
      <trkpt lat="49.57931" lon="0.96162">
        <ele>112</ele>
        <time>2014-01-26T09:04:14Z</time>
      </trkpt>
      <trkpt lat="49.57948" lon="0.96171">
        <ele>121</ele>
        <time>2014-01-26T09:04:20Z</time>
      </trkpt>
      <trkpt lat="49.57966" lon="0.96179">
        <ele>121</ele>
        <time>2014-01-26T09:04:26Z</time>
      </trkpt>
      <trkpt lat="49.57983" lon="0.96185">
        <ele>120</ele>
        <time>2014-01-26T09:04:32Z</time>
      </trkpt>
      <trkpt lat="49.58003" lon="0.9619">
        <ele>116</ele>
        <time>2014-01-26T09:04:39Z</time>
      </trkpt>
      <trkpt lat="49.58024" lon="0.96196">
        <ele>116</ele>
        <time>2014-01-26T09:04:46Z</time>
      </trkpt>
      <trkpt lat="49.58044" lon="0.96201">
        <ele>116</ele>
        <time>2014-01-26T09:04:54Z</time>
      </trkpt>
      <trkpt lat="49.58063" lon="0.96205">
        <ele>115</ele>
        <time>2014-01-26T09:05:02Z</time>
      </trkpt>
      <trkpt lat="49.58081" lon="0.96211">
        <ele>115</ele>
        <time>2014-01-26T09:05:09Z</time>
      </trkpt>
      <trkpt lat="49.58099" lon="0.96218">
        <ele>111</ele>
        <time>2014-01-26T09:05:17Z</time>
      </trkpt>
      <trkpt lat="49.58116" lon="0.96226">
        <ele>111</ele>
        <time>2014-01-26T09:05:24Z</time>
      </trkpt>
      <trkpt lat="49.58135" lon="0.96224">
        <ele>110</ele>
        <time>2014-01-26T09:05:50Z</time>
      </trkpt>
      <trkpt lat="49.5815" lon="0.9624">
        <ele>112</ele>
        <time>2014-01-26T09:07:01Z</time>
      </trkpt>
      <trkpt lat="49.5817" lon="0.96236">
        <ele>108</ele>
        <time>2014-01-26T09:07:17Z</time>
      </trkpt>
      <trkpt lat="49.5819" lon="0.96242">
        <ele>105</ele>
        <time>2014-01-26T09:07:23Z</time>
      </trkpt>
      <trkpt lat="49.5821" lon="0.96247">
        <ele>102</ele>
        <time>2014-01-26T09:07:29Z</time>
      </trkpt>
      <trkpt lat="49.5823" lon="0.96255">
        <ele>111</ele>
        <time>2014-01-26T09:07:35Z</time>
      </trkpt>
      <trkpt lat="49.58248" lon="0.96265">
        <ele>110</ele>
        <time>2014-01-26T09:07:40Z</time>
      </trkpt>
      <trkpt lat="49.58267" lon="0.96277">
        <ele>105</ele>
        <time>2014-01-26T09:07:46Z</time>
      </trkpt>
      <trkpt lat="49.58284" lon="0.96291">
        <ele>106</ele>
        <time>2014-01-26T09:07:52Z</time>
      </trkpt>
      <trkpt lat="49.583" lon="0.96308">
        <ele>106</ele>
        <time>2014-01-26T09:07:58Z</time>
      </trkpt>
      <trkpt lat="49.58318" lon="0.96322">
        <ele>106</ele>
        <time>2014-01-26T09:08:05Z</time>
      </trkpt>
      <trkpt lat="49.58333" lon="0.96339">
        <ele>107</ele>
        <time>2014-01-26T09:08:11Z</time>
      </trkpt>
      <trkpt lat="49.58349" lon="0.96355">
        <ele>108</ele>
        <time>2014-01-26T09:08:17Z</time>
      </trkpt>
      <trkpt lat="49.58364" lon="0.9637">
        <ele>108</ele>
        <time>2014-01-26T09:08:23Z</time>
      </trkpt>
      <trkpt lat="49.58381" lon="0.96385">
        <ele>108</ele>
        <time>2014-01-26T09:08:29Z</time>
      </trkpt>
      <trkpt lat="49.58399" lon="0.96401">
        <ele>108</ele>
        <time>2014-01-26T09:08:44Z</time>
      </trkpt>
      <trkpt lat="49.58414" lon="0.96417">
        <ele>110</ele>
        <time>2014-01-26T09:08:51Z</time>
      </trkpt>
      <trkpt lat="49.58429" lon="0.96434">
        <ele>111</ele>
        <time>2014-01-26T09:08:58Z</time>
      </trkpt>
      <trkpt lat="49.58445" lon="0.9645">
        <ele>112</ele>
        <time>2014-01-26T09:09:04Z</time>
      </trkpt>
      <trkpt lat="49.58461" lon="0.96468">
        <ele>113</ele>
        <time>2014-01-26T09:09:13Z</time>
      </trkpt>
      <trkpt lat="49.58473" lon="0.96489">
        <ele>113</ele>
        <time>2014-01-26T09:09:25Z</time>
      </trkpt>
      <trkpt lat="49.58486" lon="0.9651">
        <ele>120</ele>
        <time>2014-01-26T09:09:40Z</time>
      </trkpt>
      <trkpt lat="49.58497" lon="0.96533">
        <ele>124</ele>
        <time>2014-01-26T09:10:37Z</time>
      </trkpt>
      <trkpt lat="49.5851" lon="0.96553">
        <ele>117</ele>
        <time>2014-01-26T09:11:04Z</time>
      </trkpt>
      <trkpt lat="49.58522" lon="0.96574">
        <ele>119</ele>
        <time>2014-01-26T09:11:34Z</time>
      </trkpt>
      <trkpt lat="49.58535" lon="0.96594">
        <ele>125</ele>
        <time>2014-01-26T09:12:10Z</time>
      </trkpt>
      <trkpt lat="49.58544" lon="0.9662">
        <ele>125</ele>
        <time>2014-01-26T09:12:28Z</time>
      </trkpt>
      <trkpt lat="49.58559" lon="0.96637">
        <ele>125</ele>
        <time>2014-01-26T09:12:53Z</time>
      </trkpt>
      <trkpt lat="49.58566" lon="0.96663">
        <ele>124</ele>
        <time>2014-01-26T09:13:08Z</time>
      </trkpt>
      <trkpt lat="49.58576" lon="0.96689">
        <ele>130</ele>
        <time>2014-01-26T09:14:43Z</time>
      </trkpt>
      <trkpt lat="49.58588" lon="0.96711">
        <ele>123</ele>
        <time>2014-01-26T09:14:55Z</time>
      </trkpt>
      <trkpt lat="49.58601" lon="0.96733">
        <ele>125</ele>
        <time>2014-01-26T09:15:11Z</time>
      </trkpt>
      <trkpt lat="49.58617" lon="0.96747">
        <ele>124</ele>
        <time>2014-01-26T09:15:21Z</time>
      </trkpt>
      <trkpt lat="49.58634" lon="0.96758">
        <ele>129</ele>
        <time>2014-01-26T09:15:35Z</time>
      </trkpt>
      <trkpt lat="49.58646" lon="0.96778">
        <ele>129</ele>
        <time>2014-01-26T09:15:52Z</time>
      </trkpt>
      <trkpt lat="49.58656" lon="0.96801">
        <ele>132</ele>
        <time>2014-01-26T09:16:05Z</time>
      </trkpt>
      <trkpt lat="49.58668" lon="0.96823">
        <ele>130</ele>
        <time>2014-01-26T09:16:21Z</time>
      </trkpt>
      <trkpt lat="49.58682" lon="0.96843">
        <ele>134</ele>
        <time>2014-01-26T09:22:12Z</time>
      </trkpt>
      <trkpt lat="49.58701" lon="0.96845">
        <ele>132</ele>
        <time>2014-01-26T09:22:19Z</time>
      </trkpt>
      <trkpt lat="49.58719" lon="0.96856">
        <ele>131</ele>
        <time>2014-01-26T09:22:27Z</time>
      </trkpt>
      <trkpt lat="49.58736" lon="0.96866">
        <ele>130</ele>
        <time>2014-01-26T09:22:33Z</time>
      </trkpt>
      <trkpt lat="49.58756" lon="0.96878">
        <ele>124</ele>
        <time>2014-01-26T09:22:41Z</time>
      </trkpt>
      <trkpt lat="49.58776" lon="0.96889">
        <ele>124</ele>
        <time>2014-01-26T09:22:45Z</time>
      </trkpt>
      <trkpt lat="49.58795" lon="0.96896">
        <ele>122</ele>
        <time>2014-01-26T09:22:49Z</time>
      </trkpt>
      <trkpt lat="49.58813" lon="0.96907">
        <ele>122</ele>
        <time>2014-01-26T09:22:53Z</time>
      </trkpt>
      <trkpt lat="49.58834" lon="0.96921">
        <ele>123</ele>
        <time>2014-01-26T09:22:57Z</time>
      </trkpt>
      <trkpt lat="49.5885" lon="0.96934">
        <ele>123</ele>
        <time>2014-01-26T09:23:02Z</time>
      </trkpt>
      <trkpt lat="49.58866" lon="0.96951">
        <ele>124</ele>
        <time>2014-01-26T09:23:06Z</time>
      </trkpt>
      <trkpt lat="49.58886" lon="0.96962">
        <ele>123</ele>
        <time>2014-01-26T09:23:11Z</time>
      </trkpt>
      <trkpt lat="49.58904" lon="0.96973">
        <ele>124</ele>
        <time>2014-01-26T09:23:16Z</time>
      </trkpt>
      <trkpt lat="49.58924" lon="0.96983">
        <ele>119</ele>
        <time>2014-01-26T09:23:22Z</time>
      </trkpt>
      <trkpt lat="49.58943" lon="0.96993">
        <ele>117</ele>
        <time>2014-01-26T09:23:27Z</time>
      </trkpt>
      <trkpt lat="49.58962" lon="0.97005">
        <ele>125</ele>
        <time>2014-01-26T09:23:32Z</time>
      </trkpt>
      <trkpt lat="49.58981" lon="0.97017">
        <ele>124</ele>
        <time>2014-01-26T09:23:38Z</time>
      </trkpt>
      <trkpt lat="49.58999" lon="0.97028">
        <ele>124</ele>
        <time>2014-01-26T09:23:43Z</time>
      </trkpt>
      <trkpt lat="49.59018" lon="0.97041">
        <ele>120</ele>
        <time>2014-01-26T09:23:49Z</time>
      </trkpt>
      <trkpt lat="49.59039" lon="0.9705">
        <ele>119</ele>
        <time>2014-01-26T09:23:54Z</time>
      </trkpt>
      <trkpt lat="49.5906" lon="0.9706">
        <ele>119</ele>
        <time>2014-01-26T09:24:00Z</time>
      </trkpt>
      <trkpt lat="49.59081" lon="0.97072">
        <ele>119</ele>
        <time>2014-01-26T09:24:05Z</time>
      </trkpt>
      <trkpt lat="49.59099" lon="0.97083">
        <ele>114</ele>
        <time>2014-01-26T09:24:11Z</time>
      </trkpt>
      <trkpt lat="49.59113" lon="0.97101">
        <ele>120</ele>
        <time>2014-01-26T09:25:30Z</time>
      </trkpt>
      <trkpt lat="49.59132" lon="0.97112">
        <ele>120</ele>
        <time>2014-01-26T09:25:35Z</time>
      </trkpt>
      <trkpt lat="49.59149" lon="0.97123">
        <ele>120</ele>
        <time>2014-01-26T09:25:41Z</time>
      </trkpt>
      <trkpt lat="49.59168" lon="0.97135">
        <ele>114</ele>
        <time>2014-01-26T09:25:48Z</time>
      </trkpt>
      <trkpt lat="49.59186" lon="0.9715">
        <ele>115</ele>
        <time>2014-01-26T09:25:55Z</time>
      </trkpt>
      <trkpt lat="49.59201" lon="0.97166">
        <ele>113</ele>
        <time>2014-01-26T09:26:03Z</time>
      </trkpt>
      <trkpt lat="49.59217" lon="0.97178">
        <ele>120</ele>
        <time>2014-01-26T09:26:11Z</time>
      </trkpt>
      <trkpt lat="49.59234" lon="0.97195">
        <ele>119</ele>
        <time>2014-01-26T09:26:18Z</time>
      </trkpt>
      <trkpt lat="49.59249" lon="0.97212">
        <ele>121</ele>
        <time>2014-01-26T09:26:26Z</time>
      </trkpt>
      <trkpt lat="49.59264" lon="0.97227">
        <ele>113</ele>
        <time>2014-01-26T09:26:34Z</time>
      </trkpt>
      <trkpt lat="49.5928" lon="0.97242">
        <ele>112</ele>
        <time>2014-01-26T09:26:43Z</time>
      </trkpt>
      <trkpt lat="49.59299" lon="0.9725">
        <ele>119</ele>
        <time>2014-01-26T09:26:57Z</time>
      </trkpt>
      <trkpt lat="49.59309" lon="0.97274">
        <ele>119</ele>
        <time>2014-01-26T09:27:27Z</time>
      </trkpt>
      <trkpt lat="49.59328" lon="0.97279">
        <ele>118</ele>
        <time>2014-01-26T09:30:19Z</time>
      </trkpt>
      <trkpt lat="49.59346" lon="0.97285">
        <ele>114</ele>
        <time>2014-01-26T09:30:27Z</time>
      </trkpt>
      <trkpt lat="49.59365" lon="0.97295">
        <ele>114</ele>
        <time>2014-01-26T09:30:36Z</time>
      </trkpt>
      <trkpt lat="49.59381" lon="0.97309">
        <ele>115</ele>
        <time>2014-01-26T09:30:45Z</time>
      </trkpt>
      <trkpt lat="49.59395" lon="0.97328">
        <ele>116</ele>
        <time>2014-01-26T09:31:00Z</time>
      </trkpt>
      <trkpt lat="49.59412" lon="0.97338">
        <ele>121</ele>
        <time>2014-01-26T09:31:18Z</time>
      </trkpt>
      <trkpt lat="49.5943" lon="0.9735">
        <ele>121</ele>
        <time>2014-01-26T09:31:30Z</time>
      </trkpt>
      <trkpt lat="49.59448" lon="0.97363">
        <ele>121</ele>
        <time>2014-01-26T09:31:42Z</time>
      </trkpt>
      <trkpt lat="49.59464" lon="0.97374">
        <ele>122</ele>
        <time>2014-01-26T09:31:52Z</time>
      </trkpt>
      <trkpt lat="49.59482" lon="0.97384">
        <ele>122</ele>
        <time>2014-01-26T09:31:59Z</time>
      </trkpt>
      <trkpt lat="49.59499" lon="0.97391">
        <ele>123</ele>
        <time>2014-01-26T09:32:06Z</time>
      </trkpt>
      <trkpt lat="49.59516" lon="0.974">
        <ele>117</ele>
        <time>2014-01-26T09:32:15Z</time>
      </trkpt>
      <trkpt lat="49.59497" lon="0.97393">
        <ele>123</ele>
        <time>2014-01-26T09:32:37Z</time>
      </trkpt>
      <trkpt lat="49.59479" lon="0.97391">
        <ele>123</ele>
        <time>2014-01-26T09:32:42Z</time>
      </trkpt>
      <trkpt lat="49.59459" lon="0.97386">
        <ele>123</ele>
        <time>2014-01-26T09:32:48Z</time>
      </trkpt>
      <trkpt lat="49.5944" lon="0.97384">
        <ele>123</ele>
        <time>2014-01-26T09:32:54Z</time>
      </trkpt>
      <trkpt lat="49.5942" lon="0.97377">
        <ele>123</ele>
        <time>2014-01-26T09:33:01Z</time>
      </trkpt>
      <trkpt lat="49.59402" lon="0.97372">
        <ele>127</ele>
        <time>2014-01-26T09:33:07Z</time>
      </trkpt>
      <trkpt lat="49.59384" lon="0.97365">
        <ele>127</ele>
        <time>2014-01-26T09:33:14Z</time>
      </trkpt>
      <trkpt lat="49.59367" lon="0.97353">
        <ele>127</ele>
        <time>2014-01-26T09:33:22Z</time>
      </trkpt>
      <trkpt lat="49.59349" lon="0.9735">
        <ele>127</ele>
        <time>2014-01-26T09:33:30Z</time>
      </trkpt>
      <trkpt lat="49.59336" lon="0.97371">
        <ele>129</ele>
        <time>2014-01-26T09:33:38Z</time>
      </trkpt>
      <trkpt lat="49.59339" lon="0.97399">
        <ele>132</ele>
        <time>2014-01-26T09:33:44Z</time>
      </trkpt>
      <trkpt lat="49.59354" lon="0.97419">
        <ele>136</ele>
        <time>2014-01-26T09:33:53Z</time>
      </trkpt>
      <trkpt lat="49.59372" lon="0.97424">
        <ele>135</ele>
        <time>2014-01-26T09:34:01Z</time>
      </trkpt>
      <trkpt lat="49.59392" lon="0.97427">
        <ele>134</ele>
        <time>2014-01-26T09:34:10Z</time>
      </trkpt>
      <trkpt lat="49.59413" lon="0.97434">
        <ele>134</ele>
        <time>2014-01-26T09:34:17Z</time>
      </trkpt>
      <trkpt lat="49.59432" lon="0.97441">
        <ele>132</ele>
        <time>2014-01-26T09:34:23Z</time>
      </trkpt>
      <trkpt lat="49.59449" lon="0.9745">
        <ele>132</ele>
        <time>2014-01-26T09:34:28Z</time>
      </trkpt>
      <trkpt lat="49.59468" lon="0.97462">
        <ele>132</ele>
        <time>2014-01-26T09:34:36Z</time>
      </trkpt>
      <trkpt lat="49.59484" lon="0.97476">
        <ele>133</ele>
        <time>2014-01-26T09:34:43Z</time>
      </trkpt>
      <trkpt lat="49.59501" lon="0.9749">
        <ele>132</ele>
        <time>2014-01-26T09:34:50Z</time>
      </trkpt>
      <trkpt lat="49.59516" lon="0.9751">
        <ele>133</ele>
        <time>2014-01-26T09:34:57Z</time>
      </trkpt>
      <trkpt lat="49.5953" lon="0.97531">
        <ele>133</ele>
        <time>2014-01-26T09:35:06Z</time>
      </trkpt>
      <trkpt lat="49.59545" lon="0.97551">
        <ele>133</ele>
        <time>2014-01-26T09:35:34Z</time>
      </trkpt>
      <trkpt lat="49.59559" lon="0.97567">
        <ele>132</ele>
        <time>2014-01-26T09:35:44Z</time>
      </trkpt>
      <trkpt lat="49.59575" lon="0.97584">
        <ele>134</ele>
        <time>2014-01-26T09:35:54Z</time>
      </trkpt>
      <trkpt lat="49.59591" lon="0.97599">
        <ele>131</ele>
        <time>2014-01-26T09:36:09Z</time>
      </trkpt>
      <trkpt lat="49.59605" lon="0.97619">
        <ele>131</ele>
        <time>2014-01-26T09:36:20Z</time>
      </trkpt>
      <trkpt lat="49.59618" lon="0.97643">
        <ele>132</ele>
        <time>2014-01-26T09:36:28Z</time>
      </trkpt>
      <trkpt lat="49.5963" lon="0.97668">
        <ele>137</ele>
        <time>2014-01-26T09:36:38Z</time>
      </trkpt>
      <trkpt lat="49.59642" lon="0.97691">
        <ele>137</ele>
        <time>2014-01-26T09:36:47Z</time>
      </trkpt>
      <trkpt lat="49.59653" lon="0.97715">
        <ele>139</ele>
        <time>2014-01-26T09:36:57Z</time>
      </trkpt>
      <trkpt lat="49.59664" lon="0.9774">
        <ele>140</ele>
        <time>2014-01-26T09:37:07Z</time>
      </trkpt>
      <trkpt lat="49.59674" lon="0.97766">
        <ele>138</ele>
        <time>2014-01-26T09:37:15Z</time>
      </trkpt>
      <trkpt lat="49.59684" lon="0.97793">
        <ele>138</ele>
        <time>2014-01-26T09:37:24Z</time>
      </trkpt>
      <trkpt lat="49.59692" lon="0.97818">
        <ele>139</ele>
        <time>2014-01-26T09:37:33Z</time>
      </trkpt>
      <trkpt lat="49.59697" lon="0.97847">
        <ele>142</ele>
        <time>2014-01-26T09:37:43Z</time>
      </trkpt>
      <trkpt lat="49.59703" lon="0.97875">
        <ele>142</ele>
        <time>2014-01-26T09:37:50Z</time>
      </trkpt>
      <trkpt lat="49.59703" lon="0.97904">
        <ele>143</ele>
        <time>2014-01-26T09:37:56Z</time>
      </trkpt>
      <trkpt lat="49.59706" lon="0.97933">
        <ele>146</ele>
        <time>2014-01-26T09:38:05Z</time>
      </trkpt>
      <trkpt lat="49.59715" lon="0.9796">
        <ele>146</ele>
        <time>2014-01-26T09:38:12Z</time>
      </trkpt>
      <trkpt lat="49.5973" lon="0.9798">
        <ele>146</ele>
        <time>2014-01-26T09:38:21Z</time>
      </trkpt>
      <trkpt lat="49.5975" lon="0.97983">
        <ele>146</ele>
        <time>2014-01-26T09:38:35Z</time>
      </trkpt>
      <trkpt lat="49.59768" lon="0.97986">
        <ele>140</ele>
        <time>2014-01-26T09:38:41Z</time>
      </trkpt>
      <trkpt lat="49.59786" lon="0.97992">
        <ele>137</ele>
        <time>2014-01-26T09:38:53Z</time>
      </trkpt>
      <trkpt lat="49.59791" lon="0.98019">
        <ele>136</ele>
        <time>2014-01-26T09:39:04Z</time>
      </trkpt>
      <trkpt lat="49.59783" lon="0.98045">
        <ele>136</ele>
        <time>2014-01-26T09:39:20Z</time>
      </trkpt>
      <trkpt lat="49.59774" lon="0.98074">
        <ele>137</ele>
        <time>2014-01-26T09:39:29Z</time>
      </trkpt>
      <trkpt lat="49.59765" lon="0.98099">
        <ele>133</ele>
        <time>2014-01-26T09:39:36Z</time>
      </trkpt>
      <trkpt lat="49.59699" lon="0.98489">
        <ele>128</ele>
        <time>2014-01-26T09:41:55Z</time>
      </trkpt>
      <trkpt lat="49.5969" lon="0.98513">
        <ele>130</ele>
        <time>2014-01-26T09:42:24Z</time>
      </trkpt>
      <trkpt lat="49.59687" lon="0.98542">
        <ele>129</ele>
        <time>2014-01-26T09:42:42Z</time>
      </trkpt>
      <trkpt lat="49.59682" lon="0.98571">
        <ele>131</ele>
        <time>2014-01-26T09:42:52Z</time>
      </trkpt>
      <trkpt lat="49.59675" lon="0.98598">
        <ele>132</ele>
        <time>2014-01-26T09:43:02Z</time>
      </trkpt>
      <trkpt lat="49.5967" lon="0.98626">
        <ele>131</ele>
        <time>2014-01-26T09:43:11Z</time>
      </trkpt>
      <trkpt lat="49.59666" lon="0.98654">
        <ele>138</ele>
        <time>2014-01-26T09:43:20Z</time>
      </trkpt>
      <trkpt lat="49.59667" lon="0.98682">
        <ele>134</ele>
        <time>2014-01-26T09:43:55Z</time>
      </trkpt>
      <trkpt lat="49.5967" lon="0.9871">
        <ele>133</ele>
        <time>2014-01-26T09:44:16Z</time>
      </trkpt>
      <trkpt lat="49.59671" lon="0.9874">
        <ele>133</ele>
        <time>2014-01-26T09:44:27Z</time>
      </trkpt>
      <trkpt lat="49.59669" lon="0.98769">
        <ele>133</ele>
        <time>2014-01-26T09:44:37Z</time>
      </trkpt>
      <trkpt lat="49.59667" lon="0.98797">
        <ele>133</ele>
        <time>2014-01-26T09:44:47Z</time>
      </trkpt>
      <trkpt lat="49.59665" lon="0.98826">
        <ele>136</ele>
        <time>2014-01-26T09:44:59Z</time>
      </trkpt>
      <trkpt lat="49.59658" lon="0.98854">
        <ele>137</ele>
        <time>2014-01-26T09:45:10Z</time>
      </trkpt>
      <trkpt lat="49.59652" lon="0.98881">
        <ele>138</ele>
        <time>2014-01-26T09:45:20Z</time>
      </trkpt>
      <trkpt lat="49.59644" lon="0.98908">
        <ele>138</ele>
        <time>2014-01-26T09:45:30Z</time>
      </trkpt>
      <trkpt lat="49.59633" lon="0.98931">
        <ele>140</ele>
        <time>2014-01-26T09:45:41Z</time>
      </trkpt>
      <trkpt lat="49.59627" lon="0.98958">
        <ele>141</ele>
        <time>2014-01-26T09:45:52Z</time>
      </trkpt>
      <trkpt lat="49.59625" lon="0.98986">
        <ele>141</ele>
        <time>2014-01-26T09:46:05Z</time>
      </trkpt>
      <trkpt lat="49.59626" lon="0.99015">
        <ele>143</ele>
        <time>2014-01-26T09:46:17Z</time>
      </trkpt>
      <trkpt lat="49.5963" lon="0.99044">
        <ele>144</ele>
        <time>2014-01-26T09:47:18Z</time>
      </trkpt>
      <trkpt lat="49.59633" lon="0.99071">
        <ele>144</ele>
        <time>2014-01-26T09:47:26Z</time>
      </trkpt>
      <trkpt lat="49.59633" lon="0.99101">
        <ele>148</ele>
        <time>2014-01-26T09:47:38Z</time>
      </trkpt>
      <trkpt lat="49.5963" lon="0.99128">
        <ele>149</ele>
        <time>2014-01-26T09:47:48Z</time>
      </trkpt>
      <trkpt lat="49.59624" lon="0.99155">
        <ele>149</ele>
        <time>2014-01-26T09:48:00Z</time>
      </trkpt>
      <trkpt lat="49.59621" lon="0.99185">
        <ele>152</ele>
        <time>2014-01-26T09:48:10Z</time>
      </trkpt>
      <trkpt lat="49.5962" lon="0.99214">
        <ele>152</ele>
        <time>2014-01-26T09:48:21Z</time>
      </trkpt>
      <trkpt lat="49.59614" lon="0.99242">
        <ele>153</ele>
        <time>2014-01-26T09:48:34Z</time>
      </trkpt>
      <trkpt lat="49.59631" lon="0.99255">
        <ele>154</ele>
        <time>2014-01-26T09:48:48Z</time>
      </trkpt>
      <trkpt lat="49.59614" lon="0.99242">
        <ele>153</ele>
        <time>2014-01-26T09:49:04Z</time>
      </trkpt>
      <trkpt lat="49.5963" lon="0.99257">
        <ele>154</ele>
        <time>2014-01-26T09:49:35Z</time>
      </trkpt>
      <trkpt lat="49.59616" lon="0.9924">
        <ele>153</ele>
        <time>2014-01-26T09:49:48Z</time>
      </trkpt>
      <trkpt lat="49.59598" lon="0.9923">
        <ele>153</ele>
        <time>2014-01-26T09:50:21Z</time>
      </trkpt>
      <trkpt lat="49.5958" lon="0.99221">
        <ele>155</ele>
        <time>2014-01-26T09:50:47Z</time>
      </trkpt>
      <trkpt lat="49.59561" lon="0.99215">
        <ele>155</ele>
        <time>2014-01-26T09:50:53Z</time>
      </trkpt>
      <trkpt lat="49.59542" lon="0.99208">
        <ele>155</ele>
        <time>2014-01-26T09:50:58Z</time>
      </trkpt>
      <trkpt lat="49.59522" lon="0.99198">
        <ele>155</ele>
        <time>2014-01-26T09:51:04Z</time>
      </trkpt>
      <trkpt lat="49.59504" lon="0.9919">
        <ele>156</ele>
        <time>2014-01-26T09:51:11Z</time>
      </trkpt>
      <trkpt lat="49.59487" lon="0.99182">
        <ele>157</ele>
        <time>2014-01-26T09:51:19Z</time>
      </trkpt>
      <trkpt lat="49.5947" lon="0.99169">
        <ele>157</ele>
        <time>2014-01-26T09:51:35Z</time>
      </trkpt>
      <trkpt lat="49.59456" lon="0.99151">
        <ele>156</ele>
        <time>2014-01-26T09:51:47Z</time>
      </trkpt>
      <trkpt lat="49.5944" lon="0.99132">
        <ele>156</ele>
        <time>2014-01-26T09:51:56Z</time>
      </trkpt>
      <trkpt lat="49.59425" lon="0.99116">
        <ele>156</ele>
        <time>2014-01-26T09:52:04Z</time>
      </trkpt>
      <trkpt lat="49.59404" lon="0.99106">
        <ele>156</ele>
        <time>2014-01-26T09:52:10Z</time>
      </trkpt>
      <trkpt lat="49.59386" lon="0.99105">
        <ele>155</ele>
        <time>2014-01-26T09:52:15Z</time>
      </trkpt>
      <trkpt lat="49.59364" lon="0.99109">
        <ele>155</ele>
        <time>2014-01-26T09:52:20Z</time>
      </trkpt>
      <trkpt lat="49.59344" lon="0.99113">
        <ele>155</ele>
        <time>2014-01-26T09:52:24Z</time>
      </trkpt>
      <trkpt lat="49.59326" lon="0.99121">
        <ele>153</ele>
        <time>2014-01-26T09:52:28Z</time>
      </trkpt>
      <trkpt lat="49.59305" lon="0.99124">
        <ele>153</ele>
        <time>2014-01-26T09:52:33Z</time>
      </trkpt>
      <trkpt lat="49.59287" lon="0.99127">
        <ele>153</ele>
        <time>2014-01-26T09:52:38Z</time>
      </trkpt>
      <trkpt lat="49.59266" lon="0.99131">
        <ele>153</ele>
        <time>2014-01-26T09:52:43Z</time>
      </trkpt>
      <trkpt lat="49.59245" lon="0.99137">
        <ele>152</ele>
        <time>2014-01-26T09:52:48Z</time>
      </trkpt>
      <trkpt lat="49.59223" lon="0.99145">
        <ele>152</ele>
        <time>2014-01-26T09:52:52Z</time>
      </trkpt>
      <trkpt lat="49.59204" lon="0.99153">
        <ele>152</ele>
        <time>2014-01-26T09:52:56Z</time>
      </trkpt>
      <trkpt lat="49.59187" lon="0.99163">
        <ele>152</ele>
        <time>2014-01-26T09:53:00Z</time>
      </trkpt>
      <trkpt lat="49.59167" lon="0.99174">
        <ele>152</ele>
        <time>2014-01-26T09:53:04Z</time>
      </trkpt>
      <trkpt lat="49.5915" lon="0.99184">
        <ele>151</ele>
        <time>2014-01-26T09:53:08Z</time>
      </trkpt>
      <trkpt lat="49.59131" lon="0.99194">
        <ele>151</ele>
        <time>2014-01-26T09:53:12Z</time>
      </trkpt>
      <trkpt lat="49.5911" lon="0.99206">
        <ele>150</ele>
        <time>2014-01-26T09:53:17Z</time>
      </trkpt>
      <trkpt lat="49.59092" lon="0.99217">
        <ele>150</ele>
        <time>2014-01-26T09:53:22Z</time>
      </trkpt>
      <trkpt lat="49.59073" lon="0.99224">
        <ele>149</ele>
        <time>2014-01-26T09:53:27Z</time>
      </trkpt>
      <trkpt lat="49.59054" lon="0.99225">
        <ele>148</ele>
        <time>2014-01-26T09:53:32Z</time>
      </trkpt>
      <trkpt lat="49.59049" lon="0.99256">
        <ele>149</ele>
        <time>2014-01-26T09:53:38Z</time>
      </trkpt>
      <trkpt lat="49.59056" lon="0.99285">
        <ele>149</ele>
        <time>2014-01-26T09:53:43Z</time>
      </trkpt>
      <trkpt lat="49.59062" lon="0.99317">
        <ele>149</ele>
        <time>2014-01-26T09:53:48Z</time>
      </trkpt>
      <trkpt lat="49.59066" lon="0.9935">
        <ele>149</ele>
        <time>2014-01-26T09:53:53Z</time>
      </trkpt>
      <trkpt lat="49.59069" lon="0.99378">
        <ele>149</ele>
        <time>2014-01-26T09:53:57Z</time>
      </trkpt>
      <trkpt lat="49.59073" lon="0.99407">
        <ele>150</ele>
        <time>2014-01-26T09:54:01Z</time>
      </trkpt>
      <trkpt lat="49.59077" lon="0.99436">
        <ele>150</ele>
        <time>2014-01-26T09:54:05Z</time>
      </trkpt>
      <trkpt lat="49.5908" lon="0.99465">
        <ele>150</ele>
        <time>2014-01-26T09:54:09Z</time>
      </trkpt>
      <trkpt lat="49.59083" lon="0.99495">
        <ele>150</ele>
        <time>2014-01-26T09:54:13Z</time>
      </trkpt>
      <trkpt lat="49.59087" lon="0.99527">
        <ele>151</ele>
        <time>2014-01-26T09:54:17Z</time>
      </trkpt>
      <trkpt lat="49.59091" lon="0.9956">
        <ele>151</ele>
        <time>2014-01-26T09:54:21Z</time>
      </trkpt>
      <trkpt lat="49.59094" lon="0.99588">
        <ele>150</ele>
        <time>2014-01-26T09:54:24Z</time>
      </trkpt>
      <trkpt lat="49.59098" lon="0.99616">
        <ele>150</ele>
        <time>2014-01-26T09:54:27Z</time>
      </trkpt>
      <trkpt lat="49.59101" lon="0.99645">
        <ele>149</ele>
        <time>2014-01-26T09:54:30Z</time>
      </trkpt>
      <trkpt lat="49.59104" lon="0.99675">
        <ele>148</ele>
        <time>2014-01-26T09:54:33Z</time>
      </trkpt>
      <trkpt lat="49.59108" lon="0.99707">
        <ele>147</ele>
        <time>2014-01-26T09:54:36Z</time>
      </trkpt>
      <trkpt lat="49.59113" lon="0.99741">
        <ele>147</ele>
        <time>2014-01-26T09:54:39Z</time>
      </trkpt>
      <trkpt lat="49.59117" lon="0.99779">
        <ele>146</ele>
        <time>2014-01-26T09:54:42Z</time>
      </trkpt>
      <trkpt lat="49.59122" lon="0.99819">
        <ele>145</ele>
        <time>2014-01-26T09:54:45Z</time>
      </trkpt>
      <trkpt lat="49.59125" lon="0.99846">
        <ele>145</ele>
        <time>2014-01-26T09:54:47Z</time>
      </trkpt>
      <trkpt lat="49.59129" lon="0.99875">
        <ele>146</ele>
        <time>2014-01-26T09:54:49Z</time>
      </trkpt>
      <trkpt lat="49.59134" lon="0.99915">
        <ele>146</ele>
        <time>2014-01-26T09:54:52Z</time>
      </trkpt>
      <trkpt lat="49.59138" lon="0.99954">
        <ele>147</ele>
        <time>2014-01-26T09:54:55Z</time>
      </trkpt>
      <trkpt lat="49.59142" lon="0.99992">
        <ele>148</ele>
        <time>2014-01-26T09:54:58Z</time>
      </trkpt>
      <trkpt lat="49.59146" lon="1.00029">
        <ele>151</ele>
        <time>2014-01-26T09:55:01Z</time>
      </trkpt>
      <trkpt lat="49.59151" lon="1.0006">
        <ele>152</ele>
        <time>2014-01-26T09:55:04Z</time>
      </trkpt>
      <trkpt lat="49.59155" lon="1.00089">
        <ele>154</ele>
        <time>2014-01-26T09:55:07Z</time>
      </trkpt>
      <trkpt lat="49.59158" lon="1.00126">
        <ele>155</ele>
        <time>2014-01-26T09:55:11Z</time>
      </trkpt>
      <trkpt lat="49.59162" lon="1.00156">
        <ele>155</ele>
        <time>2014-01-26T09:55:15Z</time>
      </trkpt>
      <trkpt lat="49.59165" lon="1.00184">
        <ele>156</ele>
        <time>2014-01-26T09:55:20Z</time>
      </trkpt>
      <trkpt lat="49.59167" lon="1.00214">
        <ele>156</ele>
        <time>2014-01-26T09:55:25Z</time>
      </trkpt>
      <trkpt lat="49.5917" lon="1.00242">
        <ele>157</ele>
        <time>2014-01-26T09:55:30Z</time>
      </trkpt>
      <trkpt lat="49.59171" lon="1.00272">
        <ele>157</ele>
        <time>2014-01-26T09:55:36Z</time>
      </trkpt>
      <trkpt lat="49.59173" lon="1.00302">
        <ele>157</ele>
        <time>2014-01-26T09:55:42Z</time>
      </trkpt>
      <trkpt lat="49.59175" lon="1.00333">
        <ele>157</ele>
        <time>2014-01-26T09:55:48Z</time>
      </trkpt>
      <trkpt lat="49.59177" lon="1.00362">
        <ele>158</ele>
        <time>2014-01-26T09:55:53Z</time>
      </trkpt>
      <trkpt lat="49.5918" lon="1.00393">
        <ele>158</ele>
        <time>2014-01-26T09:55:59Z</time>
      </trkpt>
      <trkpt lat="49.59178" lon="1.00422">
        <ele>158</ele>
        <time>2014-01-26T09:56:05Z</time>
      </trkpt>
      <trkpt lat="49.5916" lon="1.00426">
        <ele>158</ele>
        <time>2014-01-26T09:56:42Z</time>
      </trkpt>
      <trkpt lat="49.5914" lon="1.00418">
        <ele>158</ele>
        <time>2014-01-26T09:56:48Z</time>
      </trkpt>
      <trkpt lat="49.59122" lon="1.00409">
        <ele>157</ele>
        <time>2014-01-26T09:56:53Z</time>
      </trkpt>
      <trkpt lat="49.591" lon="1.004">
        <ele>157</ele>
        <time>2014-01-26T09:56:58Z</time>
      </trkpt>
      <trkpt lat="49.59083" lon="1.0039">
        <ele>157</ele>
        <time>2014-01-26T09:57:02Z</time>
      </trkpt>
      <trkpt lat="49.59065" lon="1.00374">
        <ele>157</ele>
        <time>2014-01-26T09:57:06Z</time>
      </trkpt>
      <trkpt lat="49.59049" lon="1.00354">
        <ele>157</ele>
        <time>2014-01-26T09:57:10Z</time>
      </trkpt>
      <trkpt lat="49.59035" lon="1.00334">
        <ele>157</ele>
        <time>2014-01-26T09:57:14Z</time>
      </trkpt>
      <trkpt lat="49.59021" lon="1.00314">
        <ele>157</ele>
        <time>2014-01-26T09:57:18Z</time>
      </trkpt>
      <trkpt lat="49.59006" lon="1.00295">
        <ele>157</ele>
        <time>2014-01-26T09:57:22Z</time>
      </trkpt>
      <trkpt lat="49.58988" lon="1.00278">
        <ele>156</ele>
        <time>2014-01-26T09:57:27Z</time>
      </trkpt>
      <trkpt lat="49.58968" lon="1.00276">
        <ele>156</ele>
        <time>2014-01-26T09:57:32Z</time>
      </trkpt>
      <trkpt lat="49.58949" lon="1.0028">
        <ele>156</ele>
        <time>2014-01-26T09:57:36Z</time>
      </trkpt>
      <trkpt lat="49.58931" lon="1.00288">
        <ele>155</ele>
        <time>2014-01-26T09:57:40Z</time>
      </trkpt>
      <trkpt lat="49.58912" lon="1.00296">
        <ele>153</ele>
        <time>2014-01-26T09:57:44Z</time>
      </trkpt>
      <trkpt lat="49.58889" lon="1.00304">
        <ele>153</ele>
        <time>2014-01-26T09:57:48Z</time>
      </trkpt>
      <trkpt lat="49.58868" lon="1.00309">
        <ele>153</ele>
        <time>2014-01-26T09:57:52Z</time>
      </trkpt>
      <trkpt lat="49.58849" lon="1.00317">
        <ele>152</ele>
        <time>2014-01-26T09:58:02Z</time>
      </trkpt>
      <trkpt lat="49.5883" lon="1.00326">
        <ele>152</ele>
        <time>2014-01-26T09:58:07Z</time>
      </trkpt>
      <trkpt lat="49.58808" lon="1.00332">
        <ele>151</ele>
        <time>2014-01-26T09:58:11Z</time>
      </trkpt>
      <trkpt lat="49.58787" lon="1.00337">
        <ele>150</ele>
        <time>2014-01-26T09:58:15Z</time>
      </trkpt>
      <trkpt lat="49.58766" lon="1.0034">
        <ele>149</ele>
        <time>2014-01-26T09:58:19Z</time>
      </trkpt>
      <trkpt lat="49.58745" lon="1.00345">
        <ele>148</ele>
        <time>2014-01-26T09:58:23Z</time>
      </trkpt>
      <trkpt lat="49.58725" lon="1.00347">
        <ele>147</ele>
        <time>2014-01-26T09:58:27Z</time>
      </trkpt>
      <trkpt lat="49.58704" lon="1.00344">
        <ele>146</ele>
        <time>2014-01-26T09:58:32Z</time>
      </trkpt>
      <trkpt lat="49.58685" lon="1.00343">
        <ele>145</ele>
        <time>2014-01-26T09:58:39Z</time>
      </trkpt>
      <trkpt lat="49.58666" lon="1.0035">
        <ele>144</ele>
        <time>2014-01-26T09:58:49Z</time>
      </trkpt>
      <trkpt lat="49.58648" lon="1.00356">
        <ele>144</ele>
        <time>2014-01-26T09:58:55Z</time>
      </trkpt>
      <trkpt lat="49.58629" lon="1.00362">
        <ele>144</ele>
        <time>2014-01-26T09:59:08Z</time>
      </trkpt>
      <trkpt lat="49.5861" lon="1.0037">
        <ele>144</ele>
        <time>2014-01-26T09:59:19Z</time>
      </trkpt>
      <trkpt lat="49.58591" lon="1.00386">
        <ele>143</ele>
        <time>2014-01-26T09:59:31Z</time>
      </trkpt>
      <trkpt lat="49.58572" lon="1.00393">
        <ele>144</ele>
        <time>2014-01-26T09:59:46Z</time>
      </trkpt>
      <trkpt lat="49.58553" lon="1.00396">
        <ele>144</ele>
        <time>2014-01-26T10:00:11Z</time>
      </trkpt>
      <trkpt lat="49.58537" lon="1.00407">
        <ele>145</ele>
        <time>2014-01-26T10:00:18Z</time>
      </trkpt>
      <trkpt lat="49.58523" lon="1.00388">
        <ele>145</ele>
        <time>2014-01-26T10:01:17Z</time>
      </trkpt>
      <trkpt lat="49.58507" lon="1.00373">
        <ele>145</ele>
        <time>2014-01-26T10:01:40Z</time>
      </trkpt>
      <trkpt lat="49.5849" lon="1.00364">
        <ele>142</ele>
        <time>2014-01-26T10:01:55Z</time>
      </trkpt>
      <trkpt lat="49.58474" lon="1.0035">
        <ele>142</ele>
        <time>2014-01-26T10:02:15Z</time>
      </trkpt>
      <trkpt lat="49.5846" lon="1.00327">
        <ele>139</ele>
        <time>2014-01-26T10:02:37Z</time>
      </trkpt>
      <trkpt lat="49.58442" lon="1.00326">
        <ele>137</ele>
        <time>2014-01-26T10:02:45Z</time>
      </trkpt>
      <trkpt lat="49.58424" lon="1.00332">
        <ele>135</ele>
        <time>2014-01-26T10:02:55Z</time>
      </trkpt>
      <trkpt lat="49.58407" lon="1.00345">
        <ele>134</ele>
        <time>2014-01-26T10:03:04Z</time>
      </trkpt>
      <trkpt lat="49.58395" lon="1.00366">
        <ele>134</ele>
        <time>2014-01-26T10:03:14Z</time>
      </trkpt>
      <trkpt lat="49.58386" lon="1.00394">
        <ele>135</ele>
        <time>2014-01-26T10:03:21Z</time>
      </trkpt>
      <trkpt lat="49.58369" lon="1.00404">
        <ele>134</ele>
        <time>2014-01-26T10:03:28Z</time>
      </trkpt>
      <trkpt lat="49.5835" lon="1.00411">
        <ele>133</ele>
        <time>2014-01-26T10:03:35Z</time>
      </trkpt>
      <trkpt lat="49.5833" lon="1.0042">
        <ele>133</ele>
        <time>2014-01-26T10:03:40Z</time>
      </trkpt>
      <trkpt lat="49.58311" lon="1.00425">
        <ele>136</ele>
        <time>2014-01-26T10:04:05Z</time>
      </trkpt>
      <trkpt lat="49.58294" lon="1.00406">
        <ele>134</ele>
        <time>2014-01-26T10:04:30Z</time>
      </trkpt>
      <trkpt lat="49.58277" lon="1.0039">
        <ele>134</ele>
        <time>2014-01-26T10:04:36Z</time>
      </trkpt>
      <trkpt lat="49.58259" lon="1.00373">
        <ele>134</ele>
        <time>2014-01-26T10:04:43Z</time>
      </trkpt>
      <trkpt lat="49.58242" lon="1.00362">
        <ele>136</ele>
        <time>2014-01-26T10:04:51Z</time>
      </trkpt>
      <trkpt lat="49.58226" lon="1.00351">
        <ele>136</ele>
        <time>2014-01-26T10:04:58Z</time>
      </trkpt>
      <trkpt lat="49.58209" lon="1.00334">
        <ele>136</ele>
        <time>2014-01-26T10:05:07Z</time>
      </trkpt>
      <trkpt lat="49.58191" lon="1.00321">
        <ele>133</ele>
        <time>2014-01-26T10:05:14Z</time>
      </trkpt>
      <trkpt lat="49.58174" lon="1.00314">
        <ele>134</ele>
        <time>2014-01-26T10:05:28Z</time>
      </trkpt>
      <trkpt lat="49.58157" lon="1.00301">
        <ele>134</ele>
        <time>2014-01-26T10:05:49Z</time>
      </trkpt>
      <trkpt lat="49.58139" lon="1.00306">
        <ele>135</ele>
        <time>2014-01-26T10:06:27Z</time>
      </trkpt>
      <trkpt lat="49.58121" lon="1.00299">
        <ele>135</ele>
        <time>2014-01-26T10:06:39Z</time>
      </trkpt>
      <trkpt lat="49.58103" lon="1.0029">
        <ele>135</ele>
        <time>2014-01-26T10:06:49Z</time>
      </trkpt>
      <trkpt lat="49.58085" lon="1.0028">
        <ele>134</ele>
        <time>2014-01-26T10:06:57Z</time>
      </trkpt>
      <trkpt lat="49.58063" lon="1.00276">
        <ele>134</ele>
        <time>2014-01-26T10:07:07Z</time>
      </trkpt>
      <trkpt lat="49.58043" lon="1.00274">
        <ele>134</ele>
        <time>2014-01-26T10:07:14Z</time>
      </trkpt>
      <trkpt lat="49.58024" lon="1.00275">
        <ele>133</ele>
        <time>2014-01-26T10:07:24Z</time>
      </trkpt>
      <trkpt lat="49.58004" lon="1.00284">
        <ele>134</ele>
        <time>2014-01-26T10:07:33Z</time>
      </trkpt>
      <trkpt lat="49.57988" lon="1.00295">
        <ele>135</ele>
        <time>2014-01-26T10:07:42Z</time>
      </trkpt>
      <trkpt lat="49.5797" lon="1.00306">
        <ele>136</ele>
        <time>2014-01-26T10:07:48Z</time>
      </trkpt>
      <trkpt lat="49.57951" lon="1.00314">
        <ele>136</ele>
        <time>2014-01-26T10:07:55Z</time>
      </trkpt>
      <trkpt lat="49.5793" lon="1.00317">
        <ele>137</ele>
        <time>2014-01-26T10:08:02Z</time>
      </trkpt>
      <trkpt lat="49.57912" lon="1.00321">
        <ele>139</ele>
        <time>2014-01-26T10:08:09Z</time>
      </trkpt>
      <trkpt lat="49.57892" lon="1.00324">
        <ele>138</ele>
        <time>2014-01-26T10:08:15Z</time>
      </trkpt>
      <trkpt lat="49.57872" lon="1.00327">
        <ele>138</ele>
        <time>2014-01-26T10:08:22Z</time>
      </trkpt>
      <trkpt lat="49.57852" lon="1.00331">
        <ele>139</ele>
        <time>2014-01-26T10:08:30Z</time>
      </trkpt>
      <trkpt lat="49.5783" lon="1.00334">
        <ele>141</ele>
        <time>2014-01-26T10:08:34Z</time>
      </trkpt>
      <trkpt lat="49.57813" lon="1.00336">
        <ele>139</ele>
        <time>2014-01-26T10:08:38Z</time>
      </trkpt>
      <trkpt lat="49.57794" lon="1.00337">
        <ele>138</ele>
        <time>2014-01-26T10:08:53Z</time>
      </trkpt>
      <trkpt lat="49.57787" lon="1.00311">
        <ele>138</ele>
        <time>2014-01-26T10:11:45Z</time>
      </trkpt>
      <trkpt lat="49.57777" lon="1.00286">
        <ele>138</ele>
        <time>2014-01-26T10:11:54Z</time>
      </trkpt>
      <trkpt lat="49.57761" lon="1.00263">
        <ele>138</ele>
        <time>2014-01-26T10:12:00Z</time>
      </trkpt>
      <trkpt lat="49.57742" lon="1.0025">
        <ele>138</ele>
        <time>2014-01-26T10:12:06Z</time>
      </trkpt>
      <trkpt lat="49.57721" lon="1.00248">
        <ele>136</ele>
        <time>2014-01-26T10:12:12Z</time>
      </trkpt>
      <trkpt lat="49.57702" lon="1.0024">
        <ele>136</ele>
        <time>2014-01-26T10:12:20Z</time>
      </trkpt>
      <trkpt lat="49.57683" lon="1.00234">
        <ele>136</ele>
        <time>2014-01-26T10:12:28Z</time>
      </trkpt>
      <trkpt lat="49.57666" lon="1.0022">
        <ele>134</ele>
        <time>2014-01-26T10:12:38Z</time>
      </trkpt>
      <trkpt lat="49.57651" lon="1.00206">
        <ele>133</ele>
        <time>2014-01-26T10:12:48Z</time>
      </trkpt>
      <trkpt lat="49.57636" lon="1.00188">
        <ele>133</ele>
        <time>2014-01-26T10:12:56Z</time>
      </trkpt>
      <trkpt lat="49.57621" lon="1.00167">
        <ele>133</ele>
        <time>2014-01-26T10:13:03Z</time>
      </trkpt>
      <trkpt lat="49.57607" lon="1.00145">
        <ele>131</ele>
        <time>2014-01-26T10:13:09Z</time>
      </trkpt>
      <trkpt lat="49.57594" lon="1.00123">
        <ele>132</ele>
        <time>2014-01-26T10:13:16Z</time>
      </trkpt>
      <trkpt lat="49.57583" lon="1.00101">
        <ele>133</ele>
        <time>2014-01-26T10:13:22Z</time>
      </trkpt>
      <trkpt lat="49.57571" lon="1.00079">
        <ele>135</ele>
        <time>2014-01-26T10:13:28Z</time>
      </trkpt>
      <trkpt lat="49.57556" lon="1.00055">
        <ele>135</ele>
        <time>2014-01-26T10:13:35Z</time>
      </trkpt>
      <trkpt lat="49.57541" lon="1.00036">
        <ele>135</ele>
        <time>2014-01-26T10:13:42Z</time>
      </trkpt>
      <trkpt lat="49.57529" lon="1.00014">
        <ele>135</ele>
        <time>2014-01-26T10:13:49Z</time>
      </trkpt>
      <trkpt lat="49.57515" lon="0.99993">
        <ele>135</ele>
        <time>2014-01-26T10:13:55Z</time>
      </trkpt>
      <trkpt lat="49.57499" lon="0.99973">
        <ele>137</ele>
        <time>2014-01-26T10:14:01Z</time>
      </trkpt>
      <trkpt lat="49.57482" lon="0.99953">
        <ele>137</ele>
        <time>2014-01-26T10:14:08Z</time>
      </trkpt>
      <trkpt lat="49.57463" lon="0.99937">
        <ele>137</ele>
        <time>2014-01-26T10:14:15Z</time>
      </trkpt>
      <trkpt lat="49.57445" lon="0.99926">
        <ele>137</ele>
        <time>2014-01-26T10:14:20Z</time>
      </trkpt>
      <trkpt lat="49.57426" lon="0.99916">
        <ele>137</ele>
        <time>2014-01-26T10:14:24Z</time>
      </trkpt>
      <trkpt lat="49.57408" lon="0.99905">
        <ele>137</ele>
        <time>2014-01-26T10:14:28Z</time>
      </trkpt>
      <trkpt lat="49.57391" lon="0.99894">
        <ele>136</ele>
        <time>2014-01-26T10:14:32Z</time>
      </trkpt>
      <trkpt lat="49.57372" lon="0.99884">
        <ele>135</ele>
        <time>2014-01-26T10:14:37Z</time>
      </trkpt>
      <trkpt lat="49.57386" lon="0.99904">
        <ele>136</ele>
        <time>2014-01-26T10:15:10Z</time>
      </trkpt>
      <trkpt lat="49.57404" lon="0.99916">
        <ele>137</ele>
        <time>2014-01-26T10:15:17Z</time>
      </trkpt>
      <trkpt lat="49.57422" lon="0.99926">
        <ele>138</ele>
        <time>2014-01-26T10:15:23Z</time>
      </trkpt>
      <trkpt lat="49.57439" lon="0.99935">
        <ele>137</ele>
        <time>2014-01-26T10:15:30Z</time>
      </trkpt>
      <trkpt lat="49.57457" lon="0.99945">
        <ele>137</ele>
        <time>2014-01-26T10:15:38Z</time>
      </trkpt>
      <trkpt lat="49.57475" lon="0.9996">
        <ele>137</ele>
        <time>2014-01-26T10:15:44Z</time>
      </trkpt>
      <trkpt lat="49.5749" lon="0.99977">
        <ele>137</ele>
        <time>2014-01-26T10:15:50Z</time>
      </trkpt>
      <trkpt lat="49.57507" lon="0.99995">
        <ele>136</ele>
        <time>2014-01-26T10:15:57Z</time>
      </trkpt>
      <trkpt lat="49.57523" lon="1.00016">
        <ele>136</ele>
        <time>2014-01-26T10:16:03Z</time>
      </trkpt>
      <trkpt lat="49.57537" lon="1.00036">
        <ele>135</ele>
        <time>2014-01-26T10:16:08Z</time>
      </trkpt>
      <trkpt lat="49.57551" lon="1.00059">
        <ele>135</ele>
        <time>2014-01-26T10:16:14Z</time>
      </trkpt>
      <trkpt lat="49.57565" lon="1.00079">
        <ele>135</ele>
        <time>2014-01-26T10:16:20Z</time>
      </trkpt>
      <trkpt lat="49.57578" lon="1.00101">
        <ele>133</ele>
        <time>2014-01-26T10:16:26Z</time>
      </trkpt>
      <trkpt lat="49.57589" lon="1.00126">
        <ele>132</ele>
        <time>2014-01-26T10:16:34Z</time>
      </trkpt>
      <trkpt lat="49.57603" lon="1.0015">
        <ele>131</ele>
        <time>2014-01-26T10:16:40Z</time>
      </trkpt>
      <trkpt lat="49.57618" lon="1.00169">
        <ele>132</ele>
        <time>2014-01-26T10:16:46Z</time>
      </trkpt>
      <trkpt lat="49.57634" lon="1.00189">
        <ele>133</ele>
        <time>2014-01-26T10:16:52Z</time>
      </trkpt>
      <trkpt lat="49.57649" lon="1.00206">
        <ele>133</ele>
        <time>2014-01-26T10:16:57Z</time>
      </trkpt>
      <trkpt lat="49.57664" lon="1.00226">
        <ele>134</ele>
        <time>2014-01-26T10:17:03Z</time>
      </trkpt>
      <trkpt lat="49.57684" lon="1.00239">
        <ele>136</ele>
        <time>2014-01-26T10:17:10Z</time>
      </trkpt>
      <trkpt lat="49.57703" lon="1.00248">
        <ele>136</ele>
        <time>2014-01-26T10:17:15Z</time>
      </trkpt>
      <trkpt lat="49.57721" lon="1.00258">
        <ele>137</ele>
        <time>2014-01-26T10:17:21Z</time>
      </trkpt>
      <trkpt lat="49.57739" lon="1.00265">
        <ele>138</ele>
        <time>2014-01-26T10:17:28Z</time>
      </trkpt>
      <trkpt lat="49.57759" lon="1.00278">
        <ele>138</ele>
        <time>2014-01-26T10:17:34Z</time>
      </trkpt>
      <trkpt lat="49.57775" lon="1.00299">
        <ele>138</ele>
        <time>2014-01-26T10:17:40Z</time>
      </trkpt>
      <trkpt lat="49.57785" lon="1.00322">
        <ele>138</ele>
        <time>2014-01-26T10:17:48Z</time>
      </trkpt>
      <trkpt lat="49.57768" lon="1.00337">
        <ele>137</ele>
        <time>2014-01-26T10:17:59Z</time>
      </trkpt>
      <trkpt lat="49.57748" lon="1.00329">
        <ele>137</ele>
        <time>2014-01-26T10:18:03Z</time>
      </trkpt>
      <trkpt lat="49.57729" lon="1.0033">
        <ele>136</ele>
        <time>2014-01-26T10:18:09Z</time>
      </trkpt>
      <trkpt lat="49.57711" lon="1.00331">
        <ele>135</ele>
        <time>2014-01-26T10:18:14Z</time>
      </trkpt>
      <trkpt lat="49.57693" lon="1.00336">
        <ele>131</ele>
        <time>2014-01-26T10:18:21Z</time>
      </trkpt>
      <trkpt lat="49.57672" lon="1.00343">
        <ele>131</ele>
        <time>2014-01-26T10:18:32Z</time>
      </trkpt>
      <trkpt lat="49.57653" lon="1.00349">
        <ele>127</ele>
        <time>2014-01-26T10:18:36Z</time>
      </trkpt>
      <trkpt lat="49.57635" lon="1.00357">
        <ele>126</ele>
        <time>2014-01-26T10:18:42Z</time>
      </trkpt>
      <trkpt lat="49.57618" lon="1.00373">
        <ele>124</ele>
        <time>2014-01-26T10:18:53Z</time>
      </trkpt>
      <trkpt lat="49.57597" lon="1.00383">
        <ele>123</ele>
        <time>2014-01-26T10:18:57Z</time>
      </trkpt>
      <trkpt lat="49.57578" lon="1.00382">
        <ele>120</ele>
        <time>2014-01-26T10:19:00Z</time>
      </trkpt>
      <trkpt lat="49.5756" lon="1.00365">
        <ele>121</ele>
        <time>2014-01-26T10:19:04Z</time>
      </trkpt>
      <trkpt lat="49.57557" lon="1.00338">
        <ele>121</ele>
        <time>2014-01-26T10:19:06Z</time>
      </trkpt>
      <trkpt lat="49.57557" lon="1.00307">
        <ele>123</ele>
        <time>2014-01-26T10:19:08Z</time>
      </trkpt>
      <trkpt lat="49.57556" lon="1.00265">
        <ele>123</ele>
        <time>2014-01-26T10:19:11Z</time>
      </trkpt>
      <trkpt lat="49.57553" lon="1.00234">
        <ele>125</ele>
        <time>2014-01-26T10:19:13Z</time>
      </trkpt>
      <trkpt lat="49.5755" lon="1.00206">
        <ele>125</ele>
        <time>2014-01-26T10:19:15Z</time>
      </trkpt>
      <trkpt lat="49.57534" lon="1.00173">
        <ele>124</ele>
        <time>2014-01-26T10:19:18Z</time>
      </trkpt>
      <trkpt lat="49.57517" lon="1.00162">
        <ele>125</ele>
        <time>2014-01-26T10:19:20Z</time>
      </trkpt>
      <trkpt lat="49.57495" lon="1.0017">
        <ele>120</ele>
        <time>2014-01-26T10:19:22Z</time>
      </trkpt>
      <trkpt lat="49.57473" lon="1.00191">
        <ele>119</ele>
        <time>2014-01-26T10:19:24Z</time>
      </trkpt>
      <trkpt lat="49.5746" lon="1.0021">
        <ele>119</ele>
        <time>2014-01-26T10:19:26Z</time>
      </trkpt>
      <trkpt lat="49.57445" lon="1.00232">
        <ele>120</ele>
        <time>2014-01-26T10:19:29Z</time>
      </trkpt>
      <trkpt lat="49.57425" lon="1.00245">
        <ele>121</ele>
        <time>2014-01-26T10:19:33Z</time>
      </trkpt>
      <trkpt lat="49.57405" lon="1.0025">
        <ele>121</ele>
        <time>2014-01-26T10:19:36Z</time>
      </trkpt>
      <trkpt lat="49.57383" lon="1.0025">
        <ele>121</ele>
        <time>2014-01-26T10:19:40Z</time>
      </trkpt>
      <trkpt lat="49.57364" lon="1.0025">
        <ele>121</ele>
        <time>2014-01-26T10:19:44Z</time>
      </trkpt>
      <trkpt lat="49.57346" lon="1.00248">
        <ele>122</ele>
        <time>2014-01-26T10:19:49Z</time>
      </trkpt>
      <trkpt lat="49.57324" lon="1.00244">
        <ele>122</ele>
        <time>2014-01-26T10:19:56Z</time>
      </trkpt>
      <trkpt lat="49.57306" lon="1.00236">
        <ele>122</ele>
        <time>2014-01-26T10:20:02Z</time>
      </trkpt>
      <trkpt lat="49.57287" lon="1.00228">
        <ele>122</ele>
        <time>2014-01-26T10:20:09Z</time>
      </trkpt>
      <trkpt lat="49.57268" lon="1.00216">
        <ele>122</ele>
        <time>2014-01-26T10:20:16Z</time>
      </trkpt>
      <trkpt lat="49.57251" lon="1.00203">
        <ele>121</ele>
        <time>2014-01-26T10:20:23Z</time>
      </trkpt>
      <trkpt lat="49.57235" lon="1.00189">
        <ele>122</ele>
        <time>2014-01-26T10:20:29Z</time>
      </trkpt>
      <trkpt lat="49.57221" lon="1.00169">
        <ele>122</ele>
        <time>2014-01-26T10:20:36Z</time>
      </trkpt>
      <trkpt lat="49.57208" lon="1.00143">
        <ele>121</ele>
        <time>2014-01-26T10:20:43Z</time>
      </trkpt>
      <trkpt lat="49.57195" lon="1.00122">
        <ele>121</ele>
        <time>2014-01-26T10:20:49Z</time>
      </trkpt>
      <trkpt lat="49.5718" lon="1.00106">
        <ele>121</ele>
        <time>2014-01-26T10:20:55Z</time>
      </trkpt>
      <trkpt lat="49.57162" lon="1.00095">
        <ele>123</ele>
        <time>2014-01-26T10:21:01Z</time>
      </trkpt>
      <trkpt lat="49.57144" lon="1.00098">
        <ele>123</ele>
        <time>2014-01-26T10:21:10Z</time>
      </trkpt>
      <trkpt lat="49.57127" lon="1.00108">
        <ele>124</ele>
        <time>2014-01-26T10:21:21Z</time>
      </trkpt>
      <trkpt lat="49.57147" lon="1.00101">
        <ele>123</ele>
        <time>2014-01-26T10:21:30Z</time>
      </trkpt>
      <trkpt lat="49.57165" lon="1.001">
        <ele>123</ele>
        <time>2014-01-26T10:21:35Z</time>
      </trkpt>
      <trkpt lat="49.57145" lon="1.00099">
        <ele>123</ele>
        <time>2014-01-26T10:21:46Z</time>
      </trkpt>
      <trkpt lat="49.57128" lon="1.00109">
        <ele>124</ele>
        <time>2014-01-26T10:21:53Z</time>
      </trkpt>
      <trkpt lat="49.57115" lon="1.00132">
        <ele>124</ele>
        <time>2014-01-26T10:22:00Z</time>
      </trkpt>
      <trkpt lat="49.57101" lon="1.00153">
        <ele>125</ele>
        <time>2014-01-26T10:22:06Z</time>
      </trkpt>
      <trkpt lat="49.57088" lon="1.00175">
        <ele>126</ele>
        <time>2014-01-26T10:22:12Z</time>
      </trkpt>
      <trkpt lat="49.57073" lon="1.002">
        <ele>127</ele>
        <time>2014-01-26T10:22:18Z</time>
      </trkpt>
      <trkpt lat="49.57057" lon="1.00219">
        <ele>127</ele>
        <time>2014-01-26T10:22:23Z</time>
      </trkpt>
      <trkpt lat="49.5704" lon="1.00231">
        <ele>127</ele>
        <time>2014-01-26T10:22:27Z</time>
      </trkpt>
      <trkpt lat="49.57023" lon="1.00243">
        <ele>127</ele>
        <time>2014-01-26T10:22:32Z</time>
      </trkpt>
      <trkpt lat="49.57006" lon="1.00256">
        <ele>128</ele>
        <time>2014-01-26T10:22:39Z</time>
      </trkpt>
      <trkpt lat="49.56988" lon="1.00269">
        <ele>129</ele>
        <time>2014-01-26T10:22:46Z</time>
      </trkpt>
      <trkpt lat="49.5697" lon="1.00278">
        <ele>129</ele>
        <time>2014-01-26T10:22:52Z</time>
      </trkpt>
      <trkpt lat="49.5695" lon="1.00289">
        <ele>129</ele>
        <time>2014-01-26T10:22:59Z</time>
      </trkpt>
      <trkpt lat="49.56932" lon="1.00296">
        <ele>129</ele>
        <time>2014-01-26T10:23:07Z</time>
      </trkpt>
      <trkpt lat="49.56914" lon="1.00303">
        <ele>130</ele>
        <time>2014-01-26T10:23:14Z</time>
      </trkpt>
      <trkpt lat="49.56897" lon="1.00312">
        <ele>130</ele>
        <time>2014-01-26T10:23:21Z</time>
      </trkpt>
      <trkpt lat="49.56877" lon="1.00318">
        <ele>130</ele>
        <time>2014-01-26T10:23:28Z</time>
      </trkpt>
      <trkpt lat="49.5686" lon="1.00324">
        <ele>130</ele>
        <time>2014-01-26T10:23:34Z</time>
      </trkpt>
      <trkpt lat="49.5684" lon="1.00331">
        <ele>131</ele>
        <time>2014-01-26T10:23:40Z</time>
      </trkpt>
      <trkpt lat="49.56819" lon="1.00339">
        <ele>132</ele>
        <time>2014-01-26T10:23:46Z</time>
      </trkpt>
      <trkpt lat="49.56799" lon="1.00347">
        <ele>133</ele>
        <time>2014-01-26T10:23:52Z</time>
      </trkpt>
      <trkpt lat="49.56781" lon="1.00352">
        <ele>133</ele>
        <time>2014-01-26T10:23:57Z</time>
      </trkpt>
      <trkpt lat="49.56761" lon="1.00359">
        <ele>134</ele>
        <time>2014-01-26T10:24:03Z</time>
      </trkpt>
      <trkpt lat="49.56743" lon="1.00366">
        <ele>135</ele>
        <time>2014-01-26T10:24:09Z</time>
      </trkpt>
      <trkpt lat="49.56723" lon="1.00374">
        <ele>135</ele>
        <time>2014-01-26T10:24:15Z</time>
      </trkpt>
      <trkpt lat="49.56706" lon="1.00385">
        <ele>135</ele>
        <time>2014-01-26T10:24:21Z</time>
      </trkpt>
      <trkpt lat="49.56688" lon="1.00403">
        <ele>135</ele>
        <time>2014-01-26T10:24:27Z</time>
      </trkpt>
      <trkpt lat="49.56674" lon="1.00423">
        <ele>136</ele>
        <time>2014-01-26T10:24:32Z</time>
      </trkpt>
      <trkpt lat="49.56662" lon="1.00444">
        <ele>135</ele>
        <time>2014-01-26T10:24:37Z</time>
      </trkpt>
      <trkpt lat="49.56653" lon="1.00471">
        <ele>135</ele>
        <time>2014-01-26T10:24:43Z</time>
      </trkpt>
      <trkpt lat="49.56642" lon="1.00496">
        <ele>135</ele>
        <time>2014-01-26T10:24:48Z</time>
      </trkpt>
      <trkpt lat="49.56631" lon="1.0052">
        <ele>135</ele>
        <time>2014-01-26T10:24:53Z</time>
      </trkpt>
      <trkpt lat="49.5662" lon="1.00548">
        <ele>135</ele>
        <time>2014-01-26T10:24:58Z</time>
      </trkpt>
      <trkpt lat="49.56609" lon="1.00573">
        <ele>135</ele>
        <time>2014-01-26T10:25:02Z</time>
      </trkpt>
      <trkpt lat="49.566" lon="1.00596">
        <ele>134</ele>
        <time>2014-01-26T10:25:06Z</time>
      </trkpt>
      <trkpt lat="49.56586" lon="1.00623">
        <ele>134</ele>
        <time>2014-01-26T10:25:10Z</time>
      </trkpt>
      <trkpt lat="49.56574" lon="1.0065">
        <ele>132</ele>
        <time>2014-01-26T10:25:14Z</time>
      </trkpt>
      <trkpt lat="49.56559" lon="1.0067">
        <ele>130</ele>
        <time>2014-01-26T10:25:18Z</time>
      </trkpt>
      <trkpt lat="49.56542" lon="1.00656">
        <ele>131</ele>
        <time>2014-01-26T10:25:22Z</time>
      </trkpt>
      <trkpt lat="49.56529" lon="1.00636">
        <ele>131</ele>
        <time>2014-01-26T10:25:26Z</time>
      </trkpt>
      <trkpt lat="49.56514" lon="1.00611">
        <ele>131</ele>
        <time>2014-01-26T10:25:31Z</time>
      </trkpt>
      <trkpt lat="49.56502" lon="1.00591">
        <ele>131</ele>
        <time>2014-01-26T10:25:36Z</time>
      </trkpt>
      <trkpt lat="49.56489" lon="1.0057">
        <ele>131</ele>
        <time>2014-01-26T10:25:41Z</time>
      </trkpt>
      <trkpt lat="49.56476" lon="1.00551">
        <ele>130</ele>
        <time>2014-01-26T10:25:46Z</time>
      </trkpt>
      <trkpt lat="49.56462" lon="1.00534">
        <ele>130</ele>
        <time>2014-01-26T10:25:51Z</time>
      </trkpt>
      <trkpt lat="49.56441" lon="1.00531">
        <ele>130</ele>
        <time>2014-01-26T10:25:57Z</time>
      </trkpt>
      <trkpt lat="49.56422" lon="1.00525">
        <ele>129</ele>
        <time>2014-01-26T10:26:03Z</time>
      </trkpt>
      <trkpt lat="49.56405" lon="1.00506">
        <ele>128</ele>
        <time>2014-01-26T10:26:08Z</time>
      </trkpt>
      <trkpt lat="49.56393" lon="1.00478">
        <ele>128</ele>
        <time>2014-01-26T10:26:14Z</time>
      </trkpt>
      <trkpt lat="49.56392" lon="1.00446">
        <ele>128</ele>
        <time>2014-01-26T10:26:19Z</time>
      </trkpt>
      <trkpt lat="49.56389" lon="1.00417">
        <ele>128</ele>
        <time>2014-01-26T10:26:24Z</time>
      </trkpt>
      <trkpt lat="49.56371" lon="1.00397">
        <ele>129</ele>
        <time>2014-01-26T10:26:29Z</time>
      </trkpt>
      <trkpt lat="49.56351" lon="1.00385">
        <ele>129</ele>
        <time>2014-01-26T10:26:34Z</time>
      </trkpt>
      <trkpt lat="49.56333" lon="1.00381">
        <ele>128</ele>
        <time>2014-01-26T10:26:42Z</time>
      </trkpt>
      <trkpt lat="49.56312" lon="1.00376">
        <ele>128</ele>
        <time>2014-01-26T10:26:48Z</time>
      </trkpt>
      <trkpt lat="49.56292" lon="1.00359">
        <ele>128</ele>
        <time>2014-01-26T10:26:53Z</time>
      </trkpt>
      <trkpt lat="49.56273" lon="1.00341">
        <ele>128</ele>
        <time>2014-01-26T10:26:58Z</time>
      </trkpt>
      <trkpt lat="49.56256" lon="1.00321">
        <ele>128</ele>
        <time>2014-01-26T10:27:03Z</time>
      </trkpt>
      <trkpt lat="49.56238" lon="1.00302">
        <ele>127</ele>
        <time>2014-01-26T10:27:08Z</time>
      </trkpt>
      <trkpt lat="49.56221" lon="1.00283">
        <ele>127</ele>
        <time>2014-01-26T10:27:13Z</time>
      </trkpt>
      <trkpt lat="49.56203" lon="1.00265">
        <ele>127</ele>
        <time>2014-01-26T10:27:18Z</time>
      </trkpt>
      <trkpt lat="49.56185" lon="1.00246">
        <ele>127</ele>
        <time>2014-01-26T10:27:23Z</time>
      </trkpt>
      <trkpt lat="49.56169" lon="1.00229">
        <ele>127</ele>
        <time>2014-01-26T10:27:27Z</time>
      </trkpt>
      <trkpt lat="49.56151" lon="1.0021">
        <ele>126</ele>
        <time>2014-01-26T10:27:32Z</time>
      </trkpt>
      <trkpt lat="49.56135" lon="1.0019">
        <ele>126</ele>
        <time>2014-01-26T10:27:36Z</time>
      </trkpt>
      <trkpt lat="49.56119" lon="1.00172">
        <ele>126</ele>
        <time>2014-01-26T10:27:40Z</time>
      </trkpt>
      <trkpt lat="49.56103" lon="1.00152">
        <ele>126</ele>
        <time>2014-01-26T10:27:44Z</time>
      </trkpt>
      <trkpt lat="49.56086" lon="1.00132">
        <ele>126</ele>
        <time>2014-01-26T10:27:48Z</time>
      </trkpt>
      <trkpt lat="49.56069" lon="1.00114">
        <ele>124</ele>
        <time>2014-01-26T10:27:52Z</time>
      </trkpt>
      <trkpt lat="49.56052" lon="1.00095">
        <ele>124</ele>
        <time>2014-01-26T10:27:56Z</time>
      </trkpt>
      <trkpt lat="49.56036" lon="1.00075">
        <ele>125</ele>
        <time>2014-01-26T10:28:00Z</time>
      </trkpt>
      <trkpt lat="49.56019" lon="1.00055">
        <ele>125</ele>
        <time>2014-01-26T10:28:04Z</time>
      </trkpt>
      <trkpt lat="49.56002" lon="1.00036">
        <ele>125</ele>
        <time>2014-01-26T10:28:08Z</time>
      </trkpt>
      <trkpt lat="49.55984" lon="1.00017">
        <ele>124</ele>
        <time>2014-01-26T10:28:12Z</time>
      </trkpt>
      <trkpt lat="49.55966" lon="0.99997">
        <ele>124</ele>
        <time>2014-01-26T10:28:16Z</time>
      </trkpt>
      <trkpt lat="49.55949" lon="0.99978">
        <ele>124</ele>
        <time>2014-01-26T10:28:20Z</time>
      </trkpt>
      <trkpt lat="49.5593" lon="0.99959">
        <ele>124</ele>
        <time>2014-01-26T10:28:24Z</time>
      </trkpt>
      <trkpt lat="49.55913" lon="0.99941">
        <ele>122</ele>
        <time>2014-01-26T10:28:28Z</time>
      </trkpt>
      <trkpt lat="49.55897" lon="0.99924">
        <ele>122</ele>
        <time>2014-01-26T10:28:32Z</time>
      </trkpt>
      <trkpt lat="49.55882" lon="0.99905">
        <ele>122</ele>
        <time>2014-01-26T10:28:36Z</time>
      </trkpt>
      <trkpt lat="49.55867" lon="0.99886">
        <ele>122</ele>
        <time>2014-01-26T10:28:40Z</time>
      </trkpt>
      <trkpt lat="49.55851" lon="0.99865">
        <ele>122</ele>
        <time>2014-01-26T10:28:44Z</time>
      </trkpt>
      <trkpt lat="49.55837" lon="0.99845">
        <ele>121</ele>
        <time>2014-01-26T10:28:48Z</time>
      </trkpt>
      <trkpt lat="49.55823" lon="0.99824">
        <ele>121</ele>
        <time>2014-01-26T10:28:52Z</time>
      </trkpt>
      <trkpt lat="49.55811" lon="0.998">
        <ele>120</ele>
        <time>2014-01-26T10:28:56Z</time>
      </trkpt>
      <trkpt lat="49.558" lon="0.99774">
        <ele>120</ele>
        <time>2014-01-26T10:29:00Z</time>
      </trkpt>
      <trkpt lat="49.55792" lon="0.99749">
        <ele>121</ele>
        <time>2014-01-26T10:29:04Z</time>
      </trkpt>
      <trkpt lat="49.55786" lon="0.99721">
        <ele>121</ele>
        <time>2014-01-26T10:29:08Z</time>
      </trkpt>
      <trkpt lat="49.55779" lon="0.99692">
        <ele>121</ele>
        <time>2014-01-26T10:29:12Z</time>
      </trkpt>
      <trkpt lat="49.55764" lon="0.99673">
        <ele>120</ele>
        <time>2014-01-26T10:29:17Z</time>
      </trkpt>
      <trkpt lat="49.55744" lon="0.99681">
        <ele>119</ele>
        <time>2014-01-26T10:29:22Z</time>
      </trkpt>
      <trkpt lat="49.55724" lon="0.99689">
        <ele>119</ele>
        <time>2014-01-26T10:29:28Z</time>
      </trkpt>
      <trkpt lat="49.55705" lon="0.99697">
        <ele>118</ele>
        <time>2014-01-26T10:29:34Z</time>
      </trkpt>
      <trkpt lat="49.55685" lon="0.99706">
        <ele>118</ele>
        <time>2014-01-26T10:29:40Z</time>
      </trkpt>
      <trkpt lat="49.55664" lon="0.99714">
        <ele>116</ele>
        <time>2014-01-26T10:29:46Z</time>
      </trkpt>
      <trkpt lat="49.55645" lon="0.99722">
        <ele>116</ele>
        <time>2014-01-26T10:29:51Z</time>
      </trkpt>
      <trkpt lat="49.55626" lon="0.99735">
        <ele>115</ele>
        <time>2014-01-26T10:29:56Z</time>
      </trkpt>
      <trkpt lat="49.55613" lon="0.99754">
        <ele>113</ele>
        <time>2014-01-26T10:30:03Z</time>
      </trkpt>
      <trkpt lat="49.55627" lon="0.99736">
        <ele>115</ele>
        <time>2014-01-26T10:30:09Z</time>
      </trkpt>
      <trkpt lat="49.55645" lon="0.99722">
        <ele>116</ele>
        <time>2014-01-26T10:30:14Z</time>
      </trkpt>
      <trkpt lat="49.55666" lon="0.99712">
        <ele>116</ele>
        <time>2014-01-26T10:30:19Z</time>
      </trkpt>
      <trkpt lat="49.55685" lon="0.99705">
        <ele>118</ele>
        <time>2014-01-26T10:30:23Z</time>
      </trkpt>
      <trkpt lat="49.55705" lon="0.99698">
        <ele>118</ele>
        <time>2014-01-26T10:30:27Z</time>
      </trkpt>
      <trkpt lat="49.55724" lon="0.99691">
        <ele>119</ele>
        <time>2014-01-26T10:30:31Z</time>
      </trkpt>
      <trkpt lat="49.55743" lon="0.99684">
        <ele>119</ele>
        <time>2014-01-26T10:30:36Z</time>
      </trkpt>
      <trkpt lat="49.5576" lon="0.99679">
        <ele>120</ele>
        <time>2014-01-26T10:30:41Z</time>
      </trkpt>
      <trkpt lat="49.55765" lon="0.99648">
        <ele>120</ele>
        <time>2014-01-26T10:30:51Z</time>
      </trkpt>
      <trkpt lat="49.55754" lon="0.99621">
        <ele>120</ele>
        <time>2014-01-26T10:30:56Z</time>
      </trkpt>
      <trkpt lat="49.55741" lon="0.99597">
        <ele>119</ele>
        <time>2014-01-26T10:31:01Z</time>
      </trkpt>
      <trkpt lat="49.55728" lon="0.99569">
        <ele>118</ele>
        <time>2014-01-26T10:31:06Z</time>
      </trkpt>
      <trkpt lat="49.55714" lon="0.99549">
        <ele>118</ele>
        <time>2014-01-26T10:31:10Z</time>
      </trkpt>
      <trkpt lat="49.55696" lon="0.99529">
        <ele>118</ele>
        <time>2014-01-26T10:31:15Z</time>
      </trkpt>
      <trkpt lat="49.55683" lon="0.99509">
        <ele>118</ele>
        <time>2014-01-26T10:31:19Z</time>
      </trkpt>
      <trkpt lat="49.55668" lon="0.9949">
        <ele>118</ele>
        <time>2014-01-26T10:31:24Z</time>
      </trkpt>
      <trkpt lat="49.55651" lon="0.99508">
        <ele>117</ele>
        <time>2014-01-26T10:31:29Z</time>
      </trkpt>
      <trkpt lat="49.55637" lon="0.99532">
        <ele>116</ele>
        <time>2014-01-26T10:31:33Z</time>
      </trkpt>
      <trkpt lat="49.55622" lon="0.99558">
        <ele>116</ele>
        <time>2014-01-26T10:31:37Z</time>
      </trkpt>
      <trkpt lat="49.55609" lon="0.99579">
        <ele>115</ele>
        <time>2014-01-26T10:31:40Z</time>
      </trkpt>
      <trkpt lat="49.55594" lon="0.99604">
        <ele>115</ele>
        <time>2014-01-26T10:31:44Z</time>
      </trkpt>
      <trkpt lat="49.5558" lon="0.99625">
        <ele>113</ele>
        <time>2014-01-26T10:31:48Z</time>
      </trkpt>
      <trkpt lat="49.55563" lon="0.99647">
        <ele>113</ele>
        <time>2014-01-26T10:31:52Z</time>
      </trkpt>
      <trkpt lat="49.55546" lon="0.99661">
        <ele>113</ele>
        <time>2014-01-26T10:31:55Z</time>
      </trkpt>
      <trkpt lat="49.55527" lon="0.99667">
        <ele>111</ele>
        <time>2014-01-26T10:31:58Z</time>
      </trkpt>
      <trkpt lat="49.55508" lon="0.99666">
        <ele>112</ele>
        <time>2014-01-26T10:32:02Z</time>
      </trkpt>
      <trkpt lat="49.5549" lon="0.9965">
        <ele>110</ele>
        <time>2014-01-26T10:32:07Z</time>
      </trkpt>
      <trkpt lat="49.55472" lon="0.99637">
        <ele>110</ele>
        <time>2014-01-26T10:32:11Z</time>
      </trkpt>
      <trkpt lat="49.55453" lon="0.99625">
        <ele>109</ele>
        <time>2014-01-26T10:32:15Z</time>
      </trkpt>
      <trkpt lat="49.55434" lon="0.99622">
        <ele>109</ele>
        <time>2014-01-26T10:32:18Z</time>
      </trkpt>
      <trkpt lat="49.55413" lon="0.99619">
        <ele>104</ele>
        <time>2014-01-26T10:32:21Z</time>
      </trkpt>
      <trkpt lat="49.55392" lon="0.99613">
        <ele>104</ele>
        <time>2014-01-26T10:32:24Z</time>
      </trkpt>
      <trkpt lat="49.55369" lon="0.99607">
        <ele>102</ele>
        <time>2014-01-26T10:32:27Z</time>
      </trkpt>
      <trkpt lat="49.55349" lon="0.99602">
        <ele>102</ele>
        <time>2014-01-26T10:32:30Z</time>
      </trkpt>
      <trkpt lat="49.55326" lon="0.99595">
        <ele>99</ele>
        <time>2014-01-26T10:32:34Z</time>
      </trkpt>
      <trkpt lat="49.55305" lon="0.99589">
        <ele>97</ele>
        <time>2014-01-26T10:32:37Z</time>
      </trkpt>
      <trkpt lat="49.55281" lon="0.99584">
        <ele>96</ele>
        <time>2014-01-26T10:32:40Z</time>
      </trkpt>
      <trkpt lat="49.55259" lon="0.9958">
        <ele>95</ele>
        <time>2014-01-26T10:32:43Z</time>
      </trkpt>
      <trkpt lat="49.55237" lon="0.99576">
        <ele>94</ele>
        <time>2014-01-26T10:32:46Z</time>
      </trkpt>
      <trkpt lat="49.55216" lon="0.99573">
        <ele>95</ele>
        <time>2014-01-26T10:32:49Z</time>
      </trkpt>
      <trkpt lat="49.55194" lon="0.99569">
        <ele>94</ele>
        <time>2014-01-26T10:32:52Z</time>
      </trkpt>
      <trkpt lat="49.55173" lon="0.99565">
        <ele>93</ele>
        <time>2014-01-26T10:32:55Z</time>
      </trkpt>
      <trkpt lat="49.55153" lon="0.99567">
        <ele>92</ele>
        <time>2014-01-26T10:32:59Z</time>
      </trkpt>
      <trkpt lat="49.55135" lon="0.99581">
        <ele>93</ele>
        <time>2014-01-26T10:33:05Z</time>
      </trkpt>
      <trkpt lat="49.55121" lon="0.99601">
        <ele>91</ele>
        <time>2014-01-26T10:33:11Z</time>
      </trkpt>
      <trkpt lat="49.55113" lon="0.99629">
        <ele>91</ele>
        <time>2014-01-26T10:33:18Z</time>
      </trkpt>
      <trkpt lat="49.55108" lon="0.99659">
        <ele>90</ele>
        <time>2014-01-26T10:33:26Z</time>
      </trkpt>
      <trkpt lat="49.551" lon="0.99687">
        <ele>91</ele>
        <time>2014-01-26T10:33:33Z</time>
      </trkpt>
      <trkpt lat="49.55089" lon="0.9971">
        <ele>92</ele>
        <time>2014-01-26T10:33:40Z</time>
      </trkpt>
      <trkpt lat="49.55078" lon="0.99733">
        <ele>88</ele>
        <time>2014-01-26T10:33:47Z</time>
      </trkpt>
      <trkpt lat="49.55073" lon="0.99764">
        <ele>87</ele>
        <time>2014-01-26T10:33:54Z</time>
      </trkpt>
      <trkpt lat="49.55074" lon="0.99793">
        <ele>87</ele>
        <time>2014-01-26T10:34:00Z</time>
      </trkpt>
      <trkpt lat="49.55058" lon="0.99813">
        <ele>87</ele>
        <time>2014-01-26T10:34:13Z</time>
      </trkpt>
      <trkpt lat="49.55041" lon="0.99823">
        <ele>86</ele>
        <time>2014-01-26T10:34:19Z</time>
      </trkpt>
      <trkpt lat="49.5503" lon="0.99848">
        <ele>86</ele>
        <time>2014-01-26T10:34:26Z</time>
      </trkpt>
      <trkpt lat="49.55022" lon="0.99875">
        <ele>86</ele>
        <time>2014-01-26T10:34:33Z</time>
      </trkpt>
      <trkpt lat="49.55017" lon="0.99902">
        <ele>86</ele>
        <time>2014-01-26T10:34:39Z</time>
      </trkpt>
      <trkpt lat="49.55015" lon="0.99931">
        <ele>89</ele>
        <time>2014-01-26T10:34:45Z</time>
      </trkpt>
      <trkpt lat="49.5501" lon="0.99958">
        <ele>90</ele>
        <time>2014-01-26T10:34:52Z</time>
      </trkpt>
      <trkpt lat="49.55006" lon="0.99989">
        <ele>90</ele>
        <time>2014-01-26T10:35:00Z</time>
      </trkpt>
      <trkpt lat="49.54998" lon="1.00017">
        <ele>90</ele>
        <time>2014-01-26T10:35:08Z</time>
      </trkpt>
      <trkpt lat="49.54991" lon="1.00045">
        <ele>91</ele>
        <time>2014-01-26T10:35:14Z</time>
      </trkpt>
      <trkpt lat="49.5498" lon="1.00069">
        <ele>92</ele>
        <time>2014-01-26T10:35:22Z</time>
      </trkpt>
      <trkpt lat="49.54966" lon="1.00089">
        <ele>96</ele>
        <time>2014-01-26T10:35:30Z</time>
      </trkpt>
      <trkpt lat="49.54948" lon="1.00108">
        <ele>96</ele>
        <time>2014-01-26T10:35:38Z</time>
      </trkpt>
      <trkpt lat="49.54932" lon="1.00123">
        <ele>96</ele>
        <time>2014-01-26T10:35:44Z</time>
      </trkpt>
      <trkpt lat="49.54914" lon="1.00134">
        <ele>93</ele>
        <time>2014-01-26T10:35:51Z</time>
      </trkpt>
      <trkpt lat="49.54899" lon="1.00152">
        <ele>93</ele>
        <time>2014-01-26T10:36:02Z</time>
      </trkpt>
      <trkpt lat="49.54887" lon="1.00172">
        <ele>96</ele>
        <time>2014-01-26T10:36:11Z</time>
      </trkpt>
      <trkpt lat="49.54875" lon="1.00195">
        <ele>96</ele>
        <time>2014-01-26T10:36:19Z</time>
      </trkpt>
      <trkpt lat="49.54865" lon="1.00218">
        <ele>96</ele>
        <time>2014-01-26T10:36:26Z</time>
      </trkpt>
      <trkpt lat="49.54855" lon="1.00245">
        <ele>95</ele>
        <time>2014-01-26T10:36:35Z</time>
      </trkpt>
      <trkpt lat="49.54844" lon="1.00271">
        <ele>98</ele>
        <time>2014-01-26T10:36:44Z</time>
      </trkpt>
      <trkpt lat="49.54836" lon="1.003">
        <ele>100</ele>
        <time>2014-01-26T10:36:52Z</time>
      </trkpt>
      <trkpt lat="49.5483" lon="1.00329">
        <ele>98</ele>
        <time>2014-01-26T10:36:59Z</time>
      </trkpt>
      <trkpt lat="49.54827" lon="1.00358">
        <ele>98</ele>
        <time>2014-01-26T10:37:06Z</time>
      </trkpt>
      <trkpt lat="49.54824" lon="1.00388">
        <ele>99</ele>
        <time>2014-01-26T10:37:13Z</time>
      </trkpt>
      <trkpt lat="49.54828" lon="1.00419">
        <ele>102</ele>
        <time>2014-01-26T10:37:20Z</time>
      </trkpt>
      <trkpt lat="49.54825" lon="1.00446">
        <ele>101</ele>
        <time>2014-01-26T10:37:26Z</time>
      </trkpt>
      <trkpt lat="49.54816" lon="1.00472">
        <ele>102</ele>
        <time>2014-01-26T10:37:32Z</time>
      </trkpt>
      <trkpt lat="49.54805" lon="1.005">
        <ele>102</ele>
        <time>2014-01-26T10:37:39Z</time>
      </trkpt>
      <trkpt lat="49.54793" lon="1.00523">
        <ele>105</ele>
        <time>2014-01-26T10:37:46Z</time>
      </trkpt>
      <trkpt lat="49.54776" lon="1.00537">
        <ele>105</ele>
        <time>2014-01-26T10:37:53Z</time>
      </trkpt>
      <trkpt lat="49.54757" lon="1.00542">
        <ele>104</ele>
        <time>2014-01-26T10:38:08Z</time>
      </trkpt>
      <trkpt lat="49.54744" lon="1.00519">
        <ele>102</ele>
        <time>2014-01-26T10:38:17Z</time>
      </trkpt>
      <trkpt lat="49.54732" lon="1.00497">
        <ele>99</ele>
        <time>2014-01-26T10:38:33Z</time>
      </trkpt>
      <trkpt lat="49.54715" lon="1.00482">
        <ele>100</ele>
        <time>2014-01-26T10:38:44Z</time>
      </trkpt>
      <trkpt lat="49.54697" lon="1.00474">
        <ele>100</ele>
        <time>2014-01-26T10:38:56Z</time>
      </trkpt>
      <trkpt lat="49.54678" lon="1.00479">
        <ele>102</ele>
        <time>2014-01-26T10:39:09Z</time>
      </trkpt>
      <trkpt lat="49.54665" lon="1.005">
        <ele>105</ele>
        <time>2014-01-26T10:39:20Z</time>
      </trkpt>
      <trkpt lat="49.54655" lon="1.00524">
        <ele>106</ele>
        <time>2014-01-26T10:39:30Z</time>
      </trkpt>
      <trkpt lat="49.54645" lon="1.00549">
        <ele>106</ele>
        <time>2014-01-26T10:39:46Z</time>
      </trkpt>
      <trkpt lat="49.54641" lon="1.00577">
        <ele>107</ele>
        <time>2014-01-26T10:39:55Z</time>
      </trkpt>
      <trkpt lat="49.54634" lon="1.00603">
        <ele>110</ele>
        <time>2014-01-26T10:40:09Z</time>
      </trkpt>
      <trkpt lat="49.54619" lon="1.00624">
        <ele>111</ele>
        <time>2014-01-26T10:41:38Z</time>
      </trkpt>
      <trkpt lat="49.54611" lon="1.00649">
        <ele>112</ele>
        <time>2014-01-26T10:41:47Z</time>
      </trkpt>
      <trkpt lat="49.54602" lon="1.00675">
        <ele>115</ele>
        <time>2014-01-26T10:41:56Z</time>
      </trkpt>
      <trkpt lat="49.54592" lon="1.00702">
        <ele>116</ele>
        <time>2014-01-26T10:42:06Z</time>
      </trkpt>
      <trkpt lat="49.5458" lon="1.00723">
        <ele>116</ele>
        <time>2014-01-26T10:42:17Z</time>
      </trkpt>
      <trkpt lat="49.54564" lon="1.00738">
        <ele>116</ele>
        <time>2014-01-26T10:42:28Z</time>
      </trkpt>
      <trkpt lat="49.54547" lon="1.00749">
        <ele>115</ele>
        <time>2014-01-26T10:42:39Z</time>
      </trkpt>
      <trkpt lat="49.54531" lon="1.00763">
        <ele>117</ele>
        <time>2014-01-26T10:43:18Z</time>
      </trkpt>
      <trkpt lat="49.54514" lon="1.00775">
        <ele>116</ele>
        <time>2014-01-26T10:43:32Z</time>
      </trkpt>
      <trkpt lat="49.54506" lon="1.00802">
        <ele>117</ele>
        <time>2014-01-26T10:43:47Z</time>
      </trkpt>
      <trkpt lat="49.54495" lon="1.00825">
        <ele>116</ele>
        <time>2014-01-26T10:43:59Z</time>
      </trkpt>
      <trkpt lat="49.54491" lon="1.00852">
        <ele>116</ele>
        <time>2014-01-26T10:44:30Z</time>
      </trkpt>
      <trkpt lat="49.54487" lon="1.00879">
        <ele>116</ele>
        <time>2014-01-26T10:44:54Z</time>
      </trkpt>
      <trkpt lat="49.54482" lon="1.00911">
        <ele>117</ele>
        <time>2014-01-26T10:48:01Z</time>
      </trkpt>
      <trkpt lat="49.54475" lon="1.0094">
        <ele>118</ele>
        <time>2014-01-26T10:48:08Z</time>
      </trkpt>
      <trkpt lat="49.54469" lon="1.00968">
        <ele>119</ele>
        <time>2014-01-26T10:48:16Z</time>
      </trkpt>
      <trkpt lat="49.54466" lon="1.00996">
        <ele>119</ele>
        <time>2014-01-26T10:48:25Z</time>
      </trkpt>
      <trkpt lat="49.54464" lon="1.01026">
        <ele>120</ele>
        <time>2014-01-26T10:48:35Z</time>
      </trkpt>
      <trkpt lat="49.54461" lon="1.01057">
        <ele>120</ele>
        <time>2014-01-26T10:48:45Z</time>
      </trkpt>
      <trkpt lat="49.54463" lon="1.01087">
        <ele>121</ele>
        <time>2014-01-26T10:48:54Z</time>
      </trkpt>
      <trkpt lat="49.54467" lon="1.01117">
        <ele>121</ele>
        <time>2014-01-26T10:49:03Z</time>
      </trkpt>
      <trkpt lat="49.54468" lon="1.01146">
        <ele>121</ele>
        <time>2014-01-26T10:49:11Z</time>
      </trkpt>
      <trkpt lat="49.5447" lon="1.01175">
        <ele>121</ele>
        <time>2014-01-26T10:49:19Z</time>
      </trkpt>
      <trkpt lat="49.54472" lon="1.01204">
        <ele>121</ele>
        <time>2014-01-26T10:49:28Z</time>
      </trkpt>
      <trkpt lat="49.54468" lon="1.01232">
        <ele>121</ele>
        <time>2014-01-26T10:49:36Z</time>
      </trkpt>
      <trkpt lat="49.54467" lon="1.0126">
        <ele>122</ele>
        <time>2014-01-26T10:49:43Z</time>
      </trkpt>
      <trkpt lat="49.54469" lon="1.0129">
        <ele>122</ele>
        <time>2014-01-26T10:49:52Z</time>
      </trkpt>
      <trkpt lat="49.54471" lon="1.01321">
        <ele>123</ele>
        <time>2014-01-26T10:50:01Z</time>
      </trkpt>
      <trkpt lat="49.54474" lon="1.01351">
        <ele>124</ele>
        <time>2014-01-26T10:50:10Z</time>
      </trkpt>
      <trkpt lat="49.54476" lon="1.0138">
        <ele>124</ele>
        <time>2014-01-26T10:50:18Z</time>
      </trkpt>
      <trkpt lat="49.54476" lon="1.0141">
        <ele>125</ele>
        <time>2014-01-26T10:50:25Z</time>
      </trkpt>
      <trkpt lat="49.54477" lon="1.01439">
        <ele>125</ele>
        <time>2014-01-26T10:50:32Z</time>
      </trkpt>
      <trkpt lat="49.54483" lon="1.01466">
        <ele>124</ele>
        <time>2014-01-26T10:50:40Z</time>
      </trkpt>
      <trkpt lat="49.54485" lon="1.01496">
        <ele>124</ele>
        <time>2014-01-26T10:50:47Z</time>
      </trkpt>
      <trkpt lat="49.54493" lon="1.01524">
        <ele>122</ele>
        <time>2014-01-26T10:50:54Z</time>
      </trkpt>
      <trkpt lat="49.54505" lon="1.0155">
        <ele>122</ele>
        <time>2014-01-26T10:51:08Z</time>
      </trkpt>
      <trkpt lat="49.54514" lon="1.01574">
        <ele>121</ele>
        <time>2014-01-26T10:51:17Z</time>
      </trkpt>
      <trkpt lat="49.54516" lon="1.01602">
        <ele>119</ele>
        <time>2014-01-26T10:51:30Z</time>
      </trkpt>
      <trkpt lat="49.54499" lon="1.01615">
        <ele>118</ele>
        <time>2014-01-26T10:51:38Z</time>
      </trkpt>
      <trkpt lat="49.5448" lon="1.01626">
        <ele>118</ele>
        <time>2014-01-26T10:51:46Z</time>
      </trkpt>
      <trkpt lat="49.54463" lon="1.01638">
        <ele>117</ele>
        <time>2014-01-26T10:51:53Z</time>
      </trkpt>
      <trkpt lat="49.54444" lon="1.0165">
        <ele>117</ele>
        <time>2014-01-26T10:52:01Z</time>
      </trkpt>
      <trkpt lat="49.54426" lon="1.01662">
        <ele>117</ele>
        <time>2014-01-26T10:52:09Z</time>
      </trkpt>
      <trkpt lat="49.54408" lon="1.01674">
        <ele>118</ele>
        <time>2014-01-26T10:52:17Z</time>
      </trkpt>
      <trkpt lat="49.5439" lon="1.01687">
        <ele>120</ele>
        <time>2014-01-26T10:52:25Z</time>
      </trkpt>
      <trkpt lat="49.54373" lon="1.01697">
        <ele>120</ele>
        <time>2014-01-26T10:52:32Z</time>
      </trkpt>
      <trkpt lat="49.54355" lon="1.01708">
        <ele>121</ele>
        <time>2014-01-26T10:52:40Z</time>
      </trkpt>
      <trkpt lat="49.54338" lon="1.01717">
        <ele>121</ele>
        <time>2014-01-26T10:52:50Z</time>
      </trkpt>
      <trkpt lat="49.54334" lon="1.0169">
        <ele>121</ele>
        <time>2014-01-26T10:53:02Z</time>
      </trkpt>
      <trkpt lat="49.54327" lon="1.01662">
        <ele>121</ele>
        <time>2014-01-26T10:53:12Z</time>
      </trkpt>
      <trkpt lat="49.54321" lon="1.01633">
        <ele>122</ele>
        <time>2014-01-26T10:53:21Z</time>
      </trkpt>
      <trkpt lat="49.54315" lon="1.01605">
        <ele>122</ele>
        <time>2014-01-26T10:53:28Z</time>
      </trkpt>
      <trkpt lat="49.54308" lon="1.01579">
        <ele>122</ele>
        <time>2014-01-26T10:53:35Z</time>
      </trkpt>
      <trkpt lat="49.54303" lon="1.01551">
        <ele>122</ele>
        <time>2014-01-26T10:53:43Z</time>
      </trkpt>
      <trkpt lat="49.54298" lon="1.01522">
        <ele>122</ele>
        <time>2014-01-26T10:53:50Z</time>
      </trkpt>
      <trkpt lat="49.54292" lon="1.01492">
        <ele>122</ele>
        <time>2014-01-26T10:53:57Z</time>
      </trkpt>
      <trkpt lat="49.54286" lon="1.01461">
        <ele>122</ele>
        <time>2014-01-26T10:54:04Z</time>
      </trkpt>
      <trkpt lat="49.54282" lon="1.0143">
        <ele>122</ele>
        <time>2014-01-26T10:54:10Z</time>
      </trkpt>
      <trkpt lat="49.54277" lon="1.01399">
        <ele>121</ele>
        <time>2014-01-26T10:54:16Z</time>
      </trkpt>
      <trkpt lat="49.54272" lon="1.01367">
        <ele>121</ele>
        <time>2014-01-26T10:54:22Z</time>
      </trkpt>
      <trkpt lat="49.54268" lon="1.01337">
        <ele>121</ele>
        <time>2014-01-26T10:54:27Z</time>
      </trkpt>
      <trkpt lat="49.54267" lon="1.01307">
        <ele>120</ele>
        <time>2014-01-26T10:54:32Z</time>
      </trkpt>
      <trkpt lat="49.54266" lon="1.01275">
        <ele>120</ele>
        <time>2014-01-26T10:54:37Z</time>
      </trkpt>
      <trkpt lat="49.54262" lon="1.01244">
        <ele>121</ele>
        <time>2014-01-26T10:54:42Z</time>
      </trkpt>
      <trkpt lat="49.54247" lon="1.01219">
        <ele>122</ele>
        <time>2014-01-26T10:54:47Z</time>
      </trkpt>
      <trkpt lat="49.54229" lon="1.012">
        <ele>122</ele>
        <time>2014-01-26T10:54:52Z</time>
      </trkpt>
      <trkpt lat="49.54215" lon="1.01184">
        <ele>123</ele>
        <time>2014-01-26T10:54:56Z</time>
      </trkpt>
      <trkpt lat="49.54199" lon="1.01166">
        <ele>123</ele>
        <time>2014-01-26T10:55:00Z</time>
      </trkpt>
      <trkpt lat="49.54184" lon="1.01147">
        <ele>123</ele>
        <time>2014-01-26T10:55:04Z</time>
      </trkpt>
      <trkpt lat="49.54169" lon="1.01129">
        <ele>123</ele>
        <time>2014-01-26T10:55:08Z</time>
      </trkpt>
      <trkpt lat="49.54154" lon="1.01108">
        <ele>123</ele>
        <time>2014-01-26T10:55:13Z</time>
      </trkpt>
      <trkpt lat="49.54138" lon="1.01087">
        <ele>123</ele>
        <time>2014-01-26T10:55:18Z</time>
      </trkpt>
      <trkpt lat="49.54123" lon="1.01068">
        <ele>123</ele>
        <time>2014-01-26T10:55:22Z</time>
      </trkpt>
      <trkpt lat="49.54106" lon="1.01046">
        <ele>123</ele>
        <time>2014-01-26T10:55:27Z</time>
      </trkpt>
      <trkpt lat="49.54092" lon="1.01026">
        <ele>123</ele>
        <time>2014-01-26T10:55:31Z</time>
      </trkpt>
      <trkpt lat="49.54077" lon="1.01004">
        <ele>122</ele>
        <time>2014-01-26T10:55:35Z</time>
      </trkpt>
      <trkpt lat="49.54063" lon="1.00983">
        <ele>122</ele>
        <time>2014-01-26T10:55:39Z</time>
      </trkpt>
      <trkpt lat="49.54048" lon="1.0096">
        <ele>121</ele>
        <time>2014-01-26T10:55:44Z</time>
      </trkpt>
      <trkpt lat="49.54034" lon="1.00937">
        <ele>121</ele>
        <time>2014-01-26T10:55:49Z</time>
      </trkpt>
      <trkpt lat="49.54021" lon="1.00914">
        <ele>121</ele>
        <time>2014-01-26T10:55:54Z</time>
      </trkpt>
      <trkpt lat="49.54008" lon="1.00891">
        <ele>121</ele>
        <time>2014-01-26T10:56:00Z</time>
      </trkpt>
      <trkpt lat="49.53995" lon="1.00866">
        <ele>120</ele>
        <time>2014-01-26T10:56:07Z</time>
      </trkpt>
      <trkpt lat="49.53985" lon="1.00842">
        <ele>119</ele>
        <time>2014-01-26T10:56:13Z</time>
      </trkpt>
      <trkpt lat="49.53975" lon="1.00817">
        <ele>119</ele>
        <time>2014-01-26T10:56:18Z</time>
      </trkpt>
      <trkpt lat="49.53964" lon="1.00789">
        <ele>119</ele>
        <time>2014-01-26T10:56:23Z</time>
      </trkpt>
      <trkpt lat="49.53954" lon="1.0076">
        <ele>119</ele>
        <time>2014-01-26T10:56:28Z</time>
      </trkpt>
      <trkpt lat="49.53943" lon="1.0073">
        <ele>118</ele>
        <time>2014-01-26T10:56:33Z</time>
      </trkpt>
      <trkpt lat="49.53933" lon="1.00702">
        <ele>118</ele>
        <time>2014-01-26T10:56:38Z</time>
      </trkpt>
      <trkpt lat="49.53922" lon="1.00676">
        <ele>117</ele>
        <time>2014-01-26T10:56:43Z</time>
      </trkpt>
      <trkpt lat="49.53912" lon="1.00648">
        <ele>116</ele>
        <time>2014-01-26T10:56:48Z</time>
      </trkpt>
      <trkpt lat="49.53901" lon="1.00618">
        <ele>116</ele>
        <time>2014-01-26T10:56:53Z</time>
      </trkpt>
      <trkpt lat="49.53893" lon="1.00594">
        <ele>116</ele>
        <time>2014-01-26T10:56:57Z</time>
      </trkpt>
      <trkpt lat="49.53885" lon="1.00568">
        <ele>115</ele>
        <time>2014-01-26T10:57:01Z</time>
      </trkpt>
      <trkpt lat="49.53877" lon="1.00543">
        <ele>115</ele>
        <time>2014-01-26T10:57:10Z</time>
      </trkpt>
      <trkpt lat="49.53868" lon="1.00515">
        <ele>114</ele>
        <time>2014-01-26T10:57:20Z</time>
      </trkpt>
      <trkpt lat="49.5386" lon="1.00488">
        <ele>113</ele>
        <time>2014-01-26T10:57:29Z</time>
      </trkpt>
      <trkpt lat="49.53852" lon="1.00462">
        <ele>113</ele>
        <time>2014-01-26T10:57:35Z</time>
      </trkpt>
      <trkpt lat="49.53844" lon="1.00435">
        <ele>113</ele>
        <time>2014-01-26T10:57:42Z</time>
      </trkpt>
      <trkpt lat="49.53836" lon="1.0041">
        <ele>112</ele>
        <time>2014-01-26T10:57:48Z</time>
      </trkpt>
      <trkpt lat="49.53828" lon="1.0038">
        <ele>111</ele>
        <time>2014-01-26T10:57:55Z</time>
      </trkpt>
      <trkpt lat="49.5382" lon="1.00352">
        <ele>110</ele>
        <time>2014-01-26T10:58:01Z</time>
      </trkpt>
      <trkpt lat="49.5381" lon="1.00326">
        <ele>108</ele>
        <time>2014-01-26T10:58:08Z</time>
      </trkpt>
      <trkpt lat="49.53801" lon="1.003">
        <ele>107</ele>
        <time>2014-01-26T10:58:14Z</time>
      </trkpt>
      <trkpt lat="49.53792" lon="1.0027">
        <ele>106</ele>
        <time>2014-01-26T10:58:20Z</time>
      </trkpt>
      <trkpt lat="49.53785" lon="1.00244">
        <ele>103</ele>
        <time>2014-01-26T10:58:24Z</time>
      </trkpt>
      <trkpt lat="49.53794" lon="1.00216">
        <ele>103</ele>
        <time>2014-01-26T10:58:31Z</time>
      </trkpt>
      <trkpt lat="49.53812" lon="1.00199">
        <ele>103</ele>
        <time>2014-01-26T10:58:37Z</time>
      </trkpt>
      <trkpt lat="49.53823" lon="1.00176">
        <ele>103</ele>
        <time>2014-01-26T10:58:42Z</time>
      </trkpt>
      <trkpt lat="49.53831" lon="1.0015">
        <ele>102</ele>
        <time>2014-01-26T10:58:48Z</time>
      </trkpt>
      <trkpt lat="49.53842" lon="1.00124">
        <ele>103</ele>
        <time>2014-01-26T10:58:53Z</time>
      </trkpt>
      <trkpt lat="49.53855" lon="1.00105">
        <ele>103</ele>
        <time>2014-01-26T10:58:57Z</time>
      </trkpt>
      <trkpt lat="49.53869" lon="1.00085">
        <ele>103</ele>
        <time>2014-01-26T10:59:01Z</time>
      </trkpt>
      <trkpt lat="49.53887" lon="1.00065">
        <ele>103</ele>
        <time>2014-01-26T10:59:06Z</time>
      </trkpt>
      <trkpt lat="49.53906" lon="1.00053">
        <ele>103</ele>
        <time>2014-01-26T10:59:11Z</time>
      </trkpt>
      <trkpt lat="49.53923" lon="1.00041">
        <ele>106</ele>
        <time>2014-01-26T10:59:17Z</time>
      </trkpt>
      <trkpt lat="49.5394" lon="1.00027">
        <ele>106</ele>
        <time>2014-01-26T10:59:24Z</time>
      </trkpt>
      <trkpt lat="49.53956" lon="1.00012">
        <ele>106</ele>
        <time>2014-01-26T10:59:30Z</time>
      </trkpt>
      <trkpt lat="49.53973" lon="0.99998">
        <ele>106</ele>
        <time>2014-01-26T10:59:36Z</time>
      </trkpt>
      <trkpt lat="49.53991" lon="0.99983">
        <ele>106</ele>
        <time>2014-01-26T10:59:42Z</time>
      </trkpt>
      <trkpt lat="49.54007" lon="0.99967">
        <ele>107</ele>
        <time>2014-01-26T10:59:48Z</time>
      </trkpt>
      <trkpt lat="49.54023" lon="0.99952">
        <ele>107</ele>
        <time>2014-01-26T10:59:53Z</time>
      </trkpt>
      <trkpt lat="49.54039" lon="0.99935">
        <ele>107</ele>
        <time>2014-01-26T10:59:58Z</time>
      </trkpt>
      <trkpt lat="49.54056" lon="0.99911">
        <ele>106</ele>
        <time>2014-01-26T11:00:02Z</time>
      </trkpt>
      <trkpt lat="49.54066" lon="0.99884">
        <ele>106</ele>
        <time>2014-01-26T11:00:06Z</time>
      </trkpt>
      <trkpt lat="49.54075" lon="0.99853">
        <ele>105</ele>
        <time>2014-01-26T11:00:11Z</time>
      </trkpt>
      <trkpt lat="49.54081" lon="0.99821">
        <ele>105</ele>
        <time>2014-01-26T11:00:16Z</time>
      </trkpt>
      <trkpt lat="49.54085" lon="0.99794">
        <ele>105</ele>
        <time>2014-01-26T11:00:21Z</time>
      </trkpt>
      <trkpt lat="49.5409" lon="0.99764">
        <ele>105</ele>
        <time>2014-01-26T11:00:26Z</time>
      </trkpt>
      <trkpt lat="49.5409" lon="0.99732">
        <ele>105</ele>
        <time>2014-01-26T11:00:31Z</time>
      </trkpt>
      <trkpt lat="49.54081" lon="0.99706">
        <ele>104</ele>
        <time>2014-01-26T11:00:37Z</time>
      </trkpt>
      <trkpt lat="49.54072" lon="0.99681">
        <ele>104</ele>
        <time>2014-01-26T11:00:43Z</time>
      </trkpt>
      <trkpt lat="49.54067" lon="0.99652">
        <ele>104</ele>
        <time>2014-01-26T11:00:49Z</time>
      </trkpt>
      <trkpt lat="49.54066" lon="0.99618">
        <ele>103</ele>
        <time>2014-01-26T11:00:55Z</time>
      </trkpt>
      <trkpt lat="49.54073" lon="0.99592">
        <ele>105</ele>
        <time>2014-01-26T11:01:00Z</time>
      </trkpt>
      <trkpt lat="49.54082" lon="0.99562">
        <ele>104</ele>
        <time>2014-01-26T11:01:06Z</time>
      </trkpt>
      <trkpt lat="49.54091" lon="0.99535">
        <ele>109</ele>
        <time>2014-01-26T11:01:12Z</time>
      </trkpt>
      <trkpt lat="49.541" lon="0.99507">
        <ele>110</ele>
        <time>2014-01-26T11:01:18Z</time>
      </trkpt>
      <trkpt lat="49.54108" lon="0.9948">
        <ele>109</ele>
        <time>2014-01-26T11:01:24Z</time>
      </trkpt>
      <trkpt lat="49.54116" lon="0.99454">
        <ele>109</ele>
        <time>2014-01-26T11:01:30Z</time>
      </trkpt>
      <trkpt lat="49.54124" lon="0.99428">
        <ele>109</ele>
        <time>2014-01-26T11:01:36Z</time>
      </trkpt>
      <trkpt lat="49.54132" lon="0.99402">
        <ele>108</ele>
        <time>2014-01-26T11:01:43Z</time>
      </trkpt>
      <trkpt lat="49.54125" lon="0.99431">
        <ele>109</ele>
        <time>2014-01-26T11:03:26Z</time>
      </trkpt>
      <trkpt lat="49.54115" lon="0.99459">
        <ele>109</ele>
        <time>2014-01-26T11:03:31Z</time>
      </trkpt>
      <trkpt lat="49.54107" lon="0.99484">
        <ele>109</ele>
        <time>2014-01-26T11:03:35Z</time>
      </trkpt>
      <trkpt lat="49.54097" lon="0.99514">
        <ele>109</ele>
        <time>2014-01-26T11:03:40Z</time>
      </trkpt>
      <trkpt lat="49.54087" lon="0.99543">
        <ele>109</ele>
        <time>2014-01-26T11:03:45Z</time>
      </trkpt>
      <trkpt lat="49.54079" lon="0.99568">
        <ele>105</ele>
        <time>2014-01-26T11:03:49Z</time>
      </trkpt>
      <trkpt lat="49.54071" lon="0.99594">
        <ele>105</ele>
        <time>2014-01-26T11:03:53Z</time>
      </trkpt>
      <trkpt lat="49.54065" lon="0.99626">
        <ele>103</ele>
        <time>2014-01-26T11:03:57Z</time>
      </trkpt>
      <trkpt lat="49.54066" lon="0.99655">
        <ele>104</ele>
        <time>2014-01-26T11:04:00Z</time>
      </trkpt>
      <trkpt lat="49.54073" lon="0.99684">
        <ele>104</ele>
        <time>2014-01-26T11:04:03Z</time>
      </trkpt>
      <trkpt lat="49.54081" lon="0.99714">
        <ele>104</ele>
        <time>2014-01-26T11:04:06Z</time>
      </trkpt>
      <trkpt lat="49.54087" lon="0.99749">
        <ele>104</ele>
        <time>2014-01-26T11:04:09Z</time>
      </trkpt>
      <trkpt lat="49.54085" lon="0.99783">
        <ele>105</ele>
        <time>2014-01-26T11:04:12Z</time>
      </trkpt>
      <trkpt lat="49.5408" lon="0.99812">
        <ele>105</ele>
        <time>2014-01-26T11:04:15Z</time>
      </trkpt>
      <trkpt lat="49.54074" lon="0.99842">
        <ele>105</ele>
        <time>2014-01-26T11:04:18Z</time>
      </trkpt>
      <trkpt lat="49.54068" lon="0.99869">
        <ele>106</ele>
        <time>2014-01-26T11:04:21Z</time>
      </trkpt>
      <trkpt lat="49.54061" lon="0.99896">
        <ele>106</ele>
        <time>2014-01-26T11:04:24Z</time>
      </trkpt>
      <trkpt lat="49.54049" lon="0.99926">
        <ele>107</ele>
        <time>2014-01-26T11:04:28Z</time>
      </trkpt>
      <trkpt lat="49.54031" lon="0.99948">
        <ele>107</ele>
        <time>2014-01-26T11:04:32Z</time>
      </trkpt>
      <trkpt lat="49.54015" lon="0.99963">
        <ele>107</ele>
        <time>2014-01-26T11:04:35Z</time>
      </trkpt>
      <trkpt lat="49.53996" lon="0.9998">
        <ele>106</ele>
        <time>2014-01-26T11:04:39Z</time>
      </trkpt>
      <trkpt lat="49.53974" lon="0.99999">
        <ele>106</ele>
        <time>2014-01-26T11:04:43Z</time>
      </trkpt>
      <trkpt lat="49.53952" lon="1.00019">
        <ele>106</ele>
        <time>2014-01-26T11:04:46Z</time>
      </trkpt>
      <trkpt lat="49.5393" lon="1.0004">
        <ele>106</ele>
        <time>2014-01-26T11:04:49Z</time>
      </trkpt>
      <trkpt lat="49.53913" lon="1.00054">
        <ele>104</ele>
        <time>2014-01-26T11:04:51Z</time>
      </trkpt>
      <trkpt lat="49.53891" lon="1.00069">
        <ele>103</ele>
        <time>2014-01-26T11:04:54Z</time>
      </trkpt>
      <trkpt lat="49.53872" lon="1.00084">
        <ele>104</ele>
        <time>2014-01-26T11:04:57Z</time>
      </trkpt>
      <trkpt lat="49.53855" lon="1.00106">
        <ele>103</ele>
        <time>2014-01-26T11:05:01Z</time>
      </trkpt>
      <trkpt lat="49.53839" lon="1.00129">
        <ele>103</ele>
        <time>2014-01-26T11:05:06Z</time>
      </trkpt>
      <trkpt lat="49.53826" lon="1.00151">
        <ele>102</ele>
        <time>2014-01-26T11:05:12Z</time>
      </trkpt>
      <trkpt lat="49.53817" lon="1.00176">
        <ele>103</ele>
        <time>2014-01-26T11:05:17Z</time>
      </trkpt>
      <trkpt lat="49.53805" lon="1.00205">
        <ele>103</ele>
        <time>2014-01-26T11:05:22Z</time>
      </trkpt>
      <trkpt lat="49.53789" lon="1.00223">
        <ele>103</ele>
        <time>2014-01-26T11:05:26Z</time>
      </trkpt>
      <trkpt lat="49.53771" lon="1.00209">
        <ele>102</ele>
        <time>2014-01-26T11:05:30Z</time>
      </trkpt>
      <trkpt lat="49.53763" lon="1.00178">
        <ele>101</ele>
        <time>2014-01-26T11:05:34Z</time>
      </trkpt>
      <trkpt lat="49.53755" lon="1.0015">
        <ele>100</ele>
        <time>2014-01-26T11:05:38Z</time>
      </trkpt>
      <trkpt lat="49.53746" lon="1.00123">
        <ele>101</ele>
        <time>2014-01-26T11:05:42Z</time>
      </trkpt>
      <trkpt lat="49.53738" lon="1.00098">
        <ele>102</ele>
        <time>2014-01-26T11:05:46Z</time>
      </trkpt>
      <trkpt lat="49.53728" lon="1.00071">
        <ele>103</ele>
        <time>2014-01-26T11:05:51Z</time>
      </trkpt>
      <trkpt lat="49.53718" lon="1.00044">
        <ele>104</ele>
        <time>2014-01-26T11:05:57Z</time>
      </trkpt>
      <trkpt lat="49.53704" lon="1.00021">
        <ele>104</ele>
        <time>2014-01-26T11:06:03Z</time>
      </trkpt>
      <trkpt lat="49.53689" lon="0.99999">
        <ele>105</ele>
        <time>2014-01-26T11:06:08Z</time>
      </trkpt>
      <trkpt lat="49.53675" lon="0.99978">
        <ele>105</ele>
        <time>2014-01-26T11:06:13Z</time>
      </trkpt>
      <trkpt lat="49.53662" lon="0.99959">
        <ele>106</ele>
        <time>2014-01-26T11:06:18Z</time>
      </trkpt>
      <trkpt lat="49.53647" lon="0.99938">
        <ele>106</ele>
        <time>2014-01-26T11:06:24Z</time>
      </trkpt>
      <trkpt lat="49.53634" lon="0.99917">
        <ele>107</ele>
        <time>2014-01-26T11:06:30Z</time>
      </trkpt>
      <trkpt lat="49.5362" lon="0.99896">
        <ele>107</ele>
        <time>2014-01-26T11:06:36Z</time>
      </trkpt>
      <trkpt lat="49.53605" lon="0.99876">
        <ele>107</ele>
        <time>2014-01-26T11:06:42Z</time>
      </trkpt>
      <trkpt lat="49.5359" lon="0.99856">
        <ele>107</ele>
        <time>2014-01-26T11:06:48Z</time>
      </trkpt>
      <trkpt lat="49.53574" lon="0.99838">
        <ele>108</ele>
        <time>2014-01-26T11:06:54Z</time>
      </trkpt>
      <trkpt lat="49.53558" lon="0.99819">
        <ele>109</ele>
        <time>2014-01-26T11:07:00Z</time>
      </trkpt>
      <trkpt lat="49.53542" lon="0.998">
        <ele>110</ele>
        <time>2014-01-26T11:07:06Z</time>
      </trkpt>
      <trkpt lat="49.53526" lon="0.99782">
        <ele>110</ele>
        <time>2014-01-26T11:07:12Z</time>
      </trkpt>
      <trkpt lat="49.5351" lon="0.99763">
        <ele>110</ele>
        <time>2014-01-26T11:07:18Z</time>
      </trkpt>
      <trkpt lat="49.53494" lon="0.99744">
        <ele>112</ele>
        <time>2014-01-26T11:07:24Z</time>
      </trkpt>
      <trkpt lat="49.53477" lon="0.99724">
        <ele>112</ele>
        <time>2014-01-26T11:07:30Z</time>
      </trkpt>
      <trkpt lat="49.53461" lon="0.99705">
        <ele>113</ele>
        <time>2014-01-26T11:07:36Z</time>
      </trkpt>
      <trkpt lat="49.53446" lon="0.99687">
        <ele>113</ele>
        <time>2014-01-26T11:07:41Z</time>
      </trkpt>
      <trkpt lat="49.53431" lon="0.9967">
        <ele>113</ele>
        <time>2014-01-26T11:07:46Z</time>
      </trkpt>
      <trkpt lat="49.53416" lon="0.99654">
        <ele>114</ele>
        <time>2014-01-26T11:07:51Z</time>
      </trkpt>
      <trkpt lat="49.534" lon="0.99637">
        <ele>115</ele>
        <time>2014-01-26T11:07:57Z</time>
      </trkpt>
      <trkpt lat="49.53384" lon="0.99621">
        <ele>115</ele>
        <time>2014-01-26T11:08:03Z</time>
      </trkpt>
      <trkpt lat="49.53397" lon="0.99641">
        <ele>115</ele>
        <time>2014-01-26T11:08:11Z</time>
      </trkpt>
      <trkpt lat="49.53414" lon="0.99654">
        <ele>114</ele>
        <time>2014-01-26T11:08:16Z</time>
      </trkpt>
      <trkpt lat="49.53397" lon="0.99635">
        <ele>115</ele>
        <time>2014-01-26T11:08:23Z</time>
      </trkpt>
      <trkpt lat="49.5338" lon="0.9962">
        <ele>115</ele>
        <time>2014-01-26T11:08:30Z</time>
      </trkpt>
      <trkpt lat="49.53362" lon="0.99608">
        <ele>116</ele>
        <time>2014-01-26T11:08:37Z</time>
      </trkpt>
      <trkpt lat="49.53344" lon="0.99598">
        <ele>116</ele>
        <time>2014-01-26T11:08:43Z</time>
      </trkpt>
      <trkpt lat="49.53324" lon="0.9959">
        <ele>118</ele>
        <time>2014-01-26T11:08:50Z</time>
      </trkpt>
      <trkpt lat="49.53307" lon="0.9958">
        <ele>118</ele>
        <time>2014-01-26T11:08:56Z</time>
      </trkpt>
      <trkpt lat="49.5329" lon="0.99565">
        <ele>119</ele>
        <time>2014-01-26T11:09:02Z</time>
      </trkpt>
      <trkpt lat="49.53273" lon="0.99547">
        <ele>119</ele>
        <time>2014-01-26T11:09:08Z</time>
      </trkpt>
      <trkpt lat="49.53256" lon="0.99529">
        <ele>119</ele>
        <time>2014-01-26T11:09:14Z</time>
      </trkpt>
      <trkpt lat="49.53239" lon="0.99511">
        <ele>121</ele>
        <time>2014-01-26T11:09:21Z</time>
      </trkpt>
      <trkpt lat="49.53224" lon="0.9949">
        <ele>122</ele>
        <time>2014-01-26T11:09:28Z</time>
      </trkpt>
      <trkpt lat="49.53209" lon="0.99472">
        <ele>122</ele>
        <time>2014-01-26T11:09:34Z</time>
      </trkpt>
      <trkpt lat="49.53191" lon="0.99453">
        <ele>123</ele>
        <time>2014-01-26T11:09:40Z</time>
      </trkpt>
      <trkpt lat="49.53177" lon="0.99436">
        <ele>123</ele>
        <time>2014-01-26T11:09:46Z</time>
      </trkpt>
      <trkpt lat="49.53161" lon="0.99417">
        <ele>124</ele>
        <time>2014-01-26T11:09:53Z</time>
      </trkpt>
      <trkpt lat="49.53146" lon="0.994">
        <ele>125</ele>
        <time>2014-01-26T11:09:59Z</time>
      </trkpt>
      <trkpt lat="49.53132" lon="0.99383">
        <ele>126</ele>
        <time>2014-01-26T11:10:05Z</time>
      </trkpt>
      <trkpt lat="49.53117" lon="0.99364">
        <ele>126</ele>
        <time>2014-01-26T11:10:12Z</time>
      </trkpt>
      <trkpt lat="49.53103" lon="0.99342">
        <ele>127</ele>
        <time>2014-01-26T11:10:19Z</time>
      </trkpt>
      <trkpt lat="49.53098" lon="0.99312">
        <ele>127</ele>
        <time>2014-01-26T11:10:26Z</time>
      </trkpt>
      <trkpt lat="49.53099" lon="0.99283">
        <ele>127</ele>
        <time>2014-01-26T11:10:33Z</time>
      </trkpt>
      <trkpt lat="49.53098" lon="0.99251">
        <ele>127</ele>
        <time>2014-01-26T11:10:40Z</time>
      </trkpt>
      <trkpt lat="49.531" lon="0.99217">
        <ele>128</ele>
        <time>2014-01-26T11:10:46Z</time>
      </trkpt>
      <trkpt lat="49.53101" lon="0.99187">
        <ele>128</ele>
        <time>2014-01-26T11:10:51Z</time>
      </trkpt>
      <trkpt lat="49.531" lon="0.99155">
        <ele>128</ele>
        <time>2014-01-26T11:10:56Z</time>
      </trkpt>
      <trkpt lat="49.53095" lon="0.99125">
        <ele>128</ele>
        <time>2014-01-26T11:11:01Z</time>
      </trkpt>
      <trkpt lat="49.53092" lon="0.99094">
        <ele>128</ele>
        <time>2014-01-26T11:11:07Z</time>
      </trkpt>
      <trkpt lat="49.53091" lon="0.99062">
        <ele>128</ele>
        <time>2014-01-26T11:11:13Z</time>
      </trkpt>
      <trkpt lat="49.53094" lon="0.99032">
        <ele>128</ele>
        <time>2014-01-26T11:11:18Z</time>
      </trkpt>
      <trkpt lat="49.53092" lon="0.99001">
        <ele>128</ele>
        <time>2014-01-26T11:11:23Z</time>
      </trkpt>
      <trkpt lat="49.53084" lon="0.98969">
        <ele>127</ele>
        <time>2014-01-26T11:11:28Z</time>
      </trkpt>
      <trkpt lat="49.53076" lon="0.98944">
        <ele>128</ele>
        <time>2014-01-26T11:11:32Z</time>
      </trkpt>
      <trkpt lat="49.53076" lon="0.98911">
        <ele>127</ele>
        <time>2014-01-26T11:11:37Z</time>
      </trkpt>
      <trkpt lat="49.53086" lon="0.98881">
        <ele>126</ele>
        <time>2014-01-26T11:11:42Z</time>
      </trkpt>
      <trkpt lat="49.53097" lon="0.98855">
        <ele>126</ele>
        <time>2014-01-26T11:11:46Z</time>
      </trkpt>
      <trkpt lat="49.53108" lon="0.98829">
        <ele>125</ele>
        <time>2014-01-26T11:11:50Z</time>
      </trkpt>
      <trkpt lat="49.53116" lon="0.98798">
        <ele>125</ele>
        <time>2014-01-26T11:11:54Z</time>
      </trkpt>
      <trkpt lat="49.53115" lon="0.98762">
        <ele>125</ele>
        <time>2014-01-26T11:11:58Z</time>
      </trkpt>
      <trkpt lat="49.5311" lon="0.98727">
        <ele>124</ele>
        <time>2014-01-26T11:12:02Z</time>
      </trkpt>
      <trkpt lat="49.5311" lon="0.98692">
        <ele>124</ele>
        <time>2014-01-26T11:12:06Z</time>
      </trkpt>
      <trkpt lat="49.53116" lon="0.98659">
        <ele>123</ele>
        <time>2014-01-26T11:12:10Z</time>
      </trkpt>
      <trkpt lat="49.53123" lon="0.98625">
        <ele>123</ele>
        <time>2014-01-26T11:12:14Z</time>
      </trkpt>
      <trkpt lat="49.53126" lon="0.9859">
        <ele>123</ele>
        <time>2014-01-26T11:12:18Z</time>
      </trkpt>
      <trkpt lat="49.53128" lon="0.98555">
        <ele>123</ele>
        <time>2014-01-26T11:12:22Z</time>
      </trkpt>
      <trkpt lat="49.53129" lon="0.98525">
        <ele>123</ele>
        <time>2014-01-26T11:12:26Z</time>
      </trkpt>
      <trkpt lat="49.53122" lon="0.98496">
        <ele>123</ele>
        <time>2014-01-26T11:12:30Z</time>
      </trkpt>
      <trkpt lat="49.53114" lon="0.98466">
        <ele>123</ele>
        <time>2014-01-26T11:12:34Z</time>
      </trkpt>
      <trkpt lat="49.53105" lon="0.98441">
        <ele>123</ele>
        <time>2014-01-26T11:12:38Z</time>
      </trkpt>
      <trkpt lat="49.53097" lon="0.98412">
        <ele>123</ele>
        <time>2014-01-26T11:12:43Z</time>
      </trkpt>
      <trkpt lat="49.53094" lon="0.98378">
        <ele>123</ele>
        <time>2014-01-26T11:12:48Z</time>
      </trkpt>
      <trkpt lat="49.53093" lon="0.98345">
        <ele>123</ele>
        <time>2014-01-26T11:12:53Z</time>
      </trkpt>
      <trkpt lat="49.53091" lon="0.98311">
        <ele>123</ele>
        <time>2014-01-26T11:12:58Z</time>
      </trkpt>
      <trkpt lat="49.5309" lon="0.98283">
        <ele>124</ele>
        <time>2014-01-26T11:13:02Z</time>
      </trkpt>
      <trkpt lat="49.53089" lon="0.98255">
        <ele>125</ele>
        <time>2014-01-26T11:13:06Z</time>
      </trkpt>
      <trkpt lat="49.53087" lon="0.98227">
        <ele>125</ele>
        <time>2014-01-26T11:13:10Z</time>
      </trkpt>
      <trkpt lat="49.53087" lon="0.98198">
        <ele>125</ele>
        <time>2014-01-26T11:13:14Z</time>
      </trkpt>
      <trkpt lat="49.53085" lon="0.98169">
        <ele>126</ele>
        <time>2014-01-26T11:13:18Z</time>
      </trkpt>
      <trkpt lat="49.53084" lon="0.9814">
        <ele>125</ele>
        <time>2014-01-26T11:13:22Z</time>
      </trkpt>
      <trkpt lat="49.53083" lon="0.9811">
        <ele>126</ele>
        <time>2014-01-26T11:13:26Z</time>
      </trkpt>
      <trkpt lat="49.53082" lon="0.98078">
        <ele>126</ele>
        <time>2014-01-26T11:13:30Z</time>
      </trkpt>
      <trkpt lat="49.53081" lon="0.98046">
        <ele>126</ele>
        <time>2014-01-26T11:13:34Z</time>
      </trkpt>
      <trkpt lat="49.5308" lon="0.98013">
        <ele>125</ele>
        <time>2014-01-26T11:13:38Z</time>
      </trkpt>
      <trkpt lat="49.53079" lon="0.97979">
        <ele>126</ele>
        <time>2014-01-26T11:13:42Z</time>
      </trkpt>
      <trkpt lat="49.53078" lon="0.97946">
        <ele>126</ele>
        <time>2014-01-26T11:13:46Z</time>
      </trkpt>
      <trkpt lat="49.53078" lon="0.97912">
        <ele>126</ele>
        <time>2014-01-26T11:13:50Z</time>
      </trkpt>
      <trkpt lat="49.53079" lon="0.97877">
        <ele>126</ele>
        <time>2014-01-26T11:13:54Z</time>
      </trkpt>
      <trkpt lat="49.5308" lon="0.97849">
        <ele>125</ele>
        <time>2014-01-26T11:13:57Z</time>
      </trkpt>
      <trkpt lat="49.53081" lon="0.97822">
        <ele>125</ele>
        <time>2014-01-26T11:14:00Z</time>
      </trkpt>
      <trkpt lat="49.53083" lon="0.97785">
        <ele>125</ele>
        <time>2014-01-26T11:14:04Z</time>
      </trkpt>
      <trkpt lat="49.53083" lon="0.97749">
        <ele>125</ele>
        <time>2014-01-26T11:14:08Z</time>
      </trkpt>
      <trkpt lat="49.53077" lon="0.97715">
        <ele>125</ele>
        <time>2014-01-26T11:14:12Z</time>
      </trkpt>
      <trkpt lat="49.53064" lon="0.97686">
        <ele>125</ele>
        <time>2014-01-26T11:14:16Z</time>
      </trkpt>
      <trkpt lat="49.53049" lon="0.97658">
        <ele>125</ele>
        <time>2014-01-26T11:14:20Z</time>
      </trkpt>
      <trkpt lat="49.53037" lon="0.9763">
        <ele>124</ele>
        <time>2014-01-26T11:14:24Z</time>
      </trkpt>
      <trkpt lat="49.53044" lon="0.97597">
        <ele>124</ele>
        <time>2014-01-26T11:14:28Z</time>
      </trkpt>
      <trkpt lat="49.53058" lon="0.97574">
        <ele>124</ele>
        <time>2014-01-26T11:14:31Z</time>
      </trkpt>
      <trkpt lat="49.53071" lon="0.97551">
        <ele>124</ele>
        <time>2014-01-26T11:14:34Z</time>
      </trkpt>
      <trkpt lat="49.53083" lon="0.97529">
        <ele>124</ele>
        <time>2014-01-26T11:14:37Z</time>
      </trkpt>
      <trkpt lat="49.53096" lon="0.97504">
        <ele>125</ele>
        <time>2014-01-26T11:14:40Z</time>
      </trkpt>
      <trkpt lat="49.531" lon="0.97475">
        <ele>126</ele>
        <time>2014-01-26T11:14:43Z</time>
      </trkpt>
      <trkpt lat="49.53094" lon="0.97446">
        <ele>127</ele>
        <time>2014-01-26T11:14:46Z</time>
      </trkpt>
      <trkpt lat="49.53085" lon="0.97418">
        <ele>126</ele>
        <time>2014-01-26T11:14:49Z</time>
      </trkpt>
      <trkpt lat="49.53073" lon="0.97394">
        <ele>125</ele>
        <time>2014-01-26T11:14:52Z</time>
      </trkpt>
      <trkpt lat="49.53059" lon="0.97366">
        <ele>125</ele>
        <time>2014-01-26T11:14:56Z</time>
      </trkpt>
      <trkpt lat="49.53044" lon="0.97341">
        <ele>125</ele>
        <time>2014-01-26T11:15:00Z</time>
      </trkpt>
      <trkpt lat="49.53032" lon="0.97322">
        <ele>125</ele>
        <time>2014-01-26T11:15:04Z</time>
      </trkpt>
      <trkpt lat="49.53018" lon="0.97301">
        <ele>125</ele>
        <time>2014-01-26T11:15:09Z</time>
      </trkpt>
      <trkpt lat="49.53002" lon="0.97283">
        <ele>126</ele>
        <time>2014-01-26T11:15:19Z</time>
      </trkpt>
      <trkpt lat="49.52987" lon="0.9726">
        <ele>124</ele>
        <time>2014-01-26T11:15:57Z</time>
      </trkpt>
      <trkpt lat="49.52977" lon="0.97236">
        <ele>125</ele>
        <time>2014-01-26T11:16:01Z</time>
      </trkpt>
      <trkpt lat="49.52966" lon="0.97209">
        <ele>124</ele>
        <time>2014-01-26T11:16:07Z</time>
      </trkpt>
      <trkpt lat="49.52954" lon="0.97186">
        <ele>124</ele>
        <time>2014-01-26T11:16:13Z</time>
      </trkpt>
      <trkpt lat="49.52941" lon="0.97162">
        <ele>124</ele>
        <time>2014-01-26T11:16:19Z</time>
      </trkpt>
      <trkpt lat="49.52929" lon="0.97139">
        <ele>125</ele>
        <time>2014-01-26T11:16:25Z</time>
      </trkpt>
      <trkpt lat="49.52919" lon="0.97116">
        <ele>125</ele>
        <time>2014-01-26T11:17:12Z</time>
      </trkpt>
      <trkpt lat="49.52909" lon="0.97087">
        <ele>124</ele>
        <time>2014-01-26T11:19:08Z</time>
      </trkpt>
      <trkpt lat="49.52899" lon="0.97063">
        <ele>123</ele>
        <time>2014-01-26T11:19:13Z</time>
      </trkpt>
      <trkpt lat="49.52888" lon="0.97037">
        <ele>122</ele>
        <time>2014-01-26T11:19:18Z</time>
      </trkpt>
      <trkpt lat="49.52877" lon="0.97012">
        <ele>122</ele>
        <time>2014-01-26T11:19:23Z</time>
      </trkpt>
      <trkpt lat="49.52865" lon="0.96986">
        <ele>121</ele>
        <time>2014-01-26T11:19:28Z</time>
      </trkpt>
      <trkpt lat="49.52853" lon="0.96958">
        <ele>121</ele>
        <time>2014-01-26T11:19:33Z</time>
      </trkpt>
      <trkpt lat="49.52843" lon="0.96934">
        <ele>120</ele>
        <time>2014-01-26T11:19:37Z</time>
      </trkpt>
      <trkpt lat="49.52832" lon="0.96908">
        <ele>119</ele>
        <time>2014-01-26T11:19:42Z</time>
      </trkpt>
      <trkpt lat="49.52821" lon="0.96882">
        <ele>118</ele>
        <time>2014-01-26T11:19:47Z</time>
      </trkpt>
      <trkpt lat="49.52809" lon="0.96856">
        <ele>118</ele>
        <time>2014-01-26T11:19:52Z</time>
      </trkpt>
      <trkpt lat="49.52797" lon="0.96829">
        <ele>118</ele>
        <time>2014-01-26T11:19:57Z</time>
      </trkpt>
      <trkpt lat="49.52786" lon="0.96802">
        <ele>118</ele>
        <time>2014-01-26T11:20:02Z</time>
      </trkpt>
      <trkpt lat="49.52775" lon="0.96778">
        <ele>117</ele>
        <time>2014-01-26T11:20:07Z</time>
      </trkpt>
      <trkpt lat="49.52757" lon="0.96763">
        <ele>117</ele>
        <time>2014-01-26T11:20:13Z</time>
      </trkpt>
      <trkpt lat="49.52745" lon="0.9674">
        <ele>116</ele>
        <time>2014-01-26T11:20:17Z</time>
      </trkpt>
      <trkpt lat="49.52735" lon="0.96713">
        <ele>115</ele>
        <time>2014-01-26T11:20:21Z</time>
      </trkpt>
      <trkpt lat="49.52726" lon="0.96687">
        <ele>115</ele>
        <time>2014-01-26T11:20:25Z</time>
      </trkpt>
      <trkpt lat="49.52709" lon="0.96665">
        <ele>115</ele>
        <time>2014-01-26T11:20:30Z</time>
      </trkpt>
      <trkpt lat="49.52698" lon="0.96639">
        <ele>114</ele>
        <time>2014-01-26T11:20:34Z</time>
      </trkpt>
      <trkpt lat="49.5269" lon="0.96612">
        <ele>114</ele>
        <time>2014-01-26T11:20:38Z</time>
      </trkpt>
      <trkpt lat="49.52677" lon="0.96592">
        <ele>114</ele>
        <time>2014-01-26T11:20:42Z</time>
      </trkpt>
      <trkpt lat="49.52656" lon="0.96588">
        <ele>113</ele>
        <time>2014-01-26T11:20:47Z</time>
      </trkpt>
      <trkpt lat="49.52638" lon="0.96595">
        <ele>113</ele>
        <time>2014-01-26T11:20:51Z</time>
      </trkpt>
      <trkpt lat="49.52617" lon="0.966">
        <ele>112</ele>
        <time>2014-01-26T11:20:55Z</time>
      </trkpt>
      <trkpt lat="49.52596" lon="0.96609">
        <ele>112</ele>
        <time>2014-01-26T11:20:59Z</time>
      </trkpt>
      <trkpt lat="49.52579" lon="0.96625">
        <ele>112</ele>
        <time>2014-01-26T11:21:03Z</time>
      </trkpt>
      <trkpt lat="49.5256" lon="0.9664">
        <ele>112</ele>
        <time>2014-01-26T11:21:07Z</time>
      </trkpt>
      <trkpt lat="49.52538" lon="0.96654">
        <ele>112</ele>
        <time>2014-01-26T11:21:11Z</time>
      </trkpt>
      <trkpt lat="49.52516" lon="0.96654">
        <ele>112</ele>
        <time>2014-01-26T11:21:15Z</time>
      </trkpt>
      <trkpt lat="49.52497" lon="0.96644">
        <ele>113</ele>
        <time>2014-01-26T11:21:18Z</time>
      </trkpt>
      <trkpt lat="49.52484" lon="0.96623">
        <ele>113</ele>
        <time>2014-01-26T11:21:21Z</time>
      </trkpt>
      <trkpt lat="49.52467" lon="0.96599">
        <ele>113</ele>
        <time>2014-01-26T11:21:25Z</time>
      </trkpt>
      <trkpt lat="49.52452" lon="0.96572">
        <ele>113</ele>
        <time>2014-01-26T11:21:28Z</time>
      </trkpt>
      <trkpt lat="49.52442" lon="0.96541">
        <ele>113</ele>
        <time>2014-01-26T11:21:32Z</time>
      </trkpt>
      <trkpt lat="49.5245" lon="0.96514">
        <ele>113</ele>
        <time>2014-01-26T11:21:35Z</time>
      </trkpt>
      <trkpt lat="49.52459" lon="0.96487">
        <ele>112</ele>
        <time>2014-01-26T11:21:38Z</time>
      </trkpt>
      <trkpt lat="49.5247" lon="0.96459">
        <ele>112</ele>
        <time>2014-01-26T11:21:41Z</time>
      </trkpt>
      <trkpt lat="49.52481" lon="0.96432">
        <ele>111</ele>
        <time>2014-01-26T11:21:44Z</time>
      </trkpt>
      <trkpt lat="49.52493" lon="0.96405">
        <ele>110</ele>
        <time>2014-01-26T11:21:47Z</time>
      </trkpt>
      <trkpt lat="49.52505" lon="0.96379">
        <ele>110</ele>
        <time>2014-01-26T11:21:50Z</time>
      </trkpt>
      <trkpt lat="49.52514" lon="0.9635">
        <ele>110</ele>
        <time>2014-01-26T11:21:53Z</time>
      </trkpt>
      <trkpt lat="49.52522" lon="0.9632">
        <ele>112</ele>
        <time>2014-01-26T11:21:56Z</time>
      </trkpt>
      <trkpt lat="49.52527" lon="0.96293">
        <ele>113</ele>
        <time>2014-01-26T11:21:59Z</time>
      </trkpt>
      <trkpt lat="49.52533" lon="0.96259">
        <ele>113</ele>
        <time>2014-01-26T11:22:03Z</time>
      </trkpt>
      <trkpt lat="49.52538" lon="0.96228">
        <ele>115</ele>
        <time>2014-01-26T11:22:08Z</time>
      </trkpt>
      <trkpt lat="49.52544" lon="0.962">
        <ele>116</ele>
        <time>2014-01-26T11:22:14Z</time>
      </trkpt>
      <trkpt lat="49.52549" lon="0.96172">
        <ele>116</ele>
        <time>2014-01-26T11:22:23Z</time>
      </trkpt>
      <trkpt lat="49.52554" lon="0.96144">
        <ele>118</ele>
        <time>2014-01-26T11:22:30Z</time>
      </trkpt>
      <trkpt lat="49.52558" lon="0.96115">
        <ele>118</ele>
        <time>2014-01-26T11:22:37Z</time>
      </trkpt>
      <trkpt lat="49.52556" lon="0.96087">
        <ele>119</ele>
        <time>2014-01-26T11:22:44Z</time>
      </trkpt>
      <trkpt lat="49.52543" lon="0.96065">
        <ele>120</ele>
        <time>2014-01-26T11:22:51Z</time>
      </trkpt>
      <trkpt lat="49.52524" lon="0.96053">
        <ele>119</ele>
        <time>2014-01-26T11:23:00Z</time>
      </trkpt>
      <trkpt lat="49.52505" lon="0.96051">
        <ele>119</ele>
        <time>2014-01-26T11:23:10Z</time>
      </trkpt>
      <trkpt lat="49.52486" lon="0.9606">
        <ele>117</ele>
        <time>2014-01-26T11:23:17Z</time>
      </trkpt>
      <trkpt lat="49.52475" lon="0.96085">
        <ele>116</ele>
        <time>2014-01-26T11:23:22Z</time>
      </trkpt>
      <trkpt lat="49.5247" lon="0.96117">
        <ele>116</ele>
        <time>2014-01-26T11:23:27Z</time>
      </trkpt>
      <trkpt lat="49.52463" lon="0.96148">
        <ele>115</ele>
        <time>2014-01-26T11:23:31Z</time>
      </trkpt>
      <trkpt lat="49.52458" lon="0.96176">
        <ele>114</ele>
        <time>2014-01-26T11:23:34Z</time>
      </trkpt>
      <trkpt lat="49.52445" lon="0.96199">
        <ele>113</ele>
        <time>2014-01-26T11:23:37Z</time>
      </trkpt>
      <trkpt lat="49.52425" lon="0.96206">
        <ele>113</ele>
        <time>2014-01-26T11:23:40Z</time>
      </trkpt>
      <trkpt lat="49.52408" lon="0.96191">
        <ele>110</ele>
        <time>2014-01-26T11:23:43Z</time>
      </trkpt>
      <trkpt lat="49.52392" lon="0.96176">
        <ele>110</ele>
        <time>2014-01-26T11:23:46Z</time>
      </trkpt>
      <trkpt lat="49.52376" lon="0.96156">
        <ele>110</ele>
        <time>2014-01-26T11:23:50Z</time>
      </trkpt>
      <trkpt lat="49.52373" lon="0.96127">
        <ele>111</ele>
        <time>2014-01-26T11:23:54Z</time>
      </trkpt>
      <trkpt lat="49.52377" lon="0.961">
        <ele>111</ele>
        <time>2014-01-26T11:23:58Z</time>
      </trkpt>
      <trkpt lat="49.52386" lon="0.96076">
        <ele>113</ele>
        <time>2014-01-26T11:24:02Z</time>
      </trkpt>
      <trkpt lat="49.52402" lon="0.96052">
        <ele>113</ele>
        <time>2014-01-26T11:24:07Z</time>
      </trkpt>
      <trkpt lat="49.52421" lon="0.96039">
        <ele>115</ele>
        <time>2014-01-26T11:24:12Z</time>
      </trkpt>
      <trkpt lat="49.52438" lon="0.9603">
        <ele>116</ele>
        <time>2014-01-26T11:24:16Z</time>
      </trkpt>
      <trkpt lat="49.52457" lon="0.96016">
        <ele>116</ele>
        <time>2014-01-26T11:24:20Z</time>
      </trkpt>
      <trkpt lat="49.52472" lon="0.95999">
        <ele>118</ele>
        <time>2014-01-26T11:24:23Z</time>
      </trkpt>
      <trkpt lat="49.52486" lon="0.95977">
        <ele>118</ele>
        <time>2014-01-26T11:24:26Z</time>
      </trkpt>
      <trkpt lat="49.52496" lon="0.95946">
        <ele>118</ele>
        <time>2014-01-26T11:24:30Z</time>
      </trkpt>
      <trkpt lat="49.52504" lon="0.95917">
        <ele>120</ele>
        <time>2014-01-26T11:24:35Z</time>
      </trkpt>
      <trkpt lat="49.5251" lon="0.95889">
        <ele>121</ele>
        <time>2014-01-26T11:24:41Z</time>
      </trkpt>
      <trkpt lat="49.52515" lon="0.95861">
        <ele>121</ele>
        <time>2014-01-26T11:24:49Z</time>
      </trkpt>
      <trkpt lat="49.52523" lon="0.95833">
        <ele>121</ele>
        <time>2014-01-26T11:24:56Z</time>
      </trkpt>
      <trkpt lat="49.52531" lon="0.95807">
        <ele>121</ele>
        <time>2014-01-26T11:25:01Z</time>
      </trkpt>
      <trkpt lat="49.52537" lon="0.95781">
        <ele>121</ele>
        <time>2014-01-26T11:25:07Z</time>
      </trkpt>
      <trkpt lat="49.52545" lon="0.95755">
        <ele>121</ele>
        <time>2014-01-26T11:25:13Z</time>
      </trkpt>
      <trkpt lat="49.52552" lon="0.95728">
        <ele>122</ele>
        <time>2014-01-26T11:25:19Z</time>
      </trkpt>
      <trkpt lat="49.5256" lon="0.95699">
        <ele>122</ele>
        <time>2014-01-26T11:25:25Z</time>
      </trkpt>
      <trkpt lat="49.52567" lon="0.9567">
        <ele>122</ele>
        <time>2014-01-26T11:25:31Z</time>
      </trkpt>
      <trkpt lat="49.52575" lon="0.95645">
        <ele>122</ele>
        <time>2014-01-26T11:25:36Z</time>
      </trkpt>
      <trkpt lat="49.52583" lon="0.95616">
        <ele>122</ele>
        <time>2014-01-26T11:25:43Z</time>
      </trkpt>
      <trkpt lat="49.5259" lon="0.9559">
        <ele>122</ele>
        <time>2014-01-26T11:25:49Z</time>
      </trkpt>
      <trkpt lat="49.52598" lon="0.95563">
        <ele>122</ele>
        <time>2014-01-26T11:25:56Z</time>
      </trkpt>
      <trkpt lat="49.52606" lon="0.95538">
        <ele>122</ele>
        <time>2014-01-26T11:26:02Z</time>
      </trkpt>
      <trkpt lat="49.52615" lon="0.95509">
        <ele>122</ele>
        <time>2014-01-26T11:26:07Z</time>
      </trkpt>
      <trkpt lat="49.52624" lon="0.95477">
        <ele>122</ele>
        <time>2014-01-26T11:26:12Z</time>
      </trkpt>
      <trkpt lat="49.52633" lon="0.95446">
        <ele>121</ele>
        <time>2014-01-26T11:26:17Z</time>
      </trkpt>
      <trkpt lat="49.52644" lon="0.95417">
        <ele>121</ele>
        <time>2014-01-26T11:26:22Z</time>
      </trkpt>
      <trkpt lat="49.52655" lon="0.95388">
        <ele>120</ele>
        <time>2014-01-26T11:26:27Z</time>
      </trkpt>
      <trkpt lat="49.52664" lon="0.95363">
        <ele>120</ele>
        <time>2014-01-26T11:26:31Z</time>
      </trkpt>
      <trkpt lat="49.52675" lon="0.95336">
        <ele>119</ele>
        <time>2014-01-26T11:26:35Z</time>
      </trkpt>
      <trkpt lat="49.52687" lon="0.95308">
        <ele>117</ele>
        <time>2014-01-26T11:26:39Z</time>
      </trkpt>
      <trkpt lat="49.52699" lon="0.95279">
        <ele>117</ele>
        <time>2014-01-26T11:26:43Z</time>
      </trkpt>
      <trkpt lat="49.52712" lon="0.9525">
        <ele>115</ele>
        <time>2014-01-26T11:26:47Z</time>
      </trkpt>
      <trkpt lat="49.52722" lon="0.95226">
        <ele>114</ele>
        <time>2014-01-26T11:26:50Z</time>
      </trkpt>
      <trkpt lat="49.52733" lon="0.95201">
        <ele>114</ele>
        <time>2014-01-26T11:26:53Z</time>
      </trkpt>
      <trkpt lat="49.52745" lon="0.95176">
        <ele>112</ele>
        <time>2014-01-26T11:26:56Z</time>
      </trkpt>
      <trkpt lat="49.52757" lon="0.9515">
        <ele>111</ele>
        <time>2014-01-26T11:26:59Z</time>
      </trkpt>
      <trkpt lat="49.52767" lon="0.9512">
        <ele>111</ele>
        <time>2014-01-26T11:27:02Z</time>
      </trkpt>
      <trkpt lat="49.52774" lon="0.95087">
        <ele>111</ele>
        <time>2014-01-26T11:27:05Z</time>
      </trkpt>
      <trkpt lat="49.52778" lon="0.95057">
        <ele>111</ele>
        <time>2014-01-26T11:27:08Z</time>
      </trkpt>
      <trkpt lat="49.52782" lon="0.95028">
        <ele>111</ele>
        <time>2014-01-26T11:27:12Z</time>
      </trkpt>
      <trkpt lat="49.52775" lon="0.95002">
        <ele>111</ele>
        <time>2014-01-26T11:27:24Z</time>
      </trkpt>
      <trkpt lat="49.52759" lon="0.94987">
        <ele>111</ele>
        <time>2014-01-26T11:27:30Z</time>
      </trkpt>
      <trkpt lat="49.5274" lon="0.94974">
        <ele>112</ele>
        <time>2014-01-26T11:27:37Z</time>
      </trkpt>
      <trkpt lat="49.52721" lon="0.94962">
        <ele>112</ele>
        <time>2014-01-26T11:27:43Z</time>
      </trkpt>
      <trkpt lat="49.52704" lon="0.94951">
        <ele>112</ele>
        <time>2014-01-26T11:27:48Z</time>
      </trkpt>
      <trkpt lat="49.52686" lon="0.94939">
        <ele>112</ele>
        <time>2014-01-26T11:27:53Z</time>
      </trkpt>
      <trkpt lat="49.52668" lon="0.94929">
        <ele>113</ele>
        <time>2014-01-26T11:27:58Z</time>
      </trkpt>
      <trkpt lat="49.5265" lon="0.94921">
        <ele>114</ele>
        <time>2014-01-26T11:28:03Z</time>
      </trkpt>
      <trkpt lat="49.52631" lon="0.9491">
        <ele>113</ele>
        <time>2014-01-26T11:28:08Z</time>
      </trkpt>
      <trkpt lat="49.52612" lon="0.949">
        <ele>113</ele>
        <time>2014-01-26T11:28:13Z</time>
      </trkpt>
      <trkpt lat="49.52594" lon="0.94893">
        <ele>113</ele>
        <time>2014-01-26T11:28:18Z</time>
      </trkpt>
      <trkpt lat="49.52576" lon="0.94881">
        <ele>114</ele>
        <time>2014-01-26T11:28:24Z</time>
      </trkpt>
      <trkpt lat="49.52573" lon="0.94851">
        <ele>114</ele>
        <time>2014-01-26T11:28:30Z</time>
      </trkpt>
      <trkpt lat="49.5257" lon="0.94823">
        <ele>113</ele>
        <time>2014-01-26T11:28:35Z</time>
      </trkpt>
      <trkpt lat="49.52564" lon="0.94794">
        <ele>113</ele>
        <time>2014-01-26T11:28:40Z</time>
      </trkpt>
      <trkpt lat="49.52558" lon="0.94764">
        <ele>112</ele>
        <time>2014-01-26T11:28:45Z</time>
      </trkpt>
      <trkpt lat="49.52553" lon="0.94734">
        <ele>111</ele>
        <time>2014-01-26T11:28:50Z</time>
      </trkpt>
      <trkpt lat="49.52555" lon="0.94701">
        <ele>111</ele>
        <time>2014-01-26T11:28:55Z</time>
      </trkpt>
      <trkpt lat="49.52567" lon="0.94678">
        <ele>111</ele>
        <time>2014-01-26T11:28:59Z</time>
      </trkpt>
      <trkpt lat="49.52584" lon="0.94655">
        <ele>109</ele>
        <time>2014-01-26T11:29:03Z</time>
      </trkpt>
      <trkpt lat="49.52598" lon="0.94637">
        <ele>109</ele>
        <time>2014-01-26T11:29:06Z</time>
      </trkpt>
      <trkpt lat="49.52617" lon="0.94615">
        <ele>108</ele>
        <time>2014-01-26T11:29:10Z</time>
      </trkpt>
      <trkpt lat="49.52638" lon="0.94599">
        <ele>108</ele>
        <time>2014-01-26T11:29:14Z</time>
      </trkpt>
      <trkpt lat="49.52661" lon="0.94588">
        <ele>107</ele>
        <time>2014-01-26T11:29:18Z</time>
      </trkpt>
      <trkpt lat="49.52677" lon="0.94574">
        <ele>105</ele>
        <time>2014-01-26T11:29:21Z</time>
      </trkpt>
      <trkpt lat="49.52691" lon="0.94551">
        <ele>104</ele>
        <time>2014-01-26T11:29:24Z</time>
      </trkpt>
      <trkpt lat="49.52704" lon="0.94525">
        <ele>103</ele>
        <time>2014-01-26T11:29:27Z</time>
      </trkpt>
      <trkpt lat="49.52715" lon="0.94499">
        <ele>101</ele>
        <time>2014-01-26T11:29:30Z</time>
      </trkpt>
      <trkpt lat="49.52709" lon="0.94472">
        <ele>100</ele>
        <time>2014-01-26T11:29:33Z</time>
      </trkpt>
      <trkpt lat="49.52696" lon="0.94452">
        <ele>100</ele>
        <time>2014-01-26T11:29:36Z</time>
      </trkpt>
      <trkpt lat="49.52678" lon="0.9443">
        <ele>100</ele>
        <time>2014-01-26T11:29:40Z</time>
      </trkpt>
      <trkpt lat="49.52667" lon="0.94404">
        <ele>99</ele>
        <time>2014-01-26T11:29:43Z</time>
      </trkpt>
      <trkpt lat="49.52659" lon="0.9437">
        <ele>100</ele>
        <time>2014-01-26T11:29:46Z</time>
      </trkpt>
      <trkpt lat="49.52651" lon="0.94331">
        <ele>97</ele>
        <time>2014-01-26T11:29:49Z</time>
      </trkpt>
      <trkpt lat="49.52645" lon="0.94305">
        <ele>97</ele>
        <time>2014-01-26T11:29:51Z</time>
      </trkpt>
      <trkpt lat="49.52638" lon="0.94278">
        <ele>97</ele>
        <time>2014-01-26T11:29:53Z</time>
      </trkpt>
      <trkpt lat="49.52632" lon="0.9425">
        <ele>97</ele>
        <time>2014-01-26T11:29:55Z</time>
      </trkpt>
      <trkpt lat="49.52627" lon="0.94223">
        <ele>94</ele>
        <time>2014-01-26T11:29:57Z</time>
      </trkpt>
      <trkpt lat="49.52623" lon="0.94196">
        <ele>94</ele>
        <time>2014-01-26T11:29:59Z</time>
      </trkpt>
      <trkpt lat="49.52616" lon="0.94158">
        <ele>92</ele>
        <time>2014-01-26T11:30:02Z</time>
      </trkpt>
      <trkpt lat="49.52615" lon="0.94119">
        <ele>92</ele>
        <time>2014-01-26T11:30:05Z</time>
      </trkpt>
      <trkpt lat="49.52618" lon="0.94079">
        <ele>91</ele>
        <time>2014-01-26T11:30:08Z</time>
      </trkpt>
      <trkpt lat="49.52621" lon="0.94051">
        <ele>90</ele>
        <time>2014-01-26T11:30:10Z</time>
      </trkpt>
      <trkpt lat="49.52625" lon="0.94023">
        <ele>89</ele>
        <time>2014-01-26T11:30:12Z</time>
      </trkpt>
      <trkpt lat="49.52629" lon="0.93995">
        <ele>87</ele>
        <time>2014-01-26T11:30:14Z</time>
      </trkpt>
      <trkpt lat="49.52632" lon="0.93967">
        <ele>86</ele>
        <time>2014-01-26T11:30:16Z</time>
      </trkpt>
      <trkpt lat="49.52633" lon="0.93938">
        <ele>84</ele>
        <time>2014-01-26T11:30:18Z</time>
      </trkpt>
      <trkpt lat="49.5263" lon="0.93907">
        <ele>80</ele>
        <time>2014-01-26T11:30:20Z</time>
      </trkpt>
      <trkpt lat="49.52623" lon="0.93873">
        <ele>80</ele>
        <time>2014-01-26T11:30:22Z</time>
      </trkpt>
      <trkpt lat="49.52614" lon="0.93839">
        <ele>80</ele>
        <time>2014-01-26T11:30:24Z</time>
      </trkpt>
      <trkpt lat="49.52607" lon="0.93806">
        <ele>75</ele>
        <time>2014-01-26T11:30:26Z</time>
      </trkpt>
      <trkpt lat="49.52601" lon="0.93774">
        <ele>74</ele>
        <time>2014-01-26T11:30:28Z</time>
      </trkpt>
      <trkpt lat="49.52596" lon="0.93743">
        <ele>72</ele>
        <time>2014-01-26T11:30:30Z</time>
      </trkpt>
      <trkpt lat="49.5259" lon="0.93709">
        <ele>68</ele>
        <time>2014-01-26T11:30:32Z</time>
      </trkpt>
      <trkpt lat="49.52584" lon="0.93674">
        <ele>68</ele>
        <time>2014-01-26T11:30:34Z</time>
      </trkpt>
      <trkpt lat="49.52581" lon="0.93638">
        <ele>71</ele>
        <time>2014-01-26T11:30:36Z</time>
      </trkpt>
      <trkpt lat="49.52585" lon="0.93597">
        <ele>58</ele>
        <time>2014-01-26T11:30:38Z</time>
      </trkpt>
      <trkpt lat="49.5259" lon="0.93556">
        <ele>51</ele>
        <time>2014-01-26T11:30:40Z</time>
      </trkpt>
      <trkpt lat="49.52595" lon="0.93513">
        <ele>48</ele>
        <time>2014-01-26T11:30:42Z</time>
      </trkpt>
      <trkpt lat="49.52597" lon="0.93469">
        <ele>42</ele>
        <time>2014-01-26T11:30:44Z</time>
      </trkpt>
      <trkpt lat="49.52597" lon="0.93427">
        <ele>42</ele>
        <time>2014-01-26T11:30:46Z</time>
      </trkpt>
      <trkpt lat="49.52596" lon="0.93386">
        <ele>40</ele>
        <time>2014-01-26T11:30:48Z</time>
      </trkpt>
      <trkpt lat="49.52596" lon="0.93346">
        <ele>42</ele>
        <time>2014-01-26T11:30:50Z</time>
      </trkpt>
      <trkpt lat="49.52598" lon="0.93304">
        <ele>40</ele>
        <time>2014-01-26T11:30:52Z</time>
      </trkpt>
      <trkpt lat="49.526" lon="0.93264">
        <ele>40</ele>
        <time>2014-01-26T11:30:54Z</time>
      </trkpt>
      <trkpt lat="49.52603" lon="0.93225">
        <ele>37</ele>
        <time>2014-01-26T11:30:56Z</time>
      </trkpt>
      <trkpt lat="49.52606" lon="0.93187">
        <ele>36</ele>
        <time>2014-01-26T11:30:58Z</time>
      </trkpt>
      <trkpt lat="49.52608" lon="0.93152">
        <ele>33</ele>
        <time>2014-01-26T11:31:00Z</time>
      </trkpt>
      <trkpt lat="49.52611" lon="0.93116">
        <ele>32</ele>
        <time>2014-01-26T11:31:02Z</time>
      </trkpt>
      <trkpt lat="49.52615" lon="0.93082">
        <ele>31</ele>
        <time>2014-01-26T11:31:04Z</time>
      </trkpt>
      <trkpt lat="49.52624" lon="0.93047">
        <ele>31</ele>
        <time>2014-01-26T11:31:07Z</time>
      </trkpt>
      <trkpt lat="49.52638" lon="0.93029">
        <ele>31</ele>
        <time>2014-01-26T11:31:10Z</time>
      </trkpt>
      <trkpt lat="49.52654" lon="0.93014">
        <ele>31</ele>
        <time>2014-01-26T11:31:13Z</time>
      </trkpt>
      <trkpt lat="49.52671" lon="0.92996">
        <ele>31</ele>
        <time>2014-01-26T11:31:17Z</time>
      </trkpt>
      <trkpt lat="49.52694" lon="0.93">
        <ele>29</ele>
        <time>2014-01-26T11:31:21Z</time>
      </trkpt>
      <trkpt lat="49.52716" lon="0.93014">
        <ele>28</ele>
        <time>2014-01-26T11:31:25Z</time>
      </trkpt>
      <trkpt lat="49.52733" lon="0.93025">
        <ele>27</ele>
        <time>2014-01-26T11:31:28Z</time>
      </trkpt>
      <trkpt lat="49.52749" lon="0.93037">
        <ele>27</ele>
        <time>2014-01-26T11:31:31Z</time>
      </trkpt>
      <trkpt lat="49.52766" lon="0.93049">
        <ele>28</ele>
        <time>2014-01-26T11:31:34Z</time>
      </trkpt>
      <trkpt lat="49.52784" lon="0.93063">
        <ele>29</ele>
        <time>2014-01-26T11:31:37Z</time>
      </trkpt>
      <trkpt lat="49.52798" lon="0.93084">
        <ele>30</ele>
        <time>2014-01-26T11:31:40Z</time>
      </trkpt>
      <trkpt lat="49.52809" lon="0.93106">
        <ele>30</ele>
        <time>2014-01-26T11:31:43Z</time>
      </trkpt>
      <trkpt lat="49.52819" lon="0.93138">
        <ele>30</ele>
        <time>2014-01-26T11:31:47Z</time>
      </trkpt>
      <trkpt lat="49.52822" lon="0.93171">
        <ele>30</ele>
        <time>2014-01-26T11:31:51Z</time>
      </trkpt>
      <trkpt lat="49.52824" lon="0.93202">
        <ele>29</ele>
        <time>2014-01-26T11:31:55Z</time>
      </trkpt>
      <trkpt lat="49.5283" lon="0.93232">
        <ele>29</ele>
        <time>2014-01-26T11:31:59Z</time>
      </trkpt>
      <trkpt lat="49.52836" lon="0.93261">
        <ele>32</ele>
        <time>2014-01-26T11:32:03Z</time>
      </trkpt>
      <trkpt lat="49.52847" lon="0.9329">
        <ele>34</ele>
        <time>2014-01-26T11:32:07Z</time>
      </trkpt>
      <trkpt lat="49.52857" lon="0.93321">
        <ele>33</ele>
        <time>2014-01-26T11:32:11Z</time>
      </trkpt>
      <trkpt lat="49.52866" lon="0.93354">
        <ele>31</ele>
        <time>2014-01-26T11:32:15Z</time>
      </trkpt>
      <trkpt lat="49.52873" lon="0.9338">
        <ele>31</ele>
        <time>2014-01-26T11:32:18Z</time>
      </trkpt>
      <trkpt lat="49.5288" lon="0.93405">
        <ele>31</ele>
        <time>2014-01-26T11:32:21Z</time>
      </trkpt>
      <trkpt lat="49.52893" lon="0.93434">
        <ele>31</ele>
        <time>2014-01-26T11:32:25Z</time>
      </trkpt>
      <trkpt lat="49.52908" lon="0.9346">
        <ele>30</ele>
        <time>2014-01-26T11:32:29Z</time>
      </trkpt>
      <trkpt lat="49.52923" lon="0.93485">
        <ele>32</ele>
        <time>2014-01-26T11:32:33Z</time>
      </trkpt>
      <trkpt lat="49.5294" lon="0.93507">
        <ele>31</ele>
        <time>2014-01-26T11:32:37Z</time>
      </trkpt>
      <trkpt lat="49.52956" lon="0.93525">
        <ele>32</ele>
        <time>2014-01-26T11:32:41Z</time>
      </trkpt>
      <trkpt lat="49.52975" lon="0.93536">
        <ele>32</ele>
        <time>2014-01-26T11:32:45Z</time>
      </trkpt>
      <trkpt lat="49.52995" lon="0.93542">
        <ele>33</ele>
        <time>2014-01-26T11:32:49Z</time>
      </trkpt>
      <trkpt lat="49.53013" lon="0.93548">
        <ele>35</ele>
        <time>2014-01-26T11:32:53Z</time>
      </trkpt>
      <trkpt lat="49.53032" lon="0.93547">
        <ele>35</ele>
        <time>2014-01-26T11:32:58Z</time>
      </trkpt>
    </trkseg>
  </trk>
</gpx>